PWSweather.com
Personal Weather Stations
Station Observations
HVALPSUND
Hvalpsund, FarsoeDK 9640

HvalpsundFarsoeDK 9640

Lat: 56.705311, Lon: 9.203638

Elevation: 5

Station Type: Vantage Pro2

http://hvalpsundvejr.dk

High Low Average
Temperature 67.6°F19.8°C 54.3°F12.4°C 59.8°F15.4°C
Dew Point 58.0°F14.4°C 49.2°F9.6°C 53.3°F11.8°C
Winds 20.6 mph 33.2 kmh 4.4 mph 7.1 kmh 11.0 mph WSW17.7 kmh WSW
Wind Gusts 24.0 mph38.6 kmh 7.0 mph11.3 kmh 13.0 mph20.9 kmh
Humidity 86% 68% 79%
Pressure 29.76 in1007.8 mb 29.70 in1005.8 mb -
Precipitation 0.00 in0.0 mm - -
Hour Temp Dew Point Humidity Winds Wind Gusts Pressure Precip Precip Rate Daily Precip Total
12:00 AM 55.7°F13.2°C 50.6°F10.3°C 83% 16.2 mph WNW26.1 kmh WNW 20.0 mph32.2 kmh 29.71 in1006.1 mb 0.00 in0.0 mm 0.00 in0.0 mm 0.00 in0.0 mm
12:01 AM 55.7°F13.2°C 50.9°F10.5°C 84% 14.0 mph W22.5 kmh W 19.0 mph30.6 kmh 29.71 in1006.1 mb 0.00 in0.0 mm 0.00 in0.0 mm 0.00 in0.0 mm
12:02 AM 55.8°F13.2°C 51.0°F10.6°C 84% 17.6 mph WNW28.3 kmh WNW 19.0 mph30.6 kmh 29.71 in1006.1 mb 0.00 in0.0 mm 0.00 in0.0 mm 0.00 in0.0 mm
12:03 AM 55.7°F13.2°C 50.9°F10.5°C 84% 15.0 mph WNW24.1 kmh WNW 19.0 mph30.6 kmh 29.71 in1006.1 mb 0.00 in0.0 mm 0.00 in0.0 mm 0.00 in0.0 mm
12:04 AM 55.8°F13.2°C 51.0°F10.6°C 84% 16.4 mph WNW26.4 kmh WNW 19.0 mph30.6 kmh 29.71 in1006.1 mb 0.00 in0.0 mm 0.00 in0.0 mm 0.00 in0.0 mm
12:05 AM 55.8°F13.2°C 51.0°F10.6°C 84% 16.1 mph WNW25.9 kmh WNW 19.0 mph30.6 kmh 29.71 in1006.1 mb 0.00 in0.0 mm 0.00 in0.0 mm 0.00 in0.0 mm
12:06 AM 55.7°F13.2°C 50.6°F10.3°C 83% 14.1 mph W22.7 kmh W 18.0 mph29.0 kmh 29.71 in1006.1 mb 0.00 in0.0 mm 0.00 in0.0 mm 0.00 in0.0 mm
12:07 AM 55.8°F13.2°C 51.0°F10.6°C 84% 12.4 mph WNW20.0 kmh WNW 16.0 mph25.7 kmh 29.71 in1006.1 mb 0.00 in0.0 mm 0.00 in0.0 mm 0.00 in0.0 mm
12:08 AM 55.8°F13.2°C 51.0°F10.6°C 84% 14.7 mph WNW23.7 kmh WNW 18.0 mph29.0 kmh 29.71 in1006.1 mb 0.00 in0.0 mm 0.00 in0.0 mm 0.00 in0.0 mm
12:09 AM 55.9°F13.3°C 51.1°F10.6°C 84% 14.6 mph WNW23.5 kmh WNW 18.0 mph29.0 kmh 29.71 in1006.1 mb 0.00 in0.0 mm 0.00 in0.0 mm 0.00 in0.0 mm
12:10 AM 55.7°F13.2°C 50.6°F10.3°C 83% 12.4 mph W20.0 kmh W 17.0 mph27.4 kmh 29.71 in1006.1 mb 0.00 in0.0 mm 0.00 in0.0 mm 0.00 in0.0 mm
12:11 AM 55.7°F13.2°C 50.9°F10.5°C 84% 12.7 mph WNW20.4 kmh WNW 15.0 mph24.1 kmh 29.71 in1006.1 mb 0.00 in0.0 mm 0.00 in0.0 mm 0.00 in0.0 mm
12:12 AM 55.9°F13.3°C 51.1°F10.6°C 84% 14.9 mph WNW24.0 kmh WNW 17.0 mph27.4 kmh 29.72 in1006.4 mb 0.00 in0.0 mm 0.00 in0.0 mm 0.00 in0.0 mm
12:13 AM 55.8°F13.2°C 51.0°F10.6°C 84% 14.0 mph WNW22.5 kmh WNW 18.0 mph29.0 kmh 29.72 in1006.4 mb 0.00 in0.0 mm 0.00 in0.0 mm 0.00 in0.0 mm
12:14 AM 55.9°F13.3°C 51.1°F10.6°C 84% 13.9 mph WNW22.4 kmh WNW 18.0 mph29.0 kmh 29.71 in1006.1 mb 0.00 in0.0 mm 0.00 in0.0 mm 0.00 in0.0 mm
12:15 AM 55.9°F13.3°C 51.1°F10.6°C 84% 13.9 mph W22.4 kmh W 18.0 mph29.0 kmh 29.71 in1006.1 mb 0.00 in0.0 mm 0.00 in0.0 mm 0.00 in0.0 mm
12:16 AM 55.8°F13.2°C 51.0°F10.6°C 84% 13.8 mph WNW22.2 kmh WNW 16.0 mph25.7 kmh 29.71 in1006.1 mb 0.00 in0.0 mm 0.00 in0.0 mm 0.00 in0.0 mm
12:17 AM 55.8°F13.2°C 51.0°F10.6°C 84% 11.6 mph WNW18.7 kmh WNW 16.0 mph25.7 kmh 29.71 in1006.1 mb 0.00 in0.0 mm 0.00 in0.0 mm 0.00 in0.0 mm
12:18 AM 55.8°F13.2°C 51.0°F10.6°C 84% 12.0 mph WNW19.3 kmh WNW 14.0 mph22.5 kmh 29.71 in1006.1 mb 0.00 in0.0 mm 0.00 in0.0 mm 0.00 in0.0 mm
12:19 AM 55.7°F13.2°C 50.6°F10.3°C 83% 11.0 mph W17.7 kmh W 14.0 mph22.5 kmh 29.71 in1006.1 mb 0.00 in0.0 mm 0.00 in0.0 mm 0.00 in0.0 mm
12:20 AM 55.7°F13.2°C 50.9°F10.5°C 84% 11.4 mph W18.3 kmh W 14.0 mph22.5 kmh 29.71 in1006.1 mb 0.00 in0.0 mm 0.00 in0.0 mm 0.00 in0.0 mm
12:21 AM 55.7°F13.2°C 50.9°F10.5°C 84% 11.2 mph W18.0 kmh W 15.0 mph24.1 kmh 29.71 in1006.1 mb 0.00 in0.0 mm 0.00 in0.0 mm 0.00 in0.0 mm
12:22 AM 55.8°F13.2°C 51.0°F10.6°C 84% 13.8 mph WNW22.2 kmh WNW 18.0 mph29.0 kmh 29.71 in1006.1 mb 0.00 in0.0 mm 0.00 in0.0 mm 0.00 in0.0 mm
12:23 AM 55.7°F13.2°C 50.9°F10.5°C 84% 13.4 mph WNW21.6 kmh WNW 18.0 mph29.0 kmh 29.71 in1006.1 mb 0.00 in0.0 mm 0.00 in0.0 mm 0.00 in0.0 mm
12:24 AM 55.8°F13.2°C 51.0°F10.6°C 84% 15.3 mph WNW24.6 kmh WNW 18.0 mph29.0 kmh 29.71 in1006.1 mb 0.00 in0.0 mm 0.00 in0.0 mm 0.00 in0.0 mm
12:25 AM 55.7°F13.2°C 50.9°F10.5°C 84% 12.2 mph W19.6 kmh W 18.0 mph29.0 kmh 29.71 in1006.1 mb 0.00 in0.0 mm 0.00 in0.0 mm 0.00 in0.0 mm
12:26 AM 55.8°F13.2°C 51.0°F10.6°C 84% 13.7 mph W22.0 kmh W 18.0 mph29.0 kmh 29.71 in1006.1 mb 0.00 in0.0 mm 0.00 in0.0 mm 0.00 in0.0 mm
12:27 AM 55.9°F13.3°C 51.1°F10.6°C 84% 13.3 mph WNW21.4 kmh WNW 18.0 mph29.0 kmh 29.71 in1006.1 mb 0.00 in0.0 mm 0.00 in0.0 mm 0.00 in0.0 mm
12:28 AM 55.9°F13.3°C 51.1°F10.6°C 84% 12.4 mph W20.0 kmh W 17.0 mph27.4 kmh 29.71 in1006.1 mb 0.00 in0.0 mm 0.00 in0.0 mm 0.00 in0.0 mm
12:29 AM 55.8°F13.2°C 51.0°F10.6°C 84% 14.1 mph WNW22.7 kmh WNW 16.0 mph25.7 kmh 29.71 in1006.1 mb 0.00 in0.0 mm 0.00 in0.0 mm 0.00 in0.0 mm
12:30 AM 55.8°F13.2°C 51.0°F10.6°C 84% 13.1 mph W21.1 kmh W 16.0 mph25.7 kmh 29.71 in1006.1 mb 0.00 in0.0 mm 0.00 in0.0 mm 0.00 in0.0 mm
12:31 AM 55.8°F13.2°C 51.0°F10.6°C 84% 12.6 mph W20.3 kmh W 16.0 mph25.7 kmh 29.71 in1006.1 mb 0.00 in0.0 mm 0.00 in0.0 mm 0.00 in0.0 mm
12:32 AM 55.8°F13.2°C 51.0°F10.6°C 84% 13.4 mph W21.6 kmh W 18.0 mph29.0 kmh 29.71 in1006.1 mb 0.00 in0.0 mm 0.00 in0.0 mm 0.00 in0.0 mm
12:33 AM 55.8°F13.2°C 51.0°F10.6°C 84% 13.4 mph W21.6 kmh W 18.0 mph29.0 kmh 29.71 in1006.1 mb 0.00 in0.0 mm 0.00 in0.0 mm 0.00 in0.0 mm
12:34 AM 55.8°F13.2°C 51.0°F10.6°C 84% 14.4 mph W23.2 kmh W 20.0 mph32.2 kmh 29.71 in1006.1 mb 0.00 in0.0 mm 0.00 in0.0 mm 0.00 in0.0 mm
12:35 AM 55.8°F13.2°C 51.0°F10.6°C 84% 14.1 mph WNW22.7 kmh WNW 20.0 mph32.2 kmh 29.71 in1006.1 mb 0.00 in0.0 mm 0.00 in0.0 mm 0.00 in0.0 mm
12:36 AM 55.8°F13.2°C 51.0°F10.6°C 84% 13.8 mph W22.2 kmh W 19.0 mph30.6 kmh 29.71 in1006.1 mb 0.00 in0.0 mm 0.00 in0.0 mm 0.00 in0.0 mm
12:37 AM 55.9°F13.3°C 51.1°F10.6°C 84% 15.5 mph W24.9 kmh W 20.0 mph32.2 kmh 29.71 in1006.1 mb 0.00 in0.0 mm 0.00 in0.0 mm 0.00 in0.0 mm
12:38 AM 55.9°F13.3°C 51.1°F10.6°C 84% 16.0 mph WNW25.7 kmh WNW 23.0 mph37.0 kmh 29.71 in1006.1 mb 0.00 in0.0 mm 0.00 in0.0 mm 0.00 in0.0 mm
12:39 AM 55.8°F13.2°C 51.0°F10.6°C 84% 16.0 mph W25.7 kmh W 23.0 mph37.0 kmh 29.71 in1006.1 mb 0.00 in0.0 mm 0.00 in0.0 mm 0.00 in0.0 mm
12:40 AM 55.8°F13.2°C 50.7°F10.4°C 83% 15.7 mph W25.3 kmh W 18.0 mph29.0 kmh 29.71 in1006.1 mb 0.00 in0.0 mm 0.00 in0.0 mm 0.00 in0.0 mm
12:41 AM 55.8°F13.2°C 51.0°F10.6°C 84% 12.9 mph WNW20.8 kmh WNW 17.0 mph27.4 kmh 29.71 in1006.1 mb 0.00 in0.0 mm 0.00 in0.0 mm 0.00 in0.0 mm
12:42 AM 56.0°F13.3°C 51.6°F10.9°C 85% 13.4 mph W21.6 kmh W 17.0 mph27.4 kmh 29.71 in1006.1 mb 0.00 in0.0 mm 0.00 in0.0 mm 0.00 in0.0 mm
12:43 AM 55.9°F13.3°C 51.1°F10.6°C 84% 13.1 mph W21.1 kmh W 17.0 mph27.4 kmh 29.71 in1006.1 mb 0.00 in0.0 mm 0.00 in0.0 mm 0.00 in0.0 mm
12:44 AM 55.8°F13.2°C 50.7°F10.4°C 83% 15.1 mph W24.3 kmh W 17.0 mph27.4 kmh 29.71 in1006.1 mb 0.00 in0.0 mm 0.00 in0.0 mm 0.00 in0.0 mm
12:45 AM 55.7°F13.2°C 50.9°F10.5°C 84% 13.7 mph W22.0 kmh W 19.0 mph30.6 kmh 29.71 in1006.1 mb 0.00 in0.0 mm 0.00 in0.0 mm 0.00 in0.0 mm
12:46 AM 55.8°F13.2°C 51.0°F10.6°C 84% 11.9 mph W19.2 kmh W 19.0 mph30.6 kmh 29.71 in1006.1 mb 0.00 in0.0 mm 0.00 in0.0 mm 0.00 in0.0 mm
12:47 AM 55.9°F13.3°C 51.5°F10.8°C 85% 12.2 mph W19.6 kmh W 17.0 mph27.4 kmh 29.71 in1006.1 mb 0.00 in0.0 mm 0.00 in0.0 mm 0.00 in0.0 mm
12:48 AM 55.9°F13.3°C 51.1°F10.6°C 84% 11.6 mph W18.7 kmh W 14.0 mph22.5 kmh 29.71 in1006.1 mb 0.00 in0.0 mm 0.00 in0.0 mm 0.00 in0.0 mm
12:49 AM 55.8°F13.2°C 51.0°F10.6°C 84% 10.3 mph W16.6 kmh W 13.0 mph20.9 kmh 29.71 in1006.1 mb 0.00 in0.0 mm 0.00 in0.0 mm 0.00 in0.0 mm
12:50 AM 55.9°F13.3°C 51.1°F10.6°C 84% 11.5 mph W18.5 kmh W 15.0 mph24.1 kmh 29.71 in1006.1 mb 0.00 in0.0 mm 0.00 in0.0 mm 0.00 in0.0 mm
12:51 AM 55.9°F13.3°C 51.5°F10.8°C 85% 13.2 mph W21.2 kmh W 15.0 mph24.1 kmh 29.71 in1006.1 mb 0.00 in0.0 mm 0.00 in0.0 mm 0.00 in0.0 mm
12:52 AM 55.9°F13.3°C 51.1°F10.6°C 84% 10.2 mph W16.4 kmh W 15.0 mph24.1 kmh 29.71 in1006.1 mb 0.00 in0.0 mm 0.00 in0.0 mm 0.00 in0.0 mm
12:53 AM 55.9°F13.3°C 51.1°F10.6°C 84% 14.5 mph W23.3 kmh W 16.0 mph25.7 kmh 29.71 in1006.1 mb 0.00 in0.0 mm 0.00 in0.0 mm 0.00 in0.0 mm
12:54 AM 55.8°F13.2°C 51.0°F10.6°C 84% 14.2 mph WNW22.9 kmh WNW 17.0 mph27.4 kmh 29.71 in1006.1 mb 0.00 in0.0 mm 0.00 in0.0 mm 0.00 in0.0 mm
12:55 AM 55.9°F13.3°C 51.5°F10.8°C 85% 12.1 mph WNW19.5 kmh WNW 17.0 mph27.4 kmh 29.71 in1006.1 mb 0.00 in0.0 mm 0.00 in0.0 mm 0.00 in0.0 mm
12:56 AM 55.9°F13.3°C 51.5°F10.8°C 85% 10.8 mph W17.4 kmh W 15.0 mph24.1 kmh 29.71 in1006.1 mb 0.00 in0.0 mm 0.00 in0.0 mm 0.00 in0.0 mm
12:57 AM 55.9°F13.3°C 51.5°F10.8°C 85% 13.5 mph W21.7 kmh W 16.0 mph25.7 kmh 29.71 in1006.1 mb 0.00 in0.0 mm 0.00 in0.0 mm 0.00 in0.0 mm
12:58 AM 55.8°F13.2°C 51.0°F10.6°C 84% 14.1 mph WNW22.7 kmh WNW 17.0 mph27.4 kmh 29.71 in1006.1 mb 0.00 in0.0 mm 0.00 in0.0 mm 0.00 in0.0 mm
12:59 AM 55.7°F13.2°C 50.9°F10.5°C 84% 12.4 mph WNW20.0 kmh WNW 17.0 mph27.4 kmh 29.71 in1006.1 mb 0.00 in0.0 mm 0.00 in0.0 mm 0.00 in0.0 mm
01:00 AM 55.7°F13.2°C 50.9°F10.5°C 84% 11.8 mph W19.0 kmh W 15.0 mph24.1 kmh 29.71 in1006.1 mb 0.00 in0.0 mm 0.00 in0.0 mm 0.00 in0.0 mm
01:01 AM 55.9°F13.3°C 51.5°F10.8°C 85% 12.8 mph WNW20.6 kmh WNW 15.0 mph24.1 kmh 29.71 in1006.1 mb 0.00 in0.0 mm 0.00 in0.0 mm 0.00 in0.0 mm
01:02 AM 55.8°F13.2°C 51.0°F10.6°C 84% 12.9 mph WNW20.8 kmh WNW 15.0 mph24.1 kmh 29.71 in1006.1 mb 0.00 in0.0 mm 0.00 in0.0 mm 0.00 in0.0 mm
01:03 AM 55.7°F13.2°C 50.9°F10.5°C 84% 12.3 mph WNW19.8 kmh WNW 15.0 mph24.1 kmh 29.71 in1006.1 mb 0.00 in0.0 mm 0.00 in0.0 mm 0.00 in0.0 mm
01:04 AM 55.7°F13.2°C 50.9°F10.5°C 84% 14.8 mph WNW23.8 kmh WNW 18.0 mph29.0 kmh 29.71 in1006.1 mb 0.00 in0.0 mm 0.00 in0.0 mm 0.00 in0.0 mm
01:05 AM 56.0°F13.3°C 51.9°F11.1°C 86% 13.4 mph WNW21.6 kmh WNW 18.0 mph29.0 kmh 29.71 in1006.1 mb 0.00 in0.0 mm 0.00 in0.0 mm 0.00 in0.0 mm
01:06 AM 55.9°F13.3°C 51.1°F10.6°C 84% 14.3 mph WNW23.0 kmh WNW 16.0 mph25.7 kmh 29.71 in1006.1 mb 0.00 in0.0 mm 0.00 in0.0 mm 0.00 in0.0 mm
01:07 AM 55.9°F13.3°C 51.5°F10.8°C 85% 12.6 mph WNW20.3 kmh WNW 16.0 mph25.7 kmh 29.70 in1005.8 mb 0.00 in0.0 mm 0.00 in0.0 mm 0.00 in0.0 mm
01:08 AM 55.8°F13.2°C 51.0°F10.6°C 84% 16.1 mph WNW25.9 kmh WNW 19.0 mph30.6 kmh 29.71 in1006.1 mb 0.00 in0.0 mm 0.00 in0.0 mm 0.00 in0.0 mm
01:09 AM 55.8°F13.2°C 51.0°F10.6°C 84% 14.8 mph WNW23.8 kmh WNW 19.0 mph30.6 kmh 29.71 in1006.1 mb 0.00 in0.0 mm 0.00 in0.0 mm 0.00 in0.0 mm
01:10 AM 55.7°F13.2°C 50.9°F10.5°C 84% 17.1 mph WNW27.5 kmh WNW 20.0 mph32.2 kmh 29.70 in1005.8 mb 0.00 in0.0 mm 0.00 in0.0 mm 0.00 in0.0 mm
01:11 AM 55.7°F13.2°C 50.9°F10.5°C 84% 18.5 mph WNW29.8 kmh WNW 21.0 mph33.8 kmh 29.70 in1005.8 mb 0.00 in0.0 mm 0.00 in0.0 mm 0.00 in0.0 mm
01:12 AM 55.8°F13.2°C 51.4°F10.8°C 85% 16.7 mph WNW26.9 kmh WNW 21.0 mph33.8 kmh 29.70 in1005.8 mb 0.00 in0.0 mm 0.00 in0.0 mm 0.00 in0.0 mm
01:13 AM 55.8°F13.2°C 51.4°F10.8°C 85% 16.2 mph WNW26.1 kmh WNW 21.0 mph33.8 kmh 29.71 in1006.1 mb 0.00 in0.0 mm 0.00 in0.0 mm 0.00 in0.0 mm
01:14 AM 56.0°F13.3°C 51.9°F11.1°C 86% 15.3 mph WNW24.6 kmh WNW 20.0 mph32.2 kmh 29.71 in1006.1 mb 0.00 in0.0 mm 0.00 in0.0 mm 0.00 in0.0 mm
01:15 AM 55.9°F13.3°C 51.1°F10.6°C 84% 15.9 mph W25.6 kmh W 20.0 mph32.2 kmh 29.71 in1006.1 mb 0.00 in0.0 mm 0.00 in0.0 mm 0.00 in0.0 mm
01:16 AM 55.8°F13.2°C 51.0°F10.6°C 84% 15.8 mph WNW25.4 kmh WNW 20.0 mph32.2 kmh 29.71 in1006.1 mb 0.00 in0.0 mm 0.00 in0.0 mm 0.00 in0.0 mm
01:17 AM 55.9°F13.3°C 51.5°F10.8°C 85% 11.3 mph W18.2 kmh W 19.0 mph30.6 kmh 29.71 in1006.1 mb 0.00 in0.0 mm 0.00 in0.0 mm 0.00 in0.0 mm
01:18 AM 56.0°F13.3°C 51.6°F10.9°C 85% 12.6 mph WNW20.3 kmh WNW 16.0 mph25.7 kmh 29.71 in1006.1 mb 0.00 in0.0 mm 0.00 in0.0 mm 0.00 in0.0 mm
01:19 AM 55.8°F13.2°C 51.0°F10.6°C 84% 14.1 mph WNW22.7 kmh WNW 17.0 mph27.4 kmh 29.71 in1006.1 mb 0.00 in0.0 mm 0.00 in0.0 mm 0.00 in0.0 mm
01:20 AM 55.8°F13.2°C 51.0°F10.6°C 84% 13.8 mph W22.2 kmh W 17.0 mph27.4 kmh 29.71 in1006.1 mb 0.00 in0.0 mm 0.00 in0.0 mm 0.00 in0.0 mm
01:21 AM 55.8°F13.2°C 51.0°F10.6°C 84% 11.8 mph WNW19.0 kmh WNW 17.0 mph27.4 kmh 29.71 in1006.1 mb 0.00 in0.0 mm 0.00 in0.0 mm 0.00 in0.0 mm
01:22 AM 55.9°F13.3°C 51.5°F10.8°C 85% 9.8 mph WNW15.8 kmh WNW 13.0 mph20.9 kmh 29.71 in1006.1 mb 0.00 in0.0 mm 0.00 in0.0 mm 0.00 in0.0 mm
01:23 AM 55.9°F13.3°C 51.1°F10.6°C 84% 12.8 mph NW20.6 kmh NW 15.0 mph24.1 kmh 29.71 in1006.1 mb 0.00 in0.0 mm 0.00 in0.0 mm 0.00 in0.0 mm
01:24 AM 55.8°F13.2°C 51.0°F10.6°C 84% 12.9 mph WNW20.8 kmh WNW 17.0 mph27.4 kmh 29.71 in1006.1 mb 0.00 in0.0 mm 0.00 in0.0 mm 0.00 in0.0 mm
01:25 AM 55.8°F13.2°C 51.0°F10.6°C 84% 13.5 mph WNW21.7 kmh WNW 18.0 mph29.0 kmh 29.71 in1006.1 mb 0.00 in0.0 mm 0.00 in0.0 mm 0.00 in0.0 mm
01:26 AM 55.6°F13.1°C 50.8°F10.4°C 84% 15.7 mph WNW25.3 kmh WNW 20.0 mph32.2 kmh 29.71 in1006.1 mb 0.00 in0.0 mm 0.00 in0.0 mm 0.00 in0.0 mm
01:27 AM 55.6°F13.1°C 50.8°F10.4°C 84% 14.0 mph WNW22.5 kmh WNW 20.0 mph32.2 kmh 29.71 in1006.1 mb 0.00 in0.0 mm 0.00 in0.0 mm 0.00 in0.0 mm
01:28 AM 55.7°F13.2°C 51.3°F10.7°C 85% 17.2 mph NW27.7 kmh NW 20.0 mph32.2 kmh 29.71 in1006.1 mb 0.00 in0.0 mm 0.00 in0.0 mm 0.00 in0.0 mm
01:29 AM 55.7°F13.2°C 51.3°F10.7°C 85% 17.4 mph NW28.0 kmh NW 20.0 mph32.2 kmh 29.71 in1006.1 mb 0.00 in0.0 mm 0.00 in0.0 mm 0.00 in0.0 mm
01:30 AM 55.6°F13.1°C 51.2°F10.7°C 85% 15.7 mph WNW25.3 kmh WNW 19.0 mph30.6 kmh 29.71 in1006.1 mb 0.00 in0.0 mm 0.00 in0.0 mm 0.00 in0.0 mm
01:31 AM 55.5°F13.1°C 50.7°F10.4°C 84% 12.5 mph WNW20.1 kmh WNW 17.0 mph27.4 kmh 29.71 in1006.1 mb 0.00 in0.0 mm 0.00 in0.0 mm 0.00 in0.0 mm
01:32 AM 55.6°F13.1°C 51.2°F10.7°C 85% 14.4 mph NW23.2 kmh NW 17.0 mph27.4 kmh 29.71 in1006.1 mb 0.00 in0.0 mm 0.00 in0.0 mm 0.00 in0.0 mm
01:33 AM 55.7°F13.2°C 51.3°F10.7°C 85% 15.9 mph WNW25.6 kmh WNW 19.0 mph30.6 kmh 29.71 in1006.1 mb 0.00 in0.0 mm 0.00 in0.0 mm 0.00 in0.0 mm
01:34 AM 55.7°F13.2°C 51.3°F10.7°C 85% 14.5 mph WNW23.3 kmh WNW 19.0 mph30.6 kmh 29.71 in1006.1 mb 0.00 in0.0 mm 0.00 in0.0 mm 0.00 in0.0 mm
01:35 AM 55.7°F13.2°C 51.3°F10.7°C 85% 18.6 mph NW29.9 kmh NW 22.0 mph35.4 kmh 29.70 in1005.8 mb 0.00 in0.0 mm 0.00 in0.0 mm 0.00 in0.0 mm
01:36 AM 55.7°F13.2°C 50.9°F10.5°C 84% 18.0 mph NW29.0 kmh NW 22.0 mph35.4 kmh 29.70 in1005.8 mb 0.00 in0.0 mm 0.00 in0.0 mm 0.00 in0.0 mm
01:37 AM 55.7°F13.2°C 51.3°F10.7°C 85% 20.6 mph WNW33.2 kmh WNW 23.0 mph37.0 kmh 29.70 in1005.8 mb 0.00 in0.0 mm 0.00 in0.0 mm 0.00 in0.0 mm
01:38 AM 55.5°F13.1°C 50.4°F10.2°C 83% 17.4 mph WNW28.0 kmh WNW 23.0 mph37.0 kmh 29.70 in1005.8 mb 0.00 in0.0 mm 0.00 in0.0 mm 0.00 in0.0 mm
01:39 AM 55.5°F13.1°C 50.7°F10.4°C 84% 18.1 mph NW29.1 kmh NW 21.0 mph33.8 kmh 29.70 in1005.8 mb 0.00 in0.0 mm 0.00 in0.0 mm 0.00 in0.0 mm
01:40 AM 55.5°F13.1°C 50.7°F10.4°C 84% 20.5 mph WNW33.0 kmh WNW 24.0 mph38.6 kmh 29.70 in1005.8 mb 0.00 in0.0 mm 0.00 in0.0 mm 0.00 in0.0 mm
01:41 AM 55.5°F13.1°C 50.4°F10.2°C 83% 20.1 mph WNW32.3 kmh WNW 24.0 mph38.6 kmh 29.70 in1005.8 mb 0.00 in0.0 mm 0.00 in0.0 mm 0.00 in0.0 mm
01:42 AM 55.5°F13.1°C 50.7°F10.4°C 84% 17.8 mph WNW28.6 kmh WNW 23.0 mph37.0 kmh 29.70 in1005.8 mb 0.00 in0.0 mm 0.00 in0.0 mm 0.00 in0.0 mm
01:43 AM 55.6°F13.1°C 50.8°F10.4°C 84% 18.7 mph WNW30.1 kmh WNW 21.0 mph33.8 kmh 29.70 in1005.8 mb 0.00 in0.0 mm 0.00 in0.0 mm 0.00 in0.0 mm
01:44 AM 55.5°F13.1°C 50.4°F10.2°C 83% 16.0 mph WNW25.7 kmh WNW 21.0 mph33.8 kmh 29.70 in1005.8 mb 0.00 in0.0 mm 0.00 in0.0 mm 0.00 in0.0 mm
01:45 AM 55.7°F13.2°C 51.3°F10.7°C 85% 15.7 mph WNW25.3 kmh WNW 18.0 mph29.0 kmh 29.70 in1005.8 mb 0.00 in0.0 mm 0.00 in0.0 mm 0.00 in0.0 mm
01:46 AM 55.7°F13.2°C 51.3°F10.7°C 85% 14.0 mph WNW22.5 kmh WNW 18.0 mph29.0 kmh 29.71 in1006.1 mb 0.00 in0.0 mm 0.00 in0.0 mm 0.00 in0.0 mm
01:47 AM 55.7°F13.2°C 51.3°F10.7°C 85% 15.9 mph WNW25.6 kmh WNW 20.0 mph32.2 kmh 29.70 in1005.8 mb 0.00 in0.0 mm 0.00 in0.0 mm 0.00 in0.0 mm
01:48 AM 55.6°F13.1°C 50.8°F10.4°C 84% 17.1 mph WNW27.5 kmh WNW 20.0 mph32.2 kmh 29.70 in1005.8 mb 0.00 in0.0 mm 0.00 in0.0 mm 0.00 in0.0 mm
01:49 AM 55.6°F13.1°C 51.2°F10.7°C 85% 16.0 mph NW25.7 kmh NW 20.0 mph32.2 kmh 29.71 in1006.1 mb 0.00 in0.0 mm 0.00 in0.0 mm 0.00 in0.0 mm
01:50 AM 55.7°F13.2°C 51.3°F10.7°C 85% 14.4 mph WNW23.2 kmh WNW 17.0 mph27.4 kmh 29.70 in1005.8 mb 0.00 in0.0 mm 0.00 in0.0 mm 0.00 in0.0 mm
01:51 AM 55.8°F13.2°C 51.7°F10.9°C 86% 14.1 mph WNW22.7 kmh WNW 17.0 mph27.4 kmh 29.70 in1005.8 mb 0.00 in0.0 mm 0.00 in0.0 mm 0.00 in0.0 mm
01:52 AM 55.8°F13.2°C 51.4°F10.8°C 85% 13.9 mph WNW22.4 kmh WNW 16.0 mph25.7 kmh 29.71 in1006.1 mb 0.00 in0.0 mm 0.00 in0.0 mm 0.00 in0.0 mm
01:53 AM 55.7°F13.2°C 51.3°F10.7°C 85% 14.4 mph WNW23.2 kmh WNW 18.0 mph29.0 kmh 29.71 in1006.1 mb 0.00 in0.0 mm 0.00 in0.0 mm 0.00 in0.0 mm
01:54 AM 55.6°F13.1°C 50.8°F10.4°C 84% 15.5 mph WNW24.9 kmh WNW 18.0 mph29.0 kmh 29.71 in1006.1 mb 0.00 in0.0 mm 0.00 in0.0 mm 0.00 in0.0 mm
01:55 AM 55.7°F13.2°C 51.3°F10.7°C 85% 10.9 mph WNW17.5 kmh WNW 18.0 mph29.0 kmh 29.71 in1006.1 mb 0.00 in0.0 mm 0.00 in0.0 mm 0.00 in0.0 mm
01:56 AM 55.5°F13.1°C 50.7°F10.4°C 84% 13.6 mph W21.9 kmh W 17.0 mph27.4 kmh 29.71 in1006.1 mb 0.00 in0.0 mm 0.00 in0.0 mm 0.00 in0.0 mm
01:57 AM 55.5°F13.1°C 50.7°F10.4°C 84% 12.0 mph WNW19.3 kmh WNW 17.0 mph27.4 kmh 29.71 in1006.1 mb 0.00 in0.0 mm 0.00 in0.0 mm 0.00 in0.0 mm
01:58 AM 55.4°F13.0°C 50.6°F10.3°C 84% 12.5 mph WNW20.1 kmh WNW 16.0 mph25.7 kmh 29.71 in1006.1 mb 0.00 in0.0 mm 0.00 in0.0 mm 0.00 in0.0 mm
01:59 AM 55.4°F13.0°C 50.6°F10.3°C 84% 13.3 mph WNW21.4 kmh WNW 16.0 mph25.7 kmh 29.71 in1006.1 mb 0.00 in0.0 mm 0.00 in0.0 mm 0.00 in0.0 mm
02:00 AM 55.4°F13.0°C 51.0°F10.6°C 85% 13.0 mph WNW20.9 kmh WNW 16.0 mph25.7 kmh 29.71 in1006.1 mb 0.00 in0.0 mm 0.00 in0.0 mm 0.00 in0.0 mm
02:01 AM 55.5°F13.1°C 50.7°F10.4°C 84% 11.0 mph WNW17.7 kmh WNW 16.0 mph25.7 kmh 29.71 in1006.1 mb 0.00 in0.0 mm 0.00 in0.0 mm 0.00 in0.0 mm
02:02 AM 55.5°F13.1°C 51.1°F10.6°C 85% 12.6 mph WNW20.3 kmh WNW 15.0 mph24.1 kmh 29.71 in1006.1 mb 0.00 in0.0 mm 0.00 in0.0 mm 0.00 in0.0 mm
02:03 AM 55.4°F13.0°C 50.6°F10.3°C 84% 11.6 mph WNW18.7 kmh WNW 15.0 mph24.1 kmh 29.71 in1006.1 mb 0.00 in0.0 mm 0.00 in0.0 mm 0.00 in0.0 mm
02:04 AM 55.4°F13.0°C 51.0°F10.6°C 85% 10.7 mph WNW17.2 kmh WNW 14.0 mph22.5 kmh 29.71 in1006.1 mb 0.00 in0.0 mm 0.00 in0.0 mm 0.00 in0.0 mm
02:05 AM 55.5°F13.1°C 50.7°F10.4°C 84% 10.2 mph WNW16.4 kmh WNW 12.0 mph19.3 kmh 29.71 in1006.1 mb 0.00 in0.0 mm 0.00 in0.0 mm 0.00 in0.0 mm
02:06 AM 55.4°F13.0°C 51.0°F10.6°C 85% 10.6 mph W17.1 kmh W 12.0 mph19.3 kmh 29.71 in1006.1 mb 0.00 in0.0 mm 0.00 in0.0 mm 0.00 in0.0 mm
02:07 AM 55.4°F13.0°C 50.6°F10.3°C 84% 13.9 mph WNW22.4 kmh WNW 16.0 mph25.7 kmh 29.71 in1006.1 mb 0.00 in0.0 mm 0.00 in0.0 mm 0.00 in0.0 mm
02:08 AM 55.4°F13.0°C 50.6°F10.3°C 84% 13.8 mph WNW22.2 kmh WNW 17.0 mph27.4 kmh 29.71 in1006.1 mb 0.00 in0.0 mm 0.00 in0.0 mm 0.00 in0.0 mm
02:09 AM 55.3°F12.9°C 50.5°F10.3°C 84% 14.4 mph WNW23.2 kmh WNW 17.0 mph27.4 kmh 29.71 in1006.1 mb 0.00 in0.0 mm 0.00 in0.0 mm 0.00 in0.0 mm
02:10 AM 55.1°F12.8°C 50.4°F10.2°C 84% 11.9 mph WNW19.2 kmh WNW 16.0 mph25.7 kmh 29.71 in1006.1 mb 0.00 in0.0 mm 0.00 in0.0 mm 0.00 in0.0 mm
02:11 AM 55.2°F12.9°C 50.4°F10.2°C 84% 10.5 mph WNW16.9 kmh WNW 15.0 mph24.1 kmh 29.71 in1006.1 mb 0.00 in0.0 mm 0.00 in0.0 mm 0.00 in0.0 mm
02:12 AM 55.2°F12.9°C 50.4°F10.2°C 84% 11.1 mph WNW17.9 kmh WNW 15.0 mph24.1 kmh 29.71 in1006.1 mb 0.00 in0.0 mm 0.00 in0.0 mm 0.00 in0.0 mm
02:13 AM 55.2°F12.9°C 50.4°F10.2°C 84% 11.1 mph WNW17.9 kmh WNW 14.0 mph22.5 kmh 29.71 in1006.1 mb 0.00 in0.0 mm 0.00 in0.0 mm 0.00 in0.0 mm
02:14 AM 55.3°F12.9°C 50.9°F10.5°C 85% 10.8 mph WNW17.4 kmh WNW 16.0 mph25.7 kmh 29.71 in1006.1 mb 0.00 in0.0 mm 0.00 in0.0 mm 0.00 in0.0 mm
02:15 AM 55.3°F12.9°C 50.9°F10.5°C 85% 12.1 mph WNW19.5 kmh WNW 16.0 mph25.7 kmh 29.71 in1006.1 mb 0.00 in0.0 mm 0.00 in0.0 mm 0.00 in0.0 mm
02:16 AM 55.4°F13.0°C 51.0°F10.6°C 85% 12.6 mph WNW20.3 kmh WNW 14.0 mph22.5 kmh 29.70 in1005.8 mb 0.00 in0.0 mm 0.00 in0.0 mm 0.00 in0.0 mm
02:17 AM 55.2°F12.9°C 50.4°F10.2°C 84% 13.7 mph WNW22.0 kmh WNW 16.0 mph25.7 kmh 29.71 in1006.1 mb 0.00 in0.0 mm 0.00 in0.0 mm 0.00 in0.0 mm
02:18 AM 55.2°F12.9°C 50.4°F10.2°C 84% 13.8 mph WNW22.2 kmh WNW 16.0 mph25.7 kmh 29.71 in1006.1 mb 0.00 in0.0 mm 0.00 in0.0 mm 0.00 in0.0 mm
02:19 AM 55.2°F12.9°C 50.4°F10.2°C 84% 13.3 mph NW21.4 kmh NW 16.0 mph25.7 kmh 29.70 in1005.8 mb 0.00 in0.0 mm 0.00 in0.0 mm 0.00 in0.0 mm
02:20 AM 55.2°F12.9°C 50.4°F10.2°C 84% 11.7 mph WNW18.8 kmh WNW 16.0 mph25.7 kmh 29.70 in1005.8 mb 0.00 in0.0 mm 0.00 in0.0 mm 0.00 in0.0 mm
02:21 AM 55.2°F12.9°C 50.8°F10.4°C 85% 11.1 mph NW17.9 kmh NW 13.0 mph20.9 kmh 29.70 in1005.8 mb 0.00 in0.0 mm 0.00 in0.0 mm 0.00 in0.0 mm
02:22 AM 55.2°F12.9°C 50.4°F10.2°C 84% 14.6 mph NW23.5 kmh NW 18.0 mph29.0 kmh 29.70 in1005.8 mb 0.00 in0.0 mm 0.00 in0.0 mm 0.00 in0.0 mm
02:23 AM 55.2°F12.9°C 50.8°F10.4°C 85% 12.5 mph NW20.1 kmh NW 18.0 mph29.0 kmh 29.70 in1005.8 mb 0.00 in0.0 mm 0.00 in0.0 mm 0.00 in0.0 mm
02:24 AM 55.2°F12.9°C 50.4°F10.2°C 84% 12.9 mph WNW20.8 kmh WNW 16.0 mph25.7 kmh 29.70 in1005.8 mb 0.00 in0.0 mm 0.00 in0.0 mm 0.00 in0.0 mm
02:25 AM 55.2°F12.9°C 50.8°F10.4°C 85% 11.2 mph WNW18.0 kmh WNW 16.0 mph25.7 kmh 29.70 in1005.8 mb 0.00 in0.0 mm 0.00 in0.0 mm 0.00 in0.0 mm
02:26 AM 55.2°F12.9°C 50.4°F10.2°C 84% 12.5 mph WNW20.1 kmh WNW 15.0 mph24.1 kmh 29.70 in1005.8 mb 0.00 in0.0 mm 0.00 in0.0 mm 0.00 in0.0 mm
02:27 AM 55.2°F12.9°C 50.8°F10.4°C 85% 11.5 mph WNW18.5 kmh WNW 15.0 mph24.1 kmh 29.70 in1005.8 mb 0.00 in0.0 mm 0.00 in0.0 mm 0.00 in0.0 mm
02:28 AM 55.2°F12.9°C 50.4°F10.2°C 84% 11.2 mph WNW18.0 kmh WNW 14.0 mph22.5 kmh 29.70 in1005.8 mb 0.00 in0.0 mm 0.00 in0.0 mm 0.00 in0.0 mm
02:29 AM 55.3°F12.9°C 50.9°F10.5°C 85% 13.5 mph WNW21.7 kmh WNW 17.0 mph27.4 kmh 29.70 in1005.8 mb 0.00 in0.0 mm 0.00 in0.0 mm 0.00 in0.0 mm
02:30 AM 55.2°F12.9°C 50.4°F10.2°C 84% 14.5 mph WNW23.3 kmh WNW 17.0 mph27.4 kmh 29.70 in1005.8 mb 0.00 in0.0 mm 0.00 in0.0 mm 0.00 in0.0 mm
02:31 AM 55.3°F12.9°C 50.9°F10.5°C 85% 11.9 mph WNW19.2 kmh WNW 17.0 mph27.4 kmh 29.70 in1005.8 mb 0.00 in0.0 mm 0.00 in0.0 mm 0.00 in0.0 mm
02:32 AM 55.3°F12.9°C 50.9°F10.5°C 85% 12.8 mph WNW20.6 kmh WNW 15.0 mph24.1 kmh 29.70 in1005.8 mb 0.00 in0.0 mm 0.00 in0.0 mm 0.00 in0.0 mm
02:33 AM 55.3°F12.9°C 50.9°F10.5°C 85% 13.1 mph NW21.1 kmh NW 15.0 mph24.1 kmh 29.70 in1005.8 mb 0.00 in0.0 mm 0.00 in0.0 mm 0.00 in0.0 mm
02:34 AM 55.4°F13.0°C 51.3°F10.7°C 86% 12.2 mph WNW19.6 kmh WNW 15.0 mph24.1 kmh 29.70 in1005.8 mb 0.00 in0.0 mm 0.00 in0.0 mm 0.00 in0.0 mm
02:35 AM 55.3°F12.9°C 50.5°F10.3°C 84% 10.5 mph W16.9 kmh W 15.0 mph24.1 kmh 29.70 in1005.8 mb 0.00 in0.0 mm 0.00 in0.0 mm 0.00 in0.0 mm
02:36 AM 55.3°F12.9°C 50.5°F10.3°C 84% 10.4 mph W16.7 kmh W 13.0 mph20.9 kmh 29.70 in1005.8 mb 0.00 in0.0 mm 0.00 in0.0 mm 0.00 in0.0 mm
02:37 AM 55.2°F12.9°C 50.8°F10.4°C 85% 12.2 mph WNW19.6 kmh WNW 14.0 mph22.5 kmh 29.70 in1005.8 mb 0.00 in0.0 mm 0.00 in0.0 mm 0.00 in0.0 mm
02:38 AM 55.2°F12.9°C 50.4°F10.2°C 84% 9.5 mph WNW15.3 kmh WNW 14.0 mph22.5 kmh 29.70 in1005.8 mb 0.00 in0.0 mm 0.00 in0.0 mm 0.00 in0.0 mm
02:39 AM 55.2°F12.9°C 50.8°F10.4°C 85% 11.8 mph WNW19.0 kmh WNW 14.0 mph22.5 kmh 29.70 in1005.8 mb 0.00 in0.0 mm 0.00 in0.0 mm 0.00 in0.0 mm
02:40 AM 55.2°F12.9°C 50.4°F10.2°C 84% 12.2 mph W19.6 kmh W 15.0 mph24.1 kmh 29.70 in1005.8 mb 0.00 in0.0 mm 0.00 in0.0 mm 0.00 in0.0 mm
02:41 AM 55.1°F12.8°C 50.7°F10.4°C 85% 10.1 mph W16.3 kmh W 15.0 mph24.1 kmh 29.70 in1005.8 mb 0.00 in0.0 mm 0.00 in0.0 mm 0.00 in0.0 mm
02:42 AM 55.1°F12.8°C 50.4°F10.2°C 84% 9.9 mph W15.9 kmh W 13.0 mph20.9 kmh 29.70 in1005.8 mb 0.00 in0.0 mm 0.00 in0.0 mm 0.00 in0.0 mm
02:43 AM 55.1°F12.8°C 50.7°F10.4°C 85% 11.7 mph WNW18.8 kmh WNW 14.0 mph22.5 kmh 29.70 in1005.8 mb 0.00 in0.0 mm 0.00 in0.0 mm 0.00 in0.0 mm
02:44 AM 55.0°F12.8°C 50.3°F10.2°C 84% 10.9 mph W17.5 kmh W 14.0 mph22.5 kmh 29.70 in1005.8 mb 0.00 in0.0 mm 0.00 in0.0 mm 0.00 in0.0 mm
02:45 AM 55.1°F12.8°C 50.7°F10.4°C 85% 9.3 mph WNW15.0 kmh WNW 12.0 mph19.3 kmh 29.70 in1005.8 mb 0.00 in0.0 mm 0.00 in0.0 mm 0.00 in0.0 mm
02:46 AM 55.2°F12.9°C 50.8°F10.4°C 85% 10.0 mph WNW16.1 kmh WNW 13.0 mph20.9 kmh 29.70 in1005.8 mb 0.00 in0.0 mm 0.00 in0.0 mm 0.00 in0.0 mm
02:47 AM 55.2°F12.9°C 50.8°F10.4°C 85% 10.8 mph WNW17.4 kmh WNW 13.0 mph20.9 kmh 29.70 in1005.8 mb 0.00 in0.0 mm 0.00 in0.0 mm 0.00 in0.0 mm
02:48 AM 55.2°F12.9°C 50.8°F10.4°C 85% 11.4 mph WNW18.3 kmh WNW 14.0 mph22.5 kmh 29.70 in1005.8 mb 0.00 in0.0 mm 0.00 in0.0 mm 0.00 in0.0 mm
02:49 AM 55.2°F12.9°C 50.8°F10.4°C 85% 11.0 mph W17.7 kmh W 14.0 mph22.5 kmh 29.70 in1005.8 mb 0.00 in0.0 mm 0.00 in0.0 mm 0.00 in0.0 mm
02:50 AM 55.2°F12.9°C 50.8°F10.4°C 85% 10.9 mph W17.5 kmh W 14.0 mph22.5 kmh 29.70 in1005.8 mb 0.00 in0.0 mm 0.00 in0.0 mm 0.00 in0.0 mm
02:51 AM 55.1°F12.8°C 50.4°F10.2°C 84% 11.4 mph W18.3 kmh W 13.0 mph20.9 kmh 29.70 in1005.8 mb 0.00 in0.0 mm 0.00 in0.0 mm 0.00 in0.0 mm
02:52 AM 55.0°F12.8°C 50.3°F10.2°C 84% 14.3 mph W23.0 kmh W 17.0 mph27.4 kmh 29.70 in1005.8 mb 0.00 in0.0 mm 0.00 in0.0 mm 0.00 in0.0 mm
02:53 AM 55.1°F12.8°C 50.4°F10.2°C 84% 11.4 mph WNW18.3 kmh WNW 17.0 mph27.4 kmh 29.70 in1005.8 mb 0.00 in0.0 mm 0.00 in0.0 mm 0.00 in0.0 mm
02:54 AM 55.1°F12.8°C 50.7°F10.4°C 85% 10.7 mph W17.2 kmh W 14.0 mph22.5 kmh 29.70 in1005.8 mb 0.00 in0.0 mm 0.00 in0.0 mm 0.00 in0.0 mm
02:55 AM 55.0°F12.8°C 50.3°F10.2°C 84% 12.5 mph W20.1 kmh W 16.0 mph25.7 kmh 29.70 in1005.8 mb 0.00 in0.0 mm 0.00 in0.0 mm 0.00 in0.0 mm
02:56 AM 55.1°F12.8°C 50.7°F10.4°C 85% 12.3 mph WNW19.8 kmh WNW 16.0 mph25.7 kmh 29.70 in1005.8 mb 0.00 in0.0 mm 0.00 in0.0 mm 0.00 in0.0 mm
02:57 AM 55.1°F12.8°C 50.4°F10.2°C 84% 14.8 mph WNW23.8 kmh WNW 18.0 mph29.0 kmh 29.71 in1006.1 mb 0.00 in0.0 mm 0.00 in0.0 mm 0.00 in0.0 mm
02:58 AM 55.0°F12.8°C 49.9°F9.9°C 83% 14.2 mph NW22.9 kmh NW 17.0 mph27.4 kmh 29.70 in1005.8 mb 0.00 in0.0 mm 0.00 in0.0 mm 0.00 in0.0 mm
02:59 AM 55.0°F12.8°C 50.3°F10.2°C 84% 11.4 mph WNW18.3 kmh WNW 17.0 mph27.4 kmh 29.70 in1005.8 mb 0.00 in0.0 mm 0.00 in0.0 mm 0.00 in0.0 mm
03:00 AM 55.2°F12.9°C 50.8°F10.4°C 85% 11.7 mph WNW18.8 kmh WNW 14.0 mph22.5 kmh 29.70 in1005.8 mb 0.00 in0.0 mm 0.00 in0.0 mm 0.00 in0.0 mm
03:01 AM 55.2°F12.9°C 50.8°F10.4°C 85% 13.8 mph W22.2 kmh W 16.0 mph25.7 kmh 29.70 in1005.8 mb 0.00 in0.0 mm 0.00 in0.0 mm 0.00 in0.0 mm
03:02 AM 55.1°F12.8°C 50.4°F10.2°C 84% 10.9 mph W17.5 kmh W 16.0 mph25.7 kmh 29.70 in1005.8 mb 0.00 in0.0 mm 0.00 in0.0 mm 0.00 in0.0 mm
03:03 AM 55.2°F12.9°C 50.8°F10.4°C 85% 10.6 mph W17.1 kmh W 13.0 mph20.9 kmh 29.70 in1005.8 mb 0.00 in0.0 mm 0.00 in0.0 mm 0.00 in0.0 mm
03:04 AM 55.2°F12.9°C 50.8°F10.4°C 85% 10.3 mph W16.6 kmh W 13.0 mph20.9 kmh 29.70 in1005.8 mb 0.00 in0.0 mm 0.00 in0.0 mm 0.00 in0.0 mm
03:05 AM 55.2°F12.9°C 50.8°F10.4°C 85% 10.4 mph W16.7 kmh W 14.0 mph22.5 kmh 29.70 in1005.8 mb 0.00 in0.0 mm 0.00 in0.0 mm 0.00 in0.0 mm
03:06 AM 55.2°F12.9°C 50.8°F10.4°C 85% 12.0 mph W19.3 kmh W 15.0 mph24.1 kmh 29.70 in1005.8 mb 0.00 in0.0 mm 0.00 in0.0 mm 0.00 in0.0 mm
03:07 AM 55.2°F12.9°C 50.8°F10.4°C 85% 11.7 mph W18.8 kmh W 15.0 mph24.1 kmh 29.70 in1005.8 mb 0.00 in0.0 mm 0.00 in0.0 mm 0.00 in0.0 mm
03:08 AM 55.2°F12.9°C 50.8°F10.4°C 85% 10.7 mph W17.2 kmh W 14.0 mph22.5 kmh 29.70 in1005.8 mb 0.00 in0.0 mm 0.00 in0.0 mm 0.00 in0.0 mm
03:09 AM 55.2°F12.9°C 50.8°F10.4°C 85% 11.1 mph W17.9 kmh W 14.0 mph22.5 kmh 29.70 in1005.8 mb 0.00 in0.0 mm 0.00 in0.0 mm 0.00 in0.0 mm
03:10 AM 55.3°F12.9°C 50.9°F10.5°C 85% 11.8 mph W19.0 kmh W 16.0 mph25.7 kmh 29.70 in1005.8 mb 0.00 in0.0 mm 0.00 in0.0 mm 0.00 in0.0 mm
03:11 AM 55.2°F12.9°C 50.4°F10.2°C 84% 11.4 mph W18.3 kmh W 16.0 mph25.7 kmh 29.70 in1005.8 mb 0.00 in0.0 mm 0.00 in0.0 mm 0.00 in0.0 mm
03:12 AM 55.2°F12.9°C 50.8°F10.4°C 85% 12.4 mph WNW20.0 kmh WNW 16.0 mph25.7 kmh 29.70 in1005.8 mb 0.00 in0.0 mm 0.00 in0.0 mm 0.00 in0.0 mm
03:13 AM 55.2°F12.9°C 50.4°F10.2°C 84% 11.4 mph W18.3 kmh W 16.0 mph25.7 kmh 29.71 in1006.1 mb 0.00 in0.0 mm 0.00 in0.0 mm 0.00 in0.0 mm
03:14 AM 55.2°F12.9°C 50.8°F10.4°C 85% 11.9 mph W19.2 kmh W 15.0 mph24.1 kmh 29.71 in1006.1 mb 0.00 in0.0 mm 0.00 in0.0 mm 0.00 in0.0 mm
03:15 AM 55.3°F12.9°C 50.9°F10.5°C 85% 10.4 mph W16.7 kmh W 14.0 mph22.5 kmh 29.71 in1006.1 mb 0.00 in0.0 mm 0.00 in0.0 mm 0.00 in0.0 mm
03:16 AM 55.2°F12.9°C 50.4°F10.2°C 84% 12.2 mph W19.6 kmh W 14.0 mph22.5 kmh 29.71 in1006.1 mb 0.00 in0.0 mm 0.00 in0.0 mm 0.00 in0.0 mm
03:17 AM 55.3°F12.9°C 50.9°F10.5°C 85% 10.3 mph W16.6 kmh W 14.0 mph22.5 kmh 29.71 in1006.1 mb 0.00 in0.0 mm 0.00 in0.0 mm 0.00 in0.0 mm
03:18 AM 55.4°F13.0°C 51.3°F10.7°C 86% 9.5 mph W15.3 kmh W 13.0 mph20.9 kmh 29.71 in1006.1 mb 0.00 in0.0 mm 0.00 in0.0 mm 0.00 in0.0 mm
03:19 AM 55.4°F13.0°C 51.3°F10.7°C 86% 10.5 mph W16.9 kmh W 12.0 mph19.3 kmh 29.71 in1006.1 mb 0.00 in0.0 mm 0.00 in0.0 mm 0.00 in0.0 mm
03:20 AM 55.4°F13.0°C 51.0°F10.6°C 85% 10.1 mph W16.3 kmh W 13.0 mph20.9 kmh 29.70 in1005.8 mb 0.00 in0.0 mm 0.00 in0.0 mm 0.00 in0.0 mm
03:21 AM 55.3°F12.9°C 50.5°F10.3°C 84% 11.7 mph W18.8 kmh W 14.0 mph22.5 kmh 29.71 in1006.1 mb 0.00 in0.0 mm 0.00 in0.0 mm 0.00 in0.0 mm
03:22 AM 55.3°F12.9°C 50.9°F10.5°C 85% 10.8 mph W17.4 kmh W 14.0 mph22.5 kmh 29.70 in1005.8 mb 0.00 in0.0 mm 0.00 in0.0 mm 0.00 in0.0 mm
03:23 AM 55.3°F12.9°C 50.9°F10.5°C 85% 13.7 mph W22.0 kmh W 16.0 mph25.7 kmh 29.70 in1005.8 mb 0.00 in0.0 mm 0.00 in0.0 mm 0.00 in0.0 mm
03:24 AM 55.2°F12.9°C 50.4°F10.2°C 84% 11.0 mph W17.7 kmh W 16.0 mph25.7 kmh 29.70 in1005.8 mb 0.00 in0.0 mm 0.00 in0.0 mm 0.00 in0.0 mm
03:25 AM 55.3°F12.9°C 50.9°F10.5°C 85% 9.9 mph W15.9 kmh W 14.0 mph22.5 kmh 29.70 in1005.8 mb 0.00 in0.0 mm 0.00 in0.0 mm 0.00 in0.0 mm
03:26 AM 55.3°F12.9°C 50.9°F10.5°C 85% 12.6 mph WNW20.3 kmh WNW 15.0 mph24.1 kmh 29.70 in1005.8 mb 0.00 in0.0 mm 0.00 in0.0 mm 0.00 in0.0 mm
03:27 AM 55.2°F12.9°C 50.8°F10.4°C 85% 13.8 mph W22.2 kmh W 17.0 mph27.4 kmh 29.70 in1005.8 mb 0.00 in0.0 mm 0.00 in0.0 mm 0.00 in0.0 mm
03:28 AM 55.1°F12.8°C 50.4°F10.2°C 84% 13.3 mph W21.4 kmh W 17.0 mph27.4 kmh 29.70 in1005.8 mb 0.00 in0.0 mm 0.00 in0.0 mm 0.00 in0.0 mm
03:29 AM 55.2°F12.9°C 50.8°F10.4°C 85% 12.6 mph W20.3 kmh W 16.0 mph25.7 kmh 29.70 in1005.8 mb 0.00 in0.0 mm 0.00 in0.0 mm 0.00 in0.0 mm
03:30 AM 55.2°F12.9°C 50.8°F10.4°C 85% 12.4 mph W20.0 kmh W 15.0 mph24.1 kmh 29.70 in1005.8 mb 0.00 in0.0 mm 0.00 in0.0 mm 0.00 in0.0 mm
03:31 AM 55.1°F12.8°C 50.7°F10.4°C 85% 12.4 mph W20.0 kmh W 15.0 mph24.1 kmh 29.70 in1005.8 mb 0.00 in0.0 mm 0.00 in0.0 mm 0.00 in0.0 mm
03:32 AM 55.1°F12.8°C 50.7°F10.4°C 85% 10.9 mph W17.5 kmh W 14.0 mph22.5 kmh 29.70 in1005.8 mb 0.00 in0.0 mm 0.00 in0.0 mm 0.00 in0.0 mm
03:33 AM 55.1°F12.8°C 50.7°F10.4°C 85% 11.5 mph WNW18.5 kmh WNW 14.0 mph22.5 kmh 29.70 in1005.8 mb 0.00 in0.0 mm 0.00 in0.0 mm 0.00 in0.0 mm
03:34 AM 55.1°F12.8°C 50.7°F10.4°C 85% 10.3 mph WNW16.6 kmh WNW 14.0 mph22.5 kmh 29.70 in1005.8 mb 0.00 in0.0 mm 0.00 in0.0 mm 0.00 in0.0 mm
03:35 AM 55.1°F12.8°C 50.7°F10.4°C 85% 11.4 mph WNW18.3 kmh WNW 15.0 mph24.1 kmh 29.70 in1005.8 mb 0.00 in0.0 mm 0.00 in0.0 mm 0.00 in0.0 mm
03:36 AM 55.1°F12.8°C 50.7°F10.4°C 85% 12.0 mph WNW19.3 kmh WNW 15.0 mph24.1 kmh 29.70 in1005.8 mb 0.00 in0.0 mm 0.00 in0.0 mm 0.00 in0.0 mm
03:37 AM 55.1°F12.8°C 50.7°F10.4°C 85% 11.8 mph WNW19.0 kmh WNW 14.0 mph22.5 kmh 29.70 in1005.8 mb 0.00 in0.0 mm 0.00 in0.0 mm 0.00 in0.0 mm
03:38 AM 55.1°F12.8°C 50.7°F10.4°C 85% 11.2 mph WNW18.0 kmh WNW 14.0 mph22.5 kmh 29.70 in1005.8 mb 0.00 in0.0 mm 0.00 in0.0 mm 0.00 in0.0 mm
03:39 AM 55.2°F12.9°C 51.1°F10.6°C 86% 8.5 mph W13.7 kmh W 13.0 mph20.9 kmh 29.70 in1005.8 mb 0.00 in0.0 mm 0.00 in0.0 mm 0.00 in0.0 mm
03:40 AM 55.1°F12.8°C 50.7°F10.4°C 85% 9.8 mph W15.8 kmh W 12.0 mph19.3 kmh 29.70 in1005.8 mb 0.00 in0.0 mm 0.00 in0.0 mm 0.00 in0.0 mm
03:41 AM 55.1°F12.8°C 50.7°F10.4°C 85% 8.5 mph W13.7 kmh W 15.0 mph24.1 kmh 29.70 in1005.8 mb 0.00 in0.0 mm 0.00 in0.0 mm 0.00 in0.0 mm
03:42 AM 55.0°F12.8°C 50.6°F10.3°C 85% 10.5 mph W16.9 kmh W 15.0 mph24.1 kmh 29.70 in1005.8 mb 0.00 in0.0 mm 0.00 in0.0 mm 0.00 in0.0 mm
03:43 AM 55.1°F12.8°C 50.7°F10.4°C 85% 11.3 mph W18.2 kmh W 13.0 mph20.9 kmh 29.70 in1005.8 mb 0.00 in0.0 mm 0.00 in0.0 mm 0.00 in0.0 mm
03:44 AM 55.0°F12.8°C 50.6°F10.3°C 85% 11.5 mph W18.5 kmh W 14.0 mph22.5 kmh 29.70 in1005.8 mb 0.00 in0.0 mm 0.00 in0.0 mm 0.00 in0.0 mm
03:45 AM 55.1°F12.8°C 50.7°F10.4°C 85% 11.4 mph W18.3 kmh W 14.0 mph22.5 kmh 29.70 in1005.8 mb 0.00 in0.0 mm 0.00 in0.0 mm 0.00 in0.0 mm
03:46 AM 55.1°F12.8°C 50.7°F10.4°C 85% 11.1 mph WNW17.9 kmh WNW 13.0 mph20.9 kmh 29.70 in1005.8 mb 0.00 in0.0 mm 0.00 in0.0 mm 0.00 in0.0 mm
03:47 AM 55.1°F12.8°C 50.7°F10.4°C 85% 12.6 mph WNW20.3 kmh WNW 15.0 mph24.1 kmh 29.70 in1005.8 mb 0.00 in0.0 mm 0.00 in0.0 mm 0.00 in0.0 mm
03:48 AM 55.1°F12.8°C 50.7°F10.4°C 85% 10.2 mph WNW16.4 kmh WNW 15.0 mph24.1 kmh 29.70 in1005.8 mb 0.00 in0.0 mm 0.00 in0.0 mm 0.00 in0.0 mm
03:49 AM 55.2°F12.9°C 50.8°F10.4°C 85% 12.0 mph WNW19.3 kmh WNW 15.0 mph24.1 kmh 29.70 in1005.8 mb 0.00 in0.0 mm 0.00 in0.0 mm 0.00 in0.0 mm
03:50 AM 55.0°F12.8°C 50.6°F10.3°C 85% 10.2 mph W16.4 kmh W 15.0 mph24.1 kmh 29.70 in1005.8 mb 0.00 in0.0 mm 0.00 in0.0 mm 0.00 in0.0 mm
03:51 AM 55.1°F12.8°C 50.7°F10.4°C 85% 10.1 mph WNW16.3 kmh WNW 12.0 mph19.3 kmh 29.70 in1005.8 mb 0.00 in0.0 mm 0.00 in0.0 mm 0.00 in0.0 mm
03:52 AM 55.2°F12.9°C 51.1°F10.6°C 86% 10.8 mph WNW17.4 kmh WNW 12.0 mph19.3 kmh 29.70 in1005.8 mb 0.00 in0.0 mm 0.00 in0.0 mm 0.00 in0.0 mm
03:53 AM 55.1°F12.8°C 50.7°F10.4°C 85% 9.7 mph W15.6 kmh W 13.0 mph20.9 kmh 29.70 in1005.8 mb 0.00 in0.0 mm 0.00 in0.0 mm 0.00 in0.0 mm
03:54 AM 55.2°F12.9°C 50.8°F10.4°C 85% 9.4 mph W15.1 kmh W 13.0 mph20.9 kmh 29.70 in1005.8 mb 0.00 in0.0 mm 0.00 in0.0 mm 0.00 in0.0 mm
03:55 AM 55.2°F12.9°C 51.1°F10.6°C 86% 9.1 mph W14.6 kmh W 11.0 mph17.7 kmh 29.70 in1005.8 mb 0.00 in0.0 mm 0.00 in0.0 mm 0.00 in0.0 mm
03:56 AM 55.3°F12.9°C 51.2°F10.7°C 86% 9.6 mph W15.4 kmh W 13.0 mph20.9 kmh 29.70 in1005.8 mb 0.00 in0.0 mm 0.00 in0.0 mm 0.00 in0.0 mm
03:57 AM 55.3°F12.9°C 51.2°F10.7°C 86% 9.9 mph WNW15.9 kmh WNW 13.0 mph20.9 kmh 29.70 in1005.8 mb 0.00 in0.0 mm 0.00 in0.0 mm 0.00 in0.0 mm
03:58 AM 55.4°F13.0°C 51.3°F10.7°C 86% 9.9 mph W15.9 kmh W 12.0 mph19.3 kmh 29.71 in1006.1 mb 0.00 in0.0 mm 0.00 in0.0 mm 0.00 in0.0 mm
03:59 AM 55.4°F13.0°C 51.3°F10.7°C 86% 11.3 mph WNW18.2 kmh WNW 14.0 mph22.5 kmh 29.71 in1006.1 mb 0.00 in0.0 mm 0.00 in0.0 mm 0.00 in0.0 mm
04:00 AM 55.3°F12.9°C 51.2°F10.7°C 86% 10.4 mph W16.7 kmh W 14.0 mph22.5 kmh 29.71 in1006.1 mb 0.00 in0.0 mm 0.00 in0.0 mm 0.00 in0.0 mm
04:01 AM 55.3°F12.9°C 50.9°F10.5°C 85% 10.2 mph W16.4 kmh W 14.0 mph22.5 kmh 29.71 in1006.1 mb 0.00 in0.0 mm 0.00 in0.0 mm 0.00 in0.0 mm
04:02 AM 55.4°F13.0°C 51.3°F10.7°C 86% 9.8 mph WNW15.8 kmh WNW 14.0 mph22.5 kmh 29.71 in1006.1 mb 0.00 in0.0 mm 0.00 in0.0 mm 0.00 in0.0 mm
04:03 AM 55.3°F12.9°C 50.9°F10.5°C 85% 13.3 mph W21.4 kmh W 17.0 mph27.4 kmh 29.70 in1005.8 mb 0.00 in0.0 mm 0.00 in0.0 mm 0.00 in0.0 mm
04:04 AM 55.3°F12.9°C 51.2°F10.7°C 86% 13.0 mph WNW20.9 kmh WNW 17.0 mph27.4 kmh 29.71 in1006.1 mb 0.00 in0.0 mm 0.00 in0.0 mm 0.00 in0.0 mm
04:05 AM 55.2°F12.9°C 50.8°F10.4°C 85% 13.0 mph WNW20.9 kmh WNW 16.0 mph25.7 kmh 29.70 in1005.8 mb 0.00 in0.0 mm 0.00 in0.0 mm 0.00 in0.0 mm
04:06 AM 55.3°F12.9°C 50.9°F10.5°C 85% 12.9 mph WNW20.8 kmh WNW 16.0 mph25.7 kmh 29.70 in1005.8 mb 0.00 in0.0 mm 0.00 in0.0 mm 0.00 in0.0 mm
04:07 AM 55.2°F12.9°C 50.8°F10.4°C 85% 13.5 mph WNW21.7 kmh WNW 16.0 mph25.7 kmh 29.71 in1006.1 mb 0.00 in0.0 mm 0.00 in0.0 mm 0.00 in0.0 mm
04:08 AM 55.2°F12.9°C 51.1°F10.6°C 86% 12.0 mph WNW19.3 kmh WNW 16.0 mph25.7 kmh 29.71 in1006.1 mb 0.00 in0.0 mm 0.00 in0.0 mm 0.00 in0.0 mm
04:09 AM 55.3°F12.9°C 50.9°F10.5°C 85% 10.7 mph W17.2 kmh W 14.0 mph22.5 kmh 29.70 in1005.8 mb 0.00 in0.0 mm 0.00 in0.0 mm 0.00 in0.0 mm
04:10 AM 55.3°F12.9°C 50.9°F10.5°C 85% 13.3 mph WNW21.4 kmh WNW 17.0 mph27.4 kmh 29.71 in1006.1 mb 0.00 in0.0 mm 0.00 in0.0 mm 0.00 in0.0 mm
04:11 AM 55.3°F12.9°C 51.2°F10.7°C 86% 11.8 mph W19.0 kmh W 17.0 mph27.4 kmh 29.71 in1006.1 mb 0.00 in0.0 mm 0.00 in0.0 mm 0.00 in0.0 mm
04:12 AM 55.2°F12.9°C 50.8°F10.4°C 85% 12.2 mph W19.6 kmh W 14.0 mph22.5 kmh 29.71 in1006.1 mb 0.00 in0.0 mm 0.00 in0.0 mm 0.00 in0.0 mm
04:13 AM 55.3°F12.9°C 50.9°F10.5°C 85% 12.3 mph W19.8 kmh W 14.0 mph22.5 kmh 29.71 in1006.1 mb 0.00 in0.0 mm 0.00 in0.0 mm 0.00 in0.0 mm
04:14 AM 55.1°F12.8°C 50.7°F10.4°C 85% 13.7 mph WNW22.0 kmh WNW 16.0 mph25.7 kmh 29.71 in1006.1 mb 0.00 in0.0 mm 0.00 in0.0 mm 0.00 in0.0 mm
04:15 AM 55.1°F12.8°C 50.7°F10.4°C 85% 11.2 mph WNW18.0 kmh WNW 16.0 mph25.7 kmh 29.71 in1006.1 mb 0.00 in0.0 mm 0.00 in0.0 mm 0.00 in0.0 mm
04:16 AM 55.2°F12.9°C 51.1°F10.6°C 86% 11.7 mph W18.8 kmh W 14.0 mph22.5 kmh 29.71 in1006.1 mb 0.00 in0.0 mm 0.00 in0.0 mm 0.00 in0.0 mm
04:17 AM 55.2°F12.9°C 51.1°F10.6°C 86% 11.9 mph WNW19.2 kmh WNW 14.0 mph22.5 kmh 29.71 in1006.1 mb 0.00 in0.0 mm 0.00 in0.0 mm 0.00 in0.0 mm
04:18 AM 55.3°F12.9°C 51.2°F10.7°C 86% 13.6 mph WNW21.9 kmh WNW 16.0 mph25.7 kmh 29.71 in1006.1 mb 0.00 in0.0 mm 0.00 in0.0 mm 0.00 in0.0 mm
04:19 AM 55.2°F12.9°C 50.8°F10.4°C 85% 12.2 mph W19.6 kmh W 16.0 mph25.7 kmh 29.71 in1006.1 mb 0.00 in0.0 mm 0.00 in0.0 mm 0.00 in0.0 mm
04:20 AM 55.1°F12.8°C 50.7°F10.4°C 85% 12.5 mph WNW20.1 kmh WNW 15.0 mph24.1 kmh 29.71 in1006.1 mb 0.00 in0.0 mm 0.00 in0.0 mm 0.00 in0.0 mm
04:21 AM 55.2°F12.9°C 50.8°F10.4°C 85% 13.1 mph WNW21.1 kmh WNW 15.0 mph24.1 kmh 29.71 in1006.1 mb 0.00 in0.0 mm 0.00 in0.0 mm 0.00 in0.0 mm
04:22 AM 55.3°F12.9°C 51.2°F10.7°C 86% 11.2 mph WNW18.0 kmh WNW 15.0 mph24.1 kmh 29.71 in1006.1 mb 0.00 in0.0 mm 0.00 in0.0 mm 0.00 in0.0 mm
04:23 AM 55.3°F12.9°C 51.2°F10.7°C 86% 11.4 mph W18.3 kmh W 13.0 mph20.9 kmh 29.71 in1006.1 mb 0.00 in0.0 mm 0.00 in0.0 mm 0.00 in0.0 mm
04:24 AM 55.2°F12.9°C 50.8°F10.4°C 85% 11.8 mph W19.0 kmh W 13.0 mph20.9 kmh 29.71 in1006.1 mb 0.00 in0.0 mm 0.00 in0.0 mm 0.00 in0.0 mm
04:25 AM 55.2°F12.9°C 50.8°F10.4°C 85% 12.5 mph W20.1 kmh W 15.0 mph24.1 kmh 29.71 in1006.1 mb 0.00 in0.0 mm 0.00 in0.0 mm 0.00 in0.0 mm
04:26 AM 55.2°F12.9°C 50.8°F10.4°C 85% 10.8 mph WNW17.4 kmh WNW 15.0 mph24.1 kmh 29.71 in1006.1 mb 0.00 in0.0 mm 0.00 in0.0 mm 0.00 in0.0 mm
04:27 AM 55.1°F12.8°C 50.7°F10.4°C 85% 11.9 mph W19.2 kmh W 14.0 mph22.5 kmh 29.71 in1006.1 mb 0.00 in0.0 mm 0.00 in0.0 mm 0.00 in0.0 mm
04:28 AM 55.1°F12.8°C 50.7°F10.4°C 85% 10.5 mph W16.9 kmh W 14.0 mph22.5 kmh 29.71 in1006.1 mb 0.00 in0.0 mm 0.00 in0.0 mm 0.00 in0.0 mm
04:29 AM 55.1°F12.8°C 51.0°F10.6°C 86% 10.6 mph W17.1 kmh W 13.0 mph20.9 kmh 29.71 in1006.1 mb 0.00 in0.0 mm 0.00 in0.0 mm 0.00 in0.0 mm
04:30 AM 55.1°F12.8°C 51.0°F10.6°C 86% 8.7 mph W14.0 kmh W 12.0 mph19.3 kmh 29.71 in1006.1 mb 0.00 in0.0 mm 0.00 in0.0 mm 0.00 in0.0 mm
04:31 AM 55.2°F12.9°C 51.1°F10.6°C 86% 8.8 mph W14.2 kmh W 11.0 mph17.7 kmh 29.71 in1006.1 mb 0.00 in0.0 mm 0.00 in0.0 mm 0.00 in0.0 mm
04:32 AM 55.2°F12.9°C 51.1°F10.6°C 86% 10.9 mph W17.5 kmh W 13.0 mph20.9 kmh 29.71 in1006.1 mb 0.00 in0.0 mm 0.00 in0.0 mm 0.00 in0.0 mm
04:33 AM 55.1°F12.8°C 50.7°F10.4°C 85% 10.4 mph W16.7 kmh W 13.0 mph20.9 kmh 29.71 in1006.1 mb 0.00 in0.0 mm 0.00 in0.0 mm 0.00 in0.0 mm
04:34 AM 55.1°F12.8°C 50.7°F10.4°C 85% 11.7 mph W18.8 kmh W 14.0 mph22.5 kmh 29.71 in1006.1 mb 0.00 in0.0 mm 0.00 in0.0 mm 0.00 in0.0 mm
04:35 AM 55.1°F12.8°C 51.0°F10.6°C 86% 10.3 mph W16.6 kmh W 14.0 mph22.5 kmh 29.71 in1006.1 mb 0.00 in0.0 mm 0.00 in0.0 mm 0.00 in0.0 mm
04:36 AM 55.1°F12.8°C 50.7°F10.4°C 85% 10.3 mph W16.6 kmh W 12.0 mph19.3 kmh 29.71 in1006.1 mb 0.00 in0.0 mm 0.00 in0.0 mm 0.00 in0.0 mm
04:37 AM 55.2°F12.9°C 51.1°F10.6°C 86% 11.3 mph W18.2 kmh W 13.0 mph20.9 kmh 29.71 in1006.1 mb 0.00 in0.0 mm 0.00 in0.0 mm 0.00 in0.0 mm
04:38 AM 55.2°F12.9°C 51.1°F10.6°C 86% 12.1 mph W19.5 kmh W 15.0 mph24.1 kmh 29.71 in1006.1 mb 0.00 in0.0 mm 0.00 in0.0 mm 0.00 in0.0 mm
04:39 AM 55.2°F12.9°C 50.8°F10.4°C 85% 11.1 mph W17.9 kmh W 15.0 mph24.1 kmh 29.71 in1006.1 mb 0.00 in0.0 mm 0.00 in0.0 mm 0.00 in0.0 mm
04:40 AM 55.2°F12.9°C 51.1°F10.6°C 86% 11.0 mph WNW17.7 kmh WNW 14.0 mph22.5 kmh 29.71 in1006.1 mb 0.00 in0.0 mm 0.00 in0.0 mm 0.00 in0.0 mm
04:41 AM 55.2°F12.9°C 50.8°F10.4°C 85% 10.8 mph W17.4 kmh W 13.0 mph20.9 kmh 29.71 in1006.1 mb 0.00 in0.0 mm 0.00 in0.0 mm 0.00 in0.0 mm
04:42 AM 55.2°F12.9°C 50.8°F10.4°C 85% 9.5 mph W15.3 kmh W 12.0 mph19.3 kmh 29.71 in1006.1 mb 0.00 in0.0 mm 0.00 in0.0 mm 0.00 in0.0 mm
04:43 AM 55.2°F12.9°C 50.8°F10.4°C 85% 10.2 mph W16.4 kmh W 14.0 mph22.5 kmh 29.71 in1006.1 mb 0.00 in0.0 mm 0.00 in0.0 mm 0.00 in0.0 mm
04:44 AM 55.2°F12.9°C 50.8°F10.4°C 85% 10.7 mph WNW17.2 kmh WNW 14.0 mph22.5 kmh 29.71 in1006.1 mb 0.00 in0.0 mm 0.00 in0.0 mm 0.00 in0.0 mm
04:45 AM 55.2°F12.9°C 50.8°F10.4°C 85% 10.1 mph WNW16.3 kmh WNW 14.0 mph22.5 kmh 29.71 in1006.1 mb 0.00 in0.0 mm 0.00 in0.0 mm 0.00 in0.0 mm
04:46 AM 55.3°F12.9°C 51.2°F10.7°C 86% 9.8 mph W15.8 kmh W 12.0 mph19.3 kmh 29.71 in1006.1 mb 0.00 in0.0 mm 0.00 in0.0 mm 0.00 in0.0 mm
04:47 AM 55.3°F12.9°C 51.2°F10.7°C 86% 11.5 mph W18.5 kmh W 14.0 mph22.5 kmh 29.71 in1006.1 mb 0.00 in0.0 mm 0.00 in0.0 mm 0.00 in0.0 mm
04:48 AM 55.3°F12.9°C 50.9°F10.5°C 85% 9.3 mph W15.0 kmh W 14.0 mph22.5 kmh 29.71 in1006.1 mb 0.00 in0.0 mm 0.00 in0.0 mm 0.00 in0.0 mm
04:49 AM 55.3°F12.9°C 51.2°F10.7°C 86% 10.7 mph W17.2 kmh W 12.0 mph19.3 kmh 29.71 in1006.1 mb 0.00 in0.0 mm 0.00 in0.0 mm 0.00 in0.0 mm
04:50 AM 55.2°F12.9°C 50.8°F10.4°C 85% 9.3 mph W15.0 kmh W 12.0 mph19.3 kmh 29.71 in1006.1 mb 0.00 in0.0 mm 0.00 in0.0 mm 0.00 in0.0 mm
04:51 AM 55.3°F12.9°C 50.9°F10.5°C 85% 8.0 mph W12.9 kmh W 11.0 mph17.7 kmh 29.71 in1006.1 mb 0.00 in0.0 mm 0.00 in0.0 mm 0.00 in0.0 mm
04:52 AM 55.3°F12.9°C 51.2°F10.7°C 86% 9.6 mph W15.4 kmh W 12.0 mph19.3 kmh 29.71 in1006.1 mb 0.00 in0.0 mm 0.00 in0.0 mm 0.00 in0.0 mm
04:53 AM 55.2°F12.9°C 50.8°F10.4°C 85% 10.5 mph W16.9 kmh W 12.0 mph19.3 kmh 29.71 in1006.1 mb 0.00 in0.0 mm 0.00 in0.0 mm 0.00 in0.0 mm
04:54 AM 55.3°F12.9°C 50.9°F10.5°C 85% 11.1 mph W17.9 kmh W 13.0 mph20.9 kmh 29.71 in1006.1 mb 0.00 in0.0 mm 0.00 in0.0 mm 0.00 in0.0 mm
04:55 AM 55.2°F12.9°C 50.8°F10.4°C 85% 10.4 mph W16.7 kmh W 13.0 mph20.9 kmh 29.71 in1006.1 mb 0.00 in0.0 mm 0.00 in0.0 mm 0.00 in0.0 mm
04:56 AM 55.3°F12.9°C 51.2°F10.7°C 86% 10.3 mph WNW16.6 kmh WNW 13.0 mph20.9 kmh 29.71 in1006.1 mb 0.00 in0.0 mm 0.00 in0.0 mm 0.00 in0.0 mm
04:57 AM 55.3°F12.9°C 51.2°F10.7°C 86% 10.7 mph WNW17.2 kmh WNW 13.0 mph20.9 kmh 29.71 in1006.1 mb 0.00 in0.0 mm 0.00 in0.0 mm 0.00 in0.0 mm
04:58 AM 55.5°F13.1°C 51.4°F10.8°C 86% 11.5 mph WNW18.5 kmh WNW 15.0 mph24.1 kmh 29.71 in1006.1 mb 0.00 in0.0 mm 0.00 in0.0 mm 0.00 in0.0 mm
04:59 AM 55.4°F13.0°C 51.0°F10.6°C 85% 11.4 mph W18.3 kmh W 15.0 mph24.1 kmh 29.71 in1006.1 mb 0.00 in0.0 mm 0.00 in0.0 mm 0.00 in0.0 mm
05:00 AM 55.4°F13.0°C 51.0°F10.6°C 85% 8.5 mph W13.7 kmh W 13.0 mph20.9 kmh 29.71 in1006.1 mb 0.00 in0.0 mm 0.00 in0.0 mm 0.00 in0.0 mm
05:01 AM 55.4°F13.0°C 51.0°F10.6°C 85% 9.5 mph W15.3 kmh W 12.0 mph19.3 kmh 29.71 in1006.1 mb 0.00 in0.0 mm 0.00 in0.0 mm 0.00 in0.0 mm
05:02 AM 55.4°F13.0°C 51.3°F10.7°C 86% 9.3 mph W15.0 kmh W 12.0 mph19.3 kmh 29.71 in1006.1 mb 0.00 in0.0 mm 0.00 in0.0 mm 0.00 in0.0 mm
05:03 AM 55.5°F13.1°C 51.4°F10.8°C 86% 10.5 mph W16.9 kmh W 13.0 mph20.9 kmh 29.71 in1006.1 mb 0.00 in0.0 mm 0.00 in0.0 mm 0.00 in0.0 mm
05:04 AM 55.4°F13.0°C 51.0°F10.6°C 85% 11.0 mph WNW17.7 kmh WNW 14.0 mph22.5 kmh 29.71 in1006.1 mb 0.00 in0.0 mm 0.00 in0.0 mm 0.00 in0.0 mm
05:05 AM 55.4°F13.0°C 51.3°F10.7°C 86% 11.1 mph WNW17.9 kmh WNW 14.0 mph22.5 kmh 29.71 in1006.1 mb 0.00 in0.0 mm 0.00 in0.0 mm 0.00 in0.0 mm
05:06 AM 55.4°F13.0°C 51.3°F10.7°C 86% 11.8 mph WNW19.0 kmh WNW 13.0 mph20.9 kmh 29.71 in1006.1 mb 0.00 in0.0 mm 0.00 in0.0 mm 0.00 in0.0 mm
05:07 AM 55.5°F13.1°C 51.4°F10.8°C 86% 10.1 mph WNW16.3 kmh WNW 14.0 mph22.5 kmh 29.71 in1006.1 mb 0.00 in0.0 mm 0.00 in0.0 mm 0.00 in0.0 mm
05:08 AM 55.5°F13.1°C 51.4°F10.8°C 86% 8.1 mph W13.0 kmh W 14.0 mph22.5 kmh 29.71 in1006.1 mb 0.00 in0.0 mm 0.00 in0.0 mm 0.00 in0.0 mm
05:09 AM 55.6°F13.1°C 51.5°F10.8°C 86% 8.0 mph W12.9 kmh W 10.0 mph16.1 kmh 29.71 in1006.1 mb 0.00 in0.0 mm 0.00 in0.0 mm 0.00 in0.0 mm
05:10 AM 55.5°F13.1°C 51.4°F10.8°C 86% 10.3 mph W16.6 kmh W 12.0 mph19.3 kmh 29.71 in1006.1 mb 0.00 in0.0 mm 0.00 in0.0 mm 0.00 in0.0 mm
05:11 AM 55.6°F13.1°C 51.2°F10.7°C 85% 9.0 mph W14.5 kmh W 12.0 mph19.3 kmh 29.71 in1006.1 mb 0.00 in0.0 mm 0.00 in0.0 mm 0.00 in0.0 mm
05:12 AM 55.5°F13.1°C 51.1°F10.6°C 85% 11.9 mph W19.2 kmh W 15.0 mph24.1 kmh 29.71 in1006.1 mb 0.00 in0.0 mm 0.00 in0.0 mm 0.00 in0.0 mm
05:13 AM 55.4°F13.0°C 51.0°F10.6°C 85% 8.5 mph WNW13.7 kmh WNW 15.0 mph24.1 kmh 29.71 in1006.1 mb 0.00 in0.0 mm 0.00 in0.0 mm 0.00 in0.0 mm
05:14 AM 55.3°F12.9°C 50.9°F10.5°C 85% 9.4 mph W15.1 kmh W 11.0 mph17.7 kmh 29.71 in1006.1 mb 0.00 in0.0 mm 0.00 in0.0 mm 0.00 in0.0 mm
05:15 AM 55.3°F12.9°C 50.9°F10.5°C 85% 9.0 mph W14.5 kmh W 11.0 mph17.7 kmh 29.71 in1006.1 mb 0.00 in0.0 mm 0.00 in0.0 mm 0.00 in0.0 mm
05:16 AM 55.4°F13.0°C 51.0°F10.6°C 85% 10.5 mph W16.9 kmh W 13.0 mph20.9 kmh 29.71 in1006.1 mb 0.00 in0.0 mm 0.00 in0.0 mm 0.00 in0.0 mm
05:17 AM 55.5°F13.1°C 51.4°F10.8°C 86% 8.8 mph W14.2 kmh W 13.0 mph20.9 kmh 29.71 in1006.1 mb 0.00 in0.0 mm 0.00 in0.0 mm 0.00 in0.0 mm
05:18 AM 55.5°F13.1°C 51.4°F10.8°C 86% 10.7 mph W17.2 kmh W 13.0 mph20.9 kmh 29.71 in1006.1 mb 0.00 in0.0 mm 0.00 in0.0 mm 0.00 in0.0 mm
05:19 AM 55.5°F13.1°C 51.1°F10.6°C 85% 11.6 mph WNW18.7 kmh WNW 14.0 mph22.5 kmh 29.71 in1006.1 mb 0.00 in0.0 mm 0.00 in0.0 mm 0.00 in0.0 mm
05:20 AM 55.4°F13.0°C 51.0°F10.6°C 85% 10.0 mph WNW16.1 kmh WNW 14.0 mph22.5 kmh 29.71 in1006.1 mb 0.00 in0.0 mm 0.00 in0.0 mm 0.00 in0.0 mm
05:21 AM 55.5°F13.1°C 51.4°F10.8°C 86% 8.6 mph W13.8 kmh W 11.0 mph17.7 kmh 29.71 in1006.1 mb 0.00 in0.0 mm 0.00 in0.0 mm 0.00 in0.0 mm
05:22 AM 55.6°F13.1°C 51.5°F10.8°C 86% 10.0 mph WNW16.1 kmh WNW 11.0 mph17.7 kmh 29.71 in1006.1 mb 0.00 in0.0 mm 0.00 in0.0 mm 0.00 in0.0 mm
05:23 AM 55.7°F13.2°C 51.6°F10.9°C 86% 10.0 mph WNW16.1 kmh WNW 12.0 mph19.3 kmh 29.71 in1006.1 mb 0.00 in0.0 mm 0.00 in0.0 mm 0.00 in0.0 mm
05:24 AM 55.7°F13.2°C 51.6°F10.9°C 86% 10.8 mph WNW17.4 kmh WNW 13.0 mph20.9 kmh 29.71 in1006.1 mb 0.00 in0.0 mm 0.00 in0.0 mm 0.00 in0.0 mm
05:25 AM 55.7°F13.2°C 51.6°F10.9°C 86% 11.3 mph WNW18.2 kmh WNW 14.0 mph22.5 kmh 29.71 in1006.1 mb 0.00 in0.0 mm 0.00 in0.0 mm 0.00 in0.0 mm
05:26 AM 55.7°F13.2°C 51.6°F10.9°C 86% 9.2 mph W14.8 kmh W 14.0 mph22.5 kmh 29.71 in1006.1 mb 0.00 in0.0 mm 0.00 in0.0 mm 0.00 in0.0 mm
05:27 AM 55.7°F13.2°C 51.3°F10.7°C 85% 10.1 mph WNW16.3 kmh WNW 12.0 mph19.3 kmh 29.71 in1006.1 mb 0.00 in0.0 mm 0.00 in0.0 mm 0.00 in0.0 mm
05:28 AM 55.5°F13.1°C 51.1°F10.6°C 85% 9.8 mph WNW15.8 kmh WNW 12.0 mph19.3 kmh 29.71 in1006.1 mb 0.00 in0.0 mm 0.00 in0.0 mm 0.00 in0.0 mm
05:29 AM 55.6°F13.1°C 51.5°F10.8°C 86% 8.9 mph W14.3 kmh W 11.0 mph17.7 kmh 29.71 in1006.1 mb 0.00 in0.0 mm 0.00 in0.0 mm 0.00 in0.0 mm
05:30 AM 55.6°F13.1°C 51.5°F10.8°C 86% 11.2 mph W18.0 kmh W 15.0 mph24.1 kmh 29.71 in1006.1 mb 0.00 in0.0 mm 0.00 in0.0 mm 0.00 in0.0 mm
05:31 AM 55.6°F13.1°C 51.2°F10.7°C 85% 10.6 mph W17.1 kmh W 15.0 mph24.1 kmh 29.71 in1006.1 mb 0.00 in0.0 mm 0.00 in0.0 mm 0.00 in0.0 mm
05:32 AM 55.5°F13.1°C 51.1°F10.6°C 85% 10.4 mph W16.7 kmh W 13.0 mph20.9 kmh 29.71 in1006.1 mb 0.00 in0.0 mm 0.00 in0.0 mm 0.00 in0.0 mm
05:33 AM 55.6°F13.1°C 51.2°F10.7°C 85% 10.9 mph W17.5 kmh W 13.0 mph20.9 kmh 29.71 in1006.1 mb 0.00 in0.0 mm 0.00 in0.0 mm 0.00 in0.0 mm
05:34 AM 55.6°F13.1°C 51.2°F10.7°C 85% 10.4 mph W16.7 kmh W 13.0 mph20.9 kmh 29.71 in1006.1 mb 0.00 in0.0 mm 0.00 in0.0 mm 0.00 in0.0 mm
05:35 AM 55.6°F13.1°C 51.5°F10.8°C 86% 9.4 mph W15.1 kmh W 13.0 mph20.9 kmh 29.71 in1006.1 mb 0.00 in0.0 mm 0.00 in0.0 mm 0.00 in0.0 mm
05:36 AM 55.7°F13.2°C 51.6°F10.9°C 86% 9.9 mph NW15.9 kmh NW 11.0 mph17.7 kmh 29.71 in1006.1 mb 0.00 in0.0 mm 0.00 in0.0 mm 0.00 in0.0 mm
05:37 AM 55.8°F13.2°C 51.7°F10.9°C 86% 9.3 mph WNW15.0 kmh WNW 11.0 mph17.7 kmh 29.71 in1006.1 mb 0.00 in0.0 mm 0.00 in0.0 mm 0.00 in0.0 mm
05:38 AM 55.8°F13.2°C 51.7°F10.9°C 86% 7.5 mph W12.1 kmh W 11.0 mph17.7 kmh 29.71 in1006.1 mb 0.00 in0.0 mm 0.00 in0.0 mm 0.00 in0.0 mm
05:39 AM 55.7°F13.2°C 51.6°F10.9°C 86% 8.4 mph W13.5 kmh W 12.0 mph19.3 kmh 29.71 in1006.1 mb 0.00 in0.0 mm 0.00 in0.0 mm 0.00 in0.0 mm
05:40 AM 55.7°F13.2°C 51.3°F10.7°C 85% 8.3 mph W13.4 kmh W 12.0 mph19.3 kmh 29.71 in1006.1 mb 0.00 in0.0 mm 0.00 in0.0 mm 0.00 in0.0 mm
05:41 AM 55.7°F13.2°C 51.6°F10.9°C 86% 8.5 mph W13.7 kmh W 11.0 mph17.7 kmh 29.71 in1006.1 mb 0.00 in0.0 mm 0.00 in0.0 mm 0.00 in0.0 mm
05:42 AM 55.7°F13.2°C 51.6°F10.9°C 86% 10.1 mph WNW16.3 kmh WNW 11.0 mph17.7 kmh 29.71 in1006.1 mb 0.00 in0.0 mm 0.00 in0.0 mm 0.00 in0.0 mm
05:43 AM 55.7°F13.2°C 51.3°F10.7°C 85% 8.8 mph W14.2 kmh W 11.0 mph17.7 kmh 29.72 in1006.4 mb 0.00 in0.0 mm 0.00 in0.0 mm 0.00 in0.0 mm
05:44 AM 55.7°F13.2°C 51.6°F10.9°C 86% 9.0 mph W14.5 kmh W 14.0 mph22.5 kmh 29.71 in1006.1 mb 0.00 in0.0 mm 0.00 in0.0 mm 0.00 in0.0 mm
05:45 AM 55.7°F13.2°C 51.6°F10.9°C 86% 11.5 mph W18.5 kmh W 15.0 mph24.1 kmh 29.72 in1006.4 mb 0.00 in0.0 mm 0.00 in0.0 mm 0.00 in0.0 mm
05:46 AM 55.7°F13.2°C 51.6°F10.9°C 86% 10.9 mph W17.5 kmh W 13.0 mph20.9 kmh 29.71 in1006.1 mb 0.00 in0.0 mm 0.00 in0.0 mm 0.00 in0.0 mm
05:47 AM 55.8°F13.2°C 51.7°F10.9°C 86% 11.6 mph W18.7 kmh W 13.0 mph20.9 kmh 29.72 in1006.4 mb 0.00 in0.0 mm 0.00 in0.0 mm 0.00 in0.0 mm
05:48 AM 55.8°F13.2°C 51.7°F10.9°C 86% 11.3 mph W18.2 kmh W 14.0 mph22.5 kmh 29.72 in1006.4 mb 0.00 in0.0 mm 0.00 in0.0 mm 0.00 in0.0 mm
05:49 AM 55.7°F13.2°C 51.3°F10.7°C 85% 12.0 mph WNW19.3 kmh WNW 14.0 mph22.5 kmh 29.72 in1006.4 mb 0.00 in0.0 mm 0.00 in0.0 mm 0.00 in0.0 mm
05:50 AM 55.7°F13.2°C 51.3°F10.7°C 85% 9.9 mph W15.9 kmh W 14.0 mph22.5 kmh 29.72 in1006.4 mb 0.00 in0.0 mm 0.00 in0.0 mm 0.00 in0.0 mm
05:51 AM 55.6°F13.1°C 51.2°F10.7°C 85% 10.4 mph W16.7 kmh W 13.0 mph20.9 kmh 29.72 in1006.4 mb 0.00 in0.0 mm 0.00 in0.0 mm 0.00 in0.0 mm
05:52 AM 55.7°F13.2°C 51.3°F10.7°C 85% 11.4 mph W18.3 kmh W 14.0 mph22.5 kmh 29.72 in1006.4 mb 0.00 in0.0 mm 0.00 in0.0 mm 0.00 in0.0 mm
05:53 AM 55.7°F13.2°C 51.6°F10.9°C 86% 11.7 mph W18.8 kmh W 15.0 mph24.1 kmh 29.72 in1006.4 mb 0.00 in0.0 mm 0.00 in0.0 mm 0.00 in0.0 mm
05:54 AM 55.8°F13.2°C 51.4°F10.8°C 85% 11.1 mph W17.9 kmh W 15.0 mph24.1 kmh 29.71 in1006.1 mb 0.00 in0.0 mm 0.00 in0.0 mm 0.00 in0.0 mm
05:55 AM 55.7°F13.2°C 51.6°F10.9°C 86% 11.2 mph W18.0 kmh W 14.0 mph22.5 kmh 29.71 in1006.1 mb 0.00 in0.0 mm 0.00 in0.0 mm 0.00 in0.0 mm
05:56 AM 55.7°F13.2°C 51.3°F10.7°C 85% 10.7 mph W17.2 kmh W 14.0 mph22.5 kmh 29.71 in1006.1 mb 0.00 in0.0 mm 0.00 in0.0 mm 0.00 in0.0 mm
05:57 AM 55.7°F13.2°C 51.3°F10.7°C 85% 12.1 mph W19.5 kmh W 14.0 mph22.5 kmh 29.71 in1006.1 mb 0.00 in0.0 mm 0.00 in0.0 mm 0.00 in0.0 mm
05:58 AM 55.7°F13.2°C 51.3°F10.7°C 85% 11.0 mph WNW17.7 kmh WNW 14.0 mph22.5 kmh 29.71 in1006.1 mb 0.00 in0.0 mm 0.00 in0.0 mm 0.00 in0.0 mm
05:59 AM 55.9°F13.3°C 51.8°F11.0°C 86% 10.4 mph W16.7 kmh W 14.0 mph22.5 kmh 29.71 in1006.1 mb 0.00 in0.0 mm 0.00 in0.0 mm 0.00 in0.0 mm
06:00 AM 55.9°F13.3°C 51.8°F11.0°C 86% 11.6 mph WNW18.7 kmh WNW 14.0 mph22.5 kmh 29.71 in1006.1 mb 0.00 in0.0 mm 0.00 in0.0 mm 0.00 in0.0 mm
06:01 AM 55.9°F13.3°C 51.5°F10.8°C 85% 12.3 mph WNW19.8 kmh WNW 15.0 mph24.1 kmh 29.71 in1006.1 mb 0.00 in0.0 mm 0.00 in0.0 mm 0.00 in0.0 mm
06:02 AM 55.8°F13.2°C 51.4°F10.8°C 85% 9.4 mph W15.1 kmh W 15.0 mph24.1 kmh 29.71 in1006.1 mb 0.00 in0.0 mm 0.00 in0.0 mm 0.00 in0.0 mm
06:03 AM 55.9°F13.3°C 51.8°F11.0°C 86% 9.7 mph WNW15.6 kmh WNW 12.0 mph19.3 kmh 29.71 in1006.1 mb 0.00 in0.0 mm 0.00 in0.0 mm 0.00 in0.0 mm
06:04 AM 56.0°F13.3°C 51.9°F11.1°C 86% 10.9 mph WNW17.5 kmh WNW 13.0 mph20.9 kmh 29.71 in1006.1 mb 0.00 in0.0 mm 0.00 in0.0 mm 0.00 in0.0 mm
06:05 AM 56.1°F13.4°C 52.0°F11.1°C 86% 7.8 mph W12.6 kmh W 13.0 mph20.9 kmh 29.72 in1006.4 mb 0.00 in0.0 mm 0.00 in0.0 mm 0.00 in0.0 mm
06:06 AM 56.1°F13.4°C 52.0°F11.1°C 86% 8.7 mph WNW14.0 kmh WNW 11.0 mph17.7 kmh 29.72 in1006.4 mb 0.00 in0.0 mm 0.00 in0.0 mm 0.00 in0.0 mm
06:07 AM 56.0°F13.3°C 51.6°F10.9°C 85% 9.5 mph NW15.3 kmh NW 11.0 mph17.7 kmh 29.72 in1006.4 mb 0.00 in0.0 mm 0.00 in0.0 mm 0.00 in0.0 mm
06:08 AM 56.0°F13.3°C 51.6°F10.9°C 85% 8.8 mph WNW14.2 kmh WNW 11.0 mph17.7 kmh 29.72 in1006.4 mb 0.00 in0.0 mm 0.00 in0.0 mm 0.00 in0.0 mm
06:09 AM 56.1°F13.4°C 52.0°F11.1°C 86% 8.9 mph W14.3 kmh W 11.0 mph17.7 kmh 29.72 in1006.4 mb 0.00 in0.0 mm 0.00 in0.0 mm 0.00 in0.0 mm
06:10 AM 56.0°F13.3°C 51.6°F10.9°C 85% 11.1 mph W17.9 kmh W 13.0 mph20.9 kmh 29.72 in1006.4 mb 0.00 in0.0 mm 0.00 in0.0 mm 0.00 in0.0 mm
06:11 AM 56.0°F13.3°C 51.6°F10.9°C 85% 9.7 mph W15.6 kmh W 13.0 mph20.9 kmh 29.72 in1006.4 mb 0.00 in0.0 mm 0.00 in0.0 mm 0.00 in0.0 mm
06:12 AM 55.9°F13.3°C 51.5°F10.8°C 85% 10.0 mph W16.1 kmh W 14.0 mph22.5 kmh 29.72 in1006.4 mb 0.00 in0.0 mm 0.00 in0.0 mm 0.00 in0.0 mm
06:13 AM 55.9°F13.3°C 51.5°F10.8°C 85% 10.8 mph W17.4 kmh W 14.0 mph22.5 kmh 29.72 in1006.4 mb 0.00 in0.0 mm 0.00 in0.0 mm 0.00 in0.0 mm
06:14 AM 55.9°F13.3°C 51.5°F10.8°C 85% 9.6 mph W15.4 kmh W 13.0 mph20.9 kmh 29.72 in1006.4 mb 0.00 in0.0 mm 0.00 in0.0 mm 0.00 in0.0 mm
06:15 AM 55.8°F13.2°C 51.4°F10.8°C 85% 10.8 mph W17.4 kmh W 12.0 mph19.3 kmh 29.72 in1006.4 mb 0.00 in0.0 mm 0.00 in0.0 mm 0.00 in0.0 mm
06:16 AM 55.8°F13.2°C 51.4°F10.8°C 85% 8.9 mph W14.3 kmh W 12.0 mph19.3 kmh 29.72 in1006.4 mb 0.00 in0.0 mm 0.00 in0.0 mm 0.00 in0.0 mm
06:17 AM 55.9°F13.3°C 51.5°F10.8°C 85% 9.4 mph W15.1 kmh W 12.0 mph19.3 kmh 29.72 in1006.4 mb 0.00 in0.0 mm 0.00 in0.0 mm 0.00 in0.0 mm
06:18 AM 55.9°F13.3°C 51.5°F10.8°C 85% 8.8 mph W14.2 kmh W 12.0 mph19.3 kmh 29.72 in1006.4 mb 0.00 in0.0 mm 0.00 in0.0 mm 0.00 in0.0 mm
06:19 AM 56.0°F13.3°C 51.9°F11.1°C 86% 9.0 mph W14.5 kmh W 13.0 mph20.9 kmh 29.72 in1006.4 mb 0.00 in0.0 mm 0.00 in0.0 mm 0.00 in0.0 mm
06:20 AM 56.0°F13.3°C 51.6°F10.9°C 85% 9.8 mph WNW15.8 kmh WNW 13.0 mph20.9 kmh 29.72 in1006.4 mb 0.00 in0.0 mm 0.00 in0.0 mm 0.00 in0.0 mm
06:21 AM 55.9°F13.3°C 51.5°F10.8°C 85% 9.0 mph W14.5 kmh W 12.0 mph19.3 kmh 29.72 in1006.4 mb 0.00 in0.0 mm 0.00 in0.0 mm 0.00 in0.0 mm
06:22 AM 56.0°F13.3°C 51.6°F10.9°C 85% 8.4 mph WSW13.5 kmh WSW 10.0 mph16.1 kmh 29.72 in1006.4 mb 0.00 in0.0 mm 0.00 in0.0 mm 0.00 in0.0 mm
06:23 AM 56.0°F13.3°C 51.6°F10.9°C 85% 10.6 mph W17.1 kmh W 13.0 mph20.9 kmh 29.72 in1006.4 mb 0.00 in0.0 mm 0.00 in0.0 mm 0.00 in0.0 mm
06:24 AM 55.9°F13.3°C 51.5°F10.8°C 85% 9.4 mph W15.1 kmh W 13.0 mph20.9 kmh 29.72 in1006.4 mb 0.00 in0.0 mm 0.00 in0.0 mm 0.00 in0.0 mm
06:25 AM 56.0°F13.3°C 51.6°F10.9°C 85% 8.1 mph WNW13.0 kmh WNW 11.0 mph17.7 kmh 29.72 in1006.4 mb 0.00 in0.0 mm 0.00 in0.0 mm 0.00 in0.0 mm
06:26 AM 56.0°F13.3°C 51.6°F10.9°C 85% 7.9 mph WNW12.7 kmh WNW 10.0 mph16.1 kmh 29.72 in1006.4 mb 0.00 in0.0 mm 0.00 in0.0 mm 0.00 in0.0 mm
06:27 AM 56.1°F13.4°C 51.7°F10.9°C 85% 7.1 mph W11.4 kmh W 10.0 mph16.1 kmh 29.72 in1006.4 mb 0.00 in0.0 mm 0.00 in0.0 mm 0.00 in0.0 mm
06:28 AM 56.1°F13.4°C 51.7°F10.9°C 85% 10.7 mph WNW17.2 kmh WNW 12.0 mph19.3 kmh 29.72 in1006.4 mb 0.00 in0.0 mm 0.00 in0.0 mm 0.00 in0.0 mm
06:29 AM 56.1°F13.4°C 51.7°F10.9°C 85% 10.6 mph WNW17.1 kmh WNW 14.0 mph22.5 kmh 29.72 in1006.4 mb 0.00 in0.0 mm 0.00 in0.0 mm 0.00 in0.0 mm
06:30 AM 56.0°F13.3°C 51.6°F10.9°C 85% 8.5 mph WNW13.7 kmh WNW 14.0 mph22.5 kmh 29.72 in1006.4 mb 0.00 in0.0 mm 0.00 in0.0 mm 0.00 in0.0 mm
06:31 AM 56.1°F13.4°C 51.7°F10.9°C 85% 7.9 mph WNW12.7 kmh WNW 10.0 mph16.1 kmh 29.72 in1006.4 mb 0.00 in0.0 mm 0.00 in0.0 mm 0.00 in0.0 mm
06:32 AM 56.2°F13.4°C 51.7°F10.9°C 85% 7.3 mph W11.7 kmh W 10.0 mph16.1 kmh 29.72 in1006.4 mb 0.00 in0.0 mm 0.00 in0.0 mm 0.00 in0.0 mm
06:33 AM 56.2°F13.4°C 51.7°F10.9°C 85% 8.0 mph W12.9 kmh W 12.0 mph19.3 kmh 29.72 in1006.4 mb 0.00 in0.0 mm 0.00 in0.0 mm 0.00 in0.0 mm
06:34 AM 56.2°F13.4°C 51.7°F10.9°C 85% 9.0 mph WNW14.5 kmh WNW 12.0 mph19.3 kmh 29.72 in1006.4 mb 0.00 in0.0 mm 0.00 in0.0 mm 0.00 in0.0 mm
06:35 AM 56.2°F13.4°C 51.7°F10.9°C 85% 9.2 mph WNW14.8 kmh WNW 12.0 mph19.3 kmh 29.72 in1006.4 mb 0.00 in0.0 mm 0.00 in0.0 mm 0.00 in0.0 mm
06:36 AM 56.2°F13.4°C 51.7°F10.9°C 85% 11.3 mph NW18.2 kmh NW 15.0 mph24.1 kmh 29.72 in1006.4 mb 0.00 in0.0 mm 0.00 in0.0 mm 0.00 in0.0 mm
06:37 AM 56.3°F13.5°C 52.2°F11.2°C 86% 12.8 mph NW20.6 kmh NW 15.0 mph24.1 kmh 29.72 in1006.4 mb 0.00 in0.0 mm 0.00 in0.0 mm 0.00 in0.0 mm
06:38 AM 56.2°F13.4°C 51.7°F10.9°C 85% 12.5 mph WNW20.1 kmh WNW 14.0 mph22.5 kmh 29.72 in1006.4 mb 0.00 in0.0 mm 0.00 in0.0 mm 0.00 in0.0 mm
06:39 AM 56.3°F13.5°C 52.2°F11.2°C 86% 12.1 mph WNW19.5 kmh WNW 14.0 mph22.5 kmh 29.72 in1006.4 mb 0.00 in0.0 mm 0.00 in0.0 mm 0.00 in0.0 mm
06:40 AM 56.3°F13.5°C 51.8°F11.0°C 85% 13.5 mph WNW21.7 kmh WNW 17.0 mph27.4 kmh 29.72 in1006.4 mb 0.00 in0.0 mm 0.00 in0.0 mm 0.00 in0.0 mm
06:41 AM 56.1°F13.4°C 51.3°F10.7°C 84% 9.2 mph WNW14.8 kmh WNW 17.0 mph27.4 kmh 29.72 in1006.4 mb 0.00 in0.0 mm 0.00 in0.0 mm 0.00 in0.0 mm
06:42 AM 56.0°F13.3°C 51.2°F10.7°C 84% 9.0 mph WNW14.5 kmh WNW 11.0 mph17.7 kmh 29.72 in1006.4 mb 0.00 in0.0 mm 0.00 in0.0 mm 0.00 in0.0 mm
06:43 AM 56.1°F13.4°C 51.7°F10.9°C 85% 9.1 mph WNW14.6 kmh WNW 12.0 mph19.3 kmh 29.72 in1006.4 mb 0.00 in0.0 mm 0.00 in0.0 mm 0.00 in0.0 mm
06:44 AM 56.1°F13.4°C 51.7°F10.9°C 85% 9.4 mph WNW15.1 kmh WNW 13.0 mph20.9 kmh 29.72 in1006.4 mb 0.00 in0.0 mm 0.00 in0.0 mm 0.00 in0.0 mm
06:45 AM 56.1°F13.4°C 51.7°F10.9°C 85% 10.1 mph WNW16.3 kmh WNW 13.0 mph20.9 kmh 29.72 in1006.4 mb 0.00 in0.0 mm 0.00 in0.0 mm 0.00 in0.0 mm
06:46 AM 56.2°F13.4°C 51.7°F10.9°C 85% 10.5 mph WNW16.9 kmh WNW 12.0 mph19.3 kmh 29.72 in1006.4 mb 0.00 in0.0 mm 0.00 in0.0 mm 0.00 in0.0 mm
06:47 AM 56.3°F13.5°C 52.2°F11.2°C 86% 11.8 mph WNW19.0 kmh WNW 13.0 mph20.9 kmh 29.72 in1006.4 mb 0.00 in0.0 mm 0.00 in0.0 mm 0.00 in0.0 mm
06:48 AM 56.3°F13.5°C 51.8°F11.0°C 85% 13.2 mph WNW21.2 kmh WNW 15.0 mph24.1 kmh 29.72 in1006.4 mb 0.00 in0.0 mm 0.00 in0.0 mm 0.00 in0.0 mm
06:49 AM 56.4°F13.6°C 51.9°F11.1°C 85% 11.4 mph WNW18.3 kmh WNW 15.0 mph24.1 kmh 29.72 in1006.4 mb 0.00 in0.0 mm 0.00 in0.0 mm 0.00 in0.0 mm
06:50 AM 56.5°F13.6°C 52.0°F11.1°C 85% 11.1 mph WNW17.9 kmh WNW 15.0 mph24.1 kmh 29.72 in1006.4 mb 0.00 in0.0 mm 0.00 in0.0 mm 0.00 in0.0 mm
06:51 AM 56.6°F13.7°C 52.5°F11.4°C 86% 11.3 mph WNW18.2 kmh WNW 13.0 mph20.9 kmh 29.72 in1006.4 mb 0.00 in0.0 mm 0.00 in0.0 mm 0.00 in0.0 mm
06:52 AM 56.6°F13.7°C 52.5°F11.4°C 86% 9.0 mph WNW14.5 kmh WNW 13.0 mph20.9 kmh 29.72 in1006.4 mb 0.00 in0.0 mm 0.00 in0.0 mm 0.00 in0.0 mm
06:53 AM 56.7°F13.7°C 52.6°F11.4°C 86% 9.5 mph WNW15.3 kmh WNW 14.0 mph22.5 kmh 29.72 in1006.4 mb 0.00 in0.0 mm 0.00 in0.0 mm 0.00 in0.0 mm
06:54 AM 56.8°F13.8°C 52.7°F11.5°C 86% 10.9 mph WNW17.5 kmh WNW 14.0 mph22.5 kmh 29.72 in1006.4 mb 0.00 in0.0 mm 0.00 in0.0 mm 0.00 in0.0 mm
06:55 AM 56.7°F13.7°C 52.2°F11.2°C 85% 9.9 mph NW15.9 kmh NW 13.0 mph20.9 kmh 29.72 in1006.4 mb 0.00 in0.0 mm 0.00 in0.0 mm 0.00 in0.0 mm
06:56 AM 56.8°F13.8°C 52.7°F11.5°C 86% 8.9 mph WNW14.3 kmh WNW 11.0 mph17.7 kmh 29.72 in1006.4 mb 0.00 in0.0 mm 0.00 in0.0 mm 0.00 in0.0 mm
06:57 AM 56.8°F13.8°C 52.7°F11.5°C 86% 9.8 mph WNW15.8 kmh WNW 12.0 mph19.3 kmh 29.72 in1006.4 mb 0.00 in0.0 mm 0.00 in0.0 mm 0.00 in0.0 mm
06:58 AM 56.9°F13.8°C 52.4°F11.3°C 85% 9.0 mph WNW14.5 kmh WNW 12.0 mph19.3 kmh 29.72 in1006.4 mb 0.00 in0.0 mm 0.00 in0.0 mm 0.00 in0.0 mm
06:59 AM 56.8°F13.8°C 52.3°F11.3°C 85% 10.1 mph NW16.3 kmh NW 13.0 mph20.9 kmh 29.72 in1006.4 mb 0.00 in0.0 mm 0.00 in0.0 mm 0.00 in0.0 mm
07:00 AM 56.8°F13.8°C 52.3°F11.3°C 85% 11.5 mph WNW18.5 kmh WNW 13.0 mph20.9 kmh 29.72 in1006.4 mb 0.00 in0.0 mm 0.00 in0.0 mm 0.00 in0.0 mm
07:01 AM 56.8°F13.8°C 52.3°F11.3°C 85% 11.7 mph WNW18.8 kmh WNW 13.0 mph20.9 kmh 29.72 in1006.4 mb 0.00 in0.0 mm 0.00 in0.0 mm 0.00 in0.0 mm
07:02 AM 56.7°F13.7°C 52.2°F11.2°C 85% 11.4 mph WNW18.3 kmh WNW 14.0 mph22.5 kmh 29.72 in1006.4 mb 0.00 in0.0 mm 0.00 in0.0 mm 0.00 in0.0 mm
07:03 AM 56.6°F13.7°C 52.1°F11.2°C 85% 11.6 mph WNW18.7 kmh WNW 14.0 mph22.5 kmh 29.72 in1006.4 mb 0.00 in0.0 mm 0.00 in0.0 mm 0.00 in0.0 mm
07:04 AM 56.6°F13.7°C 52.1°F11.2°C 85% 8.5 mph WNW13.7 kmh WNW 14.0 mph22.5 kmh 29.72 in1006.4 mb 0.00 in0.0 mm 0.00 in0.0 mm 0.00 in0.0 mm
07:05 AM 56.7°F13.7°C 52.2°F11.2°C 85% 10.5 mph WNW16.9 kmh WNW 15.0 mph24.1 kmh 29.72 in1006.4 mb 0.00 in0.0 mm 0.00 in0.0 mm 0.00 in0.0 mm
07:06 AM 56.7°F13.7°C 52.2°F11.2°C 85% 12.1 mph WNW19.5 kmh WNW 15.0 mph24.1 kmh 29.72 in1006.4 mb 0.00 in0.0 mm 0.00 in0.0 mm 0.00 in0.0 mm
07:07 AM 56.6°F13.7°C 51.8°F11.0°C 84% 10.8 mph W17.4 kmh W 14.0 mph22.5 kmh 29.73 in1006.8 mb 0.00 in0.0 mm 0.00 in0.0 mm 0.00 in0.0 mm
07:08 AM 56.5°F13.6°C 51.7°F10.9°C 84% 9.4 mph W15.1 kmh W 12.0 mph19.3 kmh 29.73 in1006.8 mb 0.00 in0.0 mm 0.00 in0.0 mm 0.00 in0.0 mm
07:09 AM 56.5°F13.6°C 51.7°F10.9°C 84% 8.9 mph W14.3 kmh W 11.0 mph17.7 kmh 29.73 in1006.8 mb 0.00 in0.0 mm 0.00 in0.0 mm 0.00 in0.0 mm
07:10 AM 56.4°F13.6°C 51.6°F10.9°C 84% 9.4 mph W15.1 kmh W 12.0 mph19.3 kmh 29.73 in1006.8 mb 0.00 in0.0 mm 0.00 in0.0 mm 0.00 in0.0 mm
07:11 AM 56.4°F13.6°C 51.6°F10.9°C 84% 8.1 mph W13.0 kmh W 12.0 mph19.3 kmh 29.73 in1006.8 mb 0.00 in0.0 mm 0.00 in0.0 mm 0.00 in0.0 mm
07:12 AM 56.6°F13.7°C 52.1°F11.2°C 85% 9.0 mph W14.5 kmh W 11.0 mph17.7 kmh 29.72 in1006.4 mb 0.00 in0.0 mm 0.00 in0.0 mm 0.00 in0.0 mm
07:13 AM 56.5°F13.6°C 52.4°F11.3°C 86% 11.2 mph WNW18.0 kmh WNW 14.0 mph22.5 kmh 29.73 in1006.8 mb 0.00 in0.0 mm 0.00 in0.0 mm 0.00 in0.0 mm
07:14 AM 56.5°F13.6°C 51.7°F10.9°C 84% 12.7 mph WNW20.4 kmh WNW 15.0 mph24.1 kmh 29.73 in1006.8 mb 0.00 in0.0 mm 0.00 in0.0 mm 0.00 in0.0 mm
07:15 AM 56.5°F13.6°C 51.7°F10.9°C 84% 11.3 mph WNW18.2 kmh WNW 15.0 mph24.1 kmh 29.72 in1006.4 mb 0.00 in0.0 mm 0.00 in0.0 mm 0.00 in0.0 mm
07:16 AM 56.5°F13.6°C 51.7°F10.9°C 84% 12.1 mph WNW19.5 kmh WNW 16.0 mph25.7 kmh 29.73 in1006.8 mb 0.00 in0.0 mm 0.00 in0.0 mm 0.00 in0.0 mm
07:17 AM 56.5°F13.6°C 52.0°F11.1°C 85% 12.8 mph NW20.6 kmh NW 16.0 mph25.7 kmh 29.72 in1006.4 mb 0.00 in0.0 mm 0.00 in0.0 mm 0.00 in0.0 mm
07:18 AM 56.4°F13.6°C 51.6°F10.9°C 84% 10.9 mph WNW17.5 kmh WNW 15.0 mph24.1 kmh 29.73 in1006.8 mb 0.00 in0.0 mm 0.00 in0.0 mm 0.00 in0.0 mm
07:19 AM 56.5°F13.6°C 52.0°F11.1°C 85% 9.2 mph WNW14.8 kmh WNW 13.0 mph20.9 kmh 29.73 in1006.8 mb 0.00 in0.0 mm 0.00 in0.0 mm 0.00 in0.0 mm
07:20 AM 56.6°F13.7°C 52.1°F11.2°C 85% 8.8 mph W14.2 kmh W 11.0 mph17.7 kmh 29.73 in1006.8 mb 0.00 in0.0 mm 0.00 in0.0 mm 0.00 in0.0 mm
07:21 AM 56.6°F13.7°C 52.1°F11.2°C 85% 9.1 mph W14.6 kmh W 11.0 mph17.7 kmh 29.73 in1006.8 mb 0.00 in0.0 mm 0.00 in0.0 mm 0.00 in0.0 mm
07:22 AM 56.7°F13.7°C 52.2°F11.2°C 85% 9.4 mph WNW15.1 kmh WNW 11.0 mph17.7 kmh 29.73 in1006.8 mb 0.00 in0.0 mm 0.00 in0.0 mm 0.00 in0.0 mm
07:23 AM 56.8°F13.8°C 52.3°F11.3°C 85% 9.7 mph WNW15.6 kmh WNW 12.0 mph19.3 kmh 29.73 in1006.8 mb 0.00 in0.0 mm 0.00 in0.0 mm 0.00 in0.0 mm
07:24 AM 56.9°F13.8°C 52.4°F11.3°C 85% 9.6 mph WNW15.4 kmh WNW 12.0 mph19.3 kmh 29.73 in1006.8 mb 0.00 in0.0 mm 0.00 in0.0 mm 0.00 in0.0 mm
07:25 AM 56.9°F13.8°C 52.4°F11.3°C 85% 10.3 mph NW16.6 kmh NW 12.0 mph19.3 kmh 29.73 in1006.8 mb 0.00 in0.0 mm 0.00 in0.0 mm 0.00 in0.0 mm
07:26 AM 57.0°F13.9°C 52.5°F11.4°C 85% 10.0 mph WNW16.1 kmh WNW 13.0 mph20.9 kmh 29.73 in1006.8 mb 0.00 in0.0 mm 0.00 in0.0 mm 0.00 in0.0 mm
07:27 AM 57.0°F13.9°C 52.5°F11.4°C 85% 10.7 mph NW17.2 kmh NW 13.0 mph20.9 kmh 29.73 in1006.8 mb 0.00 in0.0 mm 0.00 in0.0 mm 0.00 in0.0 mm
07:28 AM 57.0°F13.9°C 52.5°F11.4°C 85% 10.4 mph WNW16.7 kmh WNW 12.0 mph19.3 kmh 29.73 in1006.8 mb 0.00 in0.0 mm 0.00 in0.0 mm 0.00 in0.0 mm
07:29 AM 56.9°F13.8°C 52.1°F11.2°C 84% 9.3 mph WNW15.0 kmh WNW 12.0 mph19.3 kmh 29.72 in1006.4 mb 0.00 in0.0 mm 0.00 in0.0 mm 0.00 in0.0 mm
07:30 AM 56.9°F13.8°C 52.1°F11.2°C 84% 8.9 mph W14.3 kmh W 12.0 mph19.3 kmh 29.73 in1006.8 mb 0.00 in0.0 mm 0.00 in0.0 mm 0.00 in0.0 mm
07:31 AM 56.9°F13.8°C 52.1°F11.2°C 84% 8.6 mph W13.8 kmh W 11.0 mph17.7 kmh 29.73 in1006.8 mb 0.00 in0.0 mm 0.00 in0.0 mm 0.00 in0.0 mm
07:32 AM 56.9°F13.8°C 52.1°F11.2°C 84% 8.9 mph W14.3 kmh W 11.0 mph17.7 kmh 29.73 in1006.8 mb 0.00 in0.0 mm 0.00 in0.0 mm 0.00 in0.0 mm
07:33 AM 56.9°F13.8°C 52.1°F11.2°C 84% 8.4 mph W13.5 kmh W 11.0 mph17.7 kmh 29.73 in1006.8 mb 0.00 in0.0 mm 0.00 in0.0 mm 0.00 in0.0 mm
07:34 AM 56.9°F13.8°C 52.1°F11.2°C 84% 9.8 mph W15.8 kmh W 11.0 mph17.7 kmh 29.73 in1006.8 mb 0.00 in0.0 mm 0.00 in0.0 mm 0.00 in0.0 mm
07:35 AM 57.0°F13.9°C 52.2°F11.2°C 84% 8.5 mph WNW13.7 kmh WNW 11.0 mph17.7 kmh 29.73 in1006.8 mb 0.00 in0.0 mm 0.00 in0.0 mm 0.00 in0.0 mm
07:36 AM 57.1°F13.9°C 52.6°F11.4°C 85% 7.5 mph WNW12.1 kmh WNW 11.0 mph17.7 kmh 29.72 in1006.4 mb 0.00 in0.0 mm 0.00 in0.0 mm 0.00 in0.0 mm
07:37 AM 57.2°F14.0°C 52.4°F11.3°C 84% 8.7 mph WNW14.0 kmh WNW 11.0 mph17.7 kmh 29.73 in1006.8 mb 0.00 in0.0 mm 0.00 in0.0 mm 0.00 in0.0 mm
07:38 AM 57.1°F13.9°C 52.3°F11.3°C 84% 8.1 mph WNW13.0 kmh WNW 10.0 mph16.1 kmh 29.73 in1006.8 mb 0.00 in0.0 mm 0.00 in0.0 mm 0.00 in0.0 mm
07:39 AM 57.3°F14.1°C 52.5°F11.4°C 84% 7.3 mph W11.7 kmh W 10.0 mph16.1 kmh 29.73 in1006.8 mb 0.00 in0.0 mm 0.00 in0.0 mm 0.00 in0.0 mm
07:40 AM 57.3°F14.1°C 52.5°F11.4°C 84% 7.4 mph WNW11.9 kmh WNW 10.0 mph16.1 kmh 29.72 in1006.4 mb 0.00 in0.0 mm 0.00 in0.0 mm 0.00 in0.0 mm
07:41 AM 57.4°F14.1°C 52.6°F11.4°C 84% 8.5 mph WNW13.7 kmh WNW 10.0 mph16.1 kmh 29.72 in1006.4 mb 0.00 in0.0 mm 0.00 in0.0 mm 0.00 in0.0 mm
07:42 AM 57.5°F14.2°C 53.0°F11.7°C 85% 7.6 mph WNW12.2 kmh WNW 10.0 mph16.1 kmh 29.72 in1006.4 mb 0.00 in0.0 mm 0.00 in0.0 mm 0.00 in0.0 mm
07:43 AM 57.5°F14.2°C 52.7°F11.5°C 84% 7.7 mph WNW12.4 kmh WNW 10.0 mph16.1 kmh 29.72 in1006.4 mb 0.00 in0.0 mm 0.00 in0.0 mm 0.00 in0.0 mm
07:44 AM 57.5°F14.2°C 52.7°F11.5°C 84% 7.1 mph WNW11.4 kmh WNW 10.0 mph16.1 kmh 29.72 in1006.4 mb 0.00 in0.0 mm 0.00 in0.0 mm 0.00 in0.0 mm
07:45 AM 57.5°F14.2°C 52.7°F11.5°C 84% 5.9 mph W9.5 kmh W 10.0 mph16.1 kmh 29.72 in1006.4 mb 0.00 in0.0 mm 0.00 in0.0 mm 0.00 in0.0 mm
07:46 AM 57.6°F14.2°C 52.8°F11.6°C 84% 8.4 mph WNW13.5 kmh WNW 10.0 mph16.1 kmh 29.72 in1006.4 mb 0.00 in0.0 mm 0.00 in0.0 mm 0.00 in0.0 mm
07:47 AM 57.5°F14.2°C 52.7°F11.5°C 84% 8.6 mph WNW13.8 kmh WNW 10.0 mph16.1 kmh 29.72 in1006.4 mb 0.00 in0.0 mm 0.00 in0.0 mm 0.00 in0.0 mm
07:48 AM 57.5°F14.2°C 52.7°F11.5°C 84% 7.1 mph W11.4 kmh W 10.0 mph16.1 kmh 29.73 in1006.8 mb 0.00 in0.0 mm 0.00 in0.0 mm 0.00 in0.0 mm
07:49 AM 57.5°F14.2°C 52.7°F11.5°C 84% 9.5 mph WSW15.3 kmh WSW 11.0 mph17.7 kmh 29.73 in1006.8 mb 0.00 in0.0 mm 0.00 in0.0 mm 0.00 in0.0 mm
07:50 AM 57.5°F14.2°C 52.4°F11.3°C 83% 9.3 mph WSW15.0 kmh WSW 11.0 mph17.7 kmh 29.72 in1006.4 mb 0.00 in0.0 mm 0.00 in0.0 mm 0.00 in0.0 mm
07:51 AM 57.4°F14.1°C 52.3°F11.3°C 83% 8.2 mph WSW13.2 kmh WSW 11.0 mph17.7 kmh 29.73 in1006.8 mb 0.00 in0.0 mm 0.00 in0.0 mm 0.00 in0.0 mm
07:52 AM 57.4°F14.1°C 52.3°F11.3°C 83% 9.4 mph W15.1 kmh W 11.0 mph17.7 kmh 29.72 in1006.4 mb 0.00 in0.0 mm 0.00 in0.0 mm 0.00 in0.0 mm
07:53 AM 57.4°F14.1°C 52.3°F11.3°C 83% 5.9 mph W9.5 kmh W 11.0 mph17.7 kmh 29.73 in1006.8 mb 0.00 in0.0 mm 0.00 in0.0 mm 0.00 in0.0 mm
07:54 AM 57.5°F14.2°C 52.7°F11.5°C 84% 6.7 mph WSW10.8 kmh WSW 8.0 mph12.9 kmh 29.73 in1006.8 mb 0.00 in0.0 mm 0.00 in0.0 mm 0.00 in0.0 mm
07:55 AM 57.5°F14.2°C 52.7°F11.5°C 84% 7.4 mph WSW11.9 kmh WSW 11.0 mph17.7 kmh 29.73 in1006.8 mb 0.00 in0.0 mm 0.00 in0.0 mm 0.00 in0.0 mm
07:56 AM 57.5°F14.2°C 52.7°F11.5°C 84% 8.3 mph WSW13.4 kmh WSW 11.0 mph17.7 kmh 29.73 in1006.8 mb 0.00 in0.0 mm 0.00 in0.0 mm 0.00 in0.0 mm
07:57 AM 57.6°F14.2°C 52.8°F11.6°C 84% 8.1 mph WSW13.0 kmh WSW 11.0 mph17.7 kmh 29.73 in1006.8 mb 0.00 in0.0 mm 0.00 in0.0 mm 0.00 in0.0 mm
07:58 AM 57.6°F14.2°C 52.8°F11.6°C 84% 7.8 mph WSW12.6 kmh WSW 10.0 mph16.1 kmh 29.73 in1006.8 mb 0.00 in0.0 mm 0.00 in0.0 mm 0.00 in0.0 mm
07:59 AM 57.6°F14.2°C 52.5°F11.4°C 83% 8.2 mph WSW13.2 kmh WSW 10.0 mph16.1 kmh 29.73 in1006.8 mb 0.00 in0.0 mm 0.00 in0.0 mm 0.00 in0.0 mm
08:00 AM 57.6°F14.2°C 52.8°F11.6°C 84% 9.5 mph WSW15.3 kmh WSW 11.0 mph17.7 kmh 29.73 in1006.8 mb 0.00 in0.0 mm 0.00 in0.0 mm 0.00 in0.0 mm
08:01 AM 57.7°F14.3°C 52.9°F11.6°C 84% 8.3 mph WSW13.4 kmh WSW 11.0 mph17.7 kmh 29.73 in1006.8 mb 0.00 in0.0 mm 0.00 in0.0 mm 0.00 in0.0 mm
08:02 AM 57.7°F14.3°C 52.9°F11.6°C 84% 9.0 mph WSW14.5 kmh WSW 11.0 mph17.7 kmh 29.73 in1006.8 mb 0.00 in0.0 mm 0.00 in0.0 mm 0.00 in0.0 mm
08:03 AM 57.6°F14.2°C 52.5°F11.4°C 83% 7.8 mph WSW12.6 kmh WSW 11.0 mph17.7 kmh 29.73 in1006.8 mb 0.00 in0.0 mm 0.00 in0.0 mm 0.00 in0.0 mm
08:04 AM 57.6°F14.2°C 52.5°F11.4°C 83% 7.6 mph WSW12.2 kmh WSW 10.0 mph16.1 kmh 29.73 in1006.8 mb 0.00 in0.0 mm 0.00 in0.0 mm 0.00 in0.0 mm
08:05 AM 57.6°F14.2°C 52.5°F11.4°C 83% 6.5 mph WSW10.5 kmh WSW 10.0 mph16.1 kmh 29.73 in1006.8 mb 0.00 in0.0 mm 0.00 in0.0 mm 0.00 in0.0 mm
08:06 AM 57.6°F14.2°C 52.5°F11.4°C 83% 5.3 mph WSW8.5 kmh WSW 8.0 mph12.9 kmh 29.73 in1006.8 mb 0.00 in0.0 mm 0.00 in0.0 mm 0.00 in0.0 mm
08:07 AM 57.6°F14.2°C 52.5°F11.4°C 83% 5.9 mph WSW9.5 kmh WSW 8.0 mph12.9 kmh 29.73 in1006.8 mb 0.00 in0.0 mm 0.00 in0.0 mm 0.00 in0.0 mm
08:08 AM 57.7°F14.3°C 52.6°F11.4°C 83% 6.2 mph WSW10.0 kmh WSW 8.0 mph12.9 kmh 29.73 in1006.8 mb 0.00 in0.0 mm 0.00 in0.0 mm 0.00 in0.0 mm
08:09 AM 57.7°F14.3°C 52.6°F11.4°C 83% 6.0 mph WSW9.7 kmh WSW 9.0 mph14.5 kmh 29.73 in1006.8 mb 0.00 in0.0 mm 0.00 in0.0 mm 0.00 in0.0 mm
08:10 AM 57.9°F14.4°C 53.1°F11.7°C 84% 8.5 mph W13.7 kmh W 10.0 mph16.1 kmh 29.73 in1006.8 mb 0.00 in0.0 mm 0.00 in0.0 mm 0.00 in0.0 mm
08:11 AM 57.9°F14.4°C 53.1°F11.7°C 84% 7.8 mph W12.6 kmh W 10.0 mph16.1 kmh 29.73 in1006.8 mb 0.00 in0.0 mm 0.00 in0.0 mm 0.00 in0.0 mm
08:12 AM 57.8°F14.3°C 52.7°F11.5°C 83% 8.4 mph W13.5 kmh W 10.0 mph16.1 kmh 29.73 in1006.8 mb 0.00 in0.0 mm 0.00 in0.0 mm 0.00 in0.0 mm
08:13 AM 57.8°F14.3°C 52.7°F11.5°C 83% 8.3 mph WSW13.4 kmh WSW 10.0 mph16.1 kmh 29.73 in1006.8 mb 0.00 in0.0 mm 0.00 in0.0 mm 0.00 in0.0 mm
08:14 AM 57.9°F14.4°C 52.8°F11.6°C 83% 9.0 mph WSW14.5 kmh WSW 11.0 mph17.7 kmh 29.73 in1006.8 mb 0.00 in0.0 mm 0.00 in0.0 mm 0.00 in0.0 mm
08:15 AM 58.0°F14.4°C 52.9°F11.6°C 83% 8.3 mph WSW13.4 kmh WSW 11.0 mph17.7 kmh 29.73 in1006.8 mb 0.00 in0.0 mm 0.00 in0.0 mm 0.00 in0.0 mm
08:16 AM 57.9°F14.4°C 52.8°F11.6°C 83% 8.0 mph WSW12.9 kmh WSW 11.0 mph17.7 kmh 29.73 in1006.8 mb 0.00 in0.0 mm 0.00 in0.0 mm 0.00 in0.0 mm
08:17 AM 58.0°F14.4°C 52.9°F11.6°C 83% 9.5 mph WSW15.3 kmh WSW 11.0 mph17.7 kmh 29.73 in1006.8 mb 0.00 in0.0 mm 0.00 in0.0 mm 0.00 in0.0 mm
08:18 AM 58.0°F14.4°C 52.9°F11.6°C 83% 8.5 mph WSW13.7 kmh WSW 11.0 mph17.7 kmh 29.73 in1006.8 mb 0.00 in0.0 mm 0.00 in0.0 mm 0.00 in0.0 mm
08:19 AM 58.0°F14.4°C 52.9°F11.6°C 83% 9.1 mph WSW14.6 kmh WSW 12.0 mph19.3 kmh 29.73 in1006.8 mb 0.00 in0.0 mm 0.00 in0.0 mm 0.00 in0.0 mm
08:20 AM 58.1°F14.5°C 53.0°F11.7°C 83% 10.0 mph WSW16.1 kmh WSW 12.0 mph19.3 kmh 29.73 in1006.8 mb 0.00 in0.0 mm 0.00 in0.0 mm 0.00 in0.0 mm
08:21 AM 58.2°F14.6°C 53.1°F11.7°C 83% 10.6 mph WSW17.1 kmh WSW 12.0 mph19.3 kmh 29.73 in1006.8 mb 0.00 in0.0 mm 0.00 in0.0 mm 0.00 in0.0 mm
08:22 AM 58.2°F14.6°C 53.1°F11.7°C 83% 12.2 mph WSW19.6 kmh WSW 13.0 mph20.9 kmh 29.73 in1006.8 mb 0.00 in0.0 mm 0.00 in0.0 mm 0.00 in0.0 mm
08:23 AM 58.3°F14.6°C 53.2°F11.8°C 83% 10.5 mph WSW16.9 kmh WSW 13.0 mph20.9 kmh 29.73 in1006.8 mb 0.00 in0.0 mm 0.00 in0.0 mm 0.00 in0.0 mm
08:24 AM 58.3°F14.6°C 53.2°F11.8°C 83% 9.5 mph WSW15.3 kmh WSW 12.0 mph19.3 kmh 29.73 in1006.8 mb 0.00 in0.0 mm 0.00 in0.0 mm 0.00 in0.0 mm
08:25 AM 58.2°F14.6°C 52.7°F11.5°C 82% 8.1 mph WSW13.0 kmh WSW 11.0 mph17.7 kmh 29.73 in1006.8 mb 0.00 in0.0 mm 0.00 in0.0 mm 0.00 in0.0 mm
08:26 AM 58.3°F14.6°C 52.8°F11.6°C 82% 8.2 mph WSW13.2 kmh WSW 11.0 mph17.7 kmh 29.73 in1006.8 mb 0.00 in0.0 mm 0.00 in0.0 mm 0.00 in0.0 mm
08:27 AM 58.3°F14.6°C 53.2°F11.8°C 83% 9.5 mph WSW15.3 kmh WSW 11.0 mph17.7 kmh 29.73 in1006.8 mb 0.00 in0.0 mm 0.00 in0.0 mm 0.00 in0.0 mm
08:28 AM 58.3°F14.6°C 52.8°F11.6°C 82% 7.4 mph WSW11.9 kmh WSW 11.0 mph17.7 kmh 29.73 in1006.8 mb 0.00 in0.0 mm 0.00 in0.0 mm 0.00 in0.0 mm
08:29 AM 58.3°F14.6°C 52.8°F11.6°C 82% 8.1 mph WSW13.0 kmh WSW 9.0 mph14.5 kmh 29.73 in1006.8 mb 0.00 in0.0 mm 0.00 in0.0 mm 0.00 in0.0 mm
08:30 AM 58.3°F14.6°C 52.8°F11.6°C 82% 6.1 mph WSW9.8 kmh WSW 9.0 mph14.5 kmh 29.73 in1006.8 mb 0.00 in0.0 mm 0.00 in0.0 mm 0.00 in0.0 mm
08:31 AM 58.4°F14.7°C 52.9°F11.6°C 82% 7.8 mph W12.6 kmh W 10.0 mph16.1 kmh 29.73 in1006.8 mb 0.00 in0.0 mm 0.00 in0.0 mm 0.00 in0.0 mm
08:32 AM 58.5°F14.7°C 53.0°F11.7°C 82% 8.9 mph WSW14.3 kmh WSW 11.0 mph17.7 kmh 29.73 in1006.8 mb 0.00 in0.0 mm 0.00 in0.0 mm 0.00 in0.0 mm
08:33 AM 58.5°F14.7°C 53.0°F11.7°C 82% 7.8 mph WSW12.6 kmh WSW 11.0 mph17.7 kmh 29.73 in1006.8 mb 0.00 in0.0 mm 0.00 in0.0 mm 0.00 in0.0 mm
08:34 AM 58.6°F14.8°C 53.1°F11.7°C 82% 7.6 mph WSW12.2 kmh WSW 9.0 mph14.5 kmh 29.73 in1006.8 mb 0.00 in0.0 mm 0.00 in0.0 mm 0.00 in0.0 mm
08:35 AM 58.6°F14.8°C 53.1°F11.7°C 82% 6.9 mph WSW11.1 kmh WSW 9.0 mph14.5 kmh 29.73 in1006.8 mb 0.00 in0.0 mm 0.00 in0.0 mm 0.00 in0.0 mm
08:36 AM 58.6°F14.8°C 53.1°F11.7°C 82% 7.1 mph WSW11.4 kmh WSW 8.0 mph12.9 kmh 29.73 in1006.8 mb 0.00 in0.0 mm 0.00 in0.0 mm 0.00 in0.0 mm
08:37 AM 58.6°F14.8°C 52.8°F11.6°C 81% 7.0 mph WSW11.3 kmh WSW 9.0 mph14.5 kmh 29.73 in1006.8 mb 0.00 in0.0 mm 0.00 in0.0 mm 0.00 in0.0 mm
08:38 AM 58.7°F14.8°C 52.9°F11.6°C 81% 7.5 mph WSW12.1 kmh WSW 9.0 mph14.5 kmh 29.73 in1006.8 mb 0.00 in0.0 mm 0.00 in0.0 mm 0.00 in0.0 mm
08:39 AM 58.7°F14.8°C 52.9°F11.6°C 81% 5.5 mph WSW8.9 kmh WSW 9.0 mph14.5 kmh 29.73 in1006.8 mb 0.00 in0.0 mm 0.00 in0.0 mm 0.00 in0.0 mm
08:40 AM 58.7°F14.8°C 52.9°F11.6°C 81% 4.8 mph WSW7.7 kmh WSW 7.0 mph11.3 kmh 29.73 in1006.8 mb 0.00 in0.0 mm 0.00 in0.0 mm 0.00 in0.0 mm
08:41 AM 58.9°F14.9°C 53.1°F11.7°C 81% 7.2 mph WSW11.6 kmh WSW 11.0 mph17.7 kmh 29.73 in1006.8 mb 0.00 in0.0 mm 0.00 in0.0 mm 0.00 in0.0 mm
08:42 AM 58.9°F14.9°C 53.1°F11.7°C 81% 8.7 mph WSW14.0 kmh WSW 11.0 mph17.7 kmh 29.73 in1006.8 mb 0.00 in0.0 mm 0.00 in0.0 mm 0.00 in0.0 mm
08:43 AM 59.0°F15.0°C 53.5°F11.9°C 82% 7.5 mph WSW12.1 kmh WSW 11.0 mph17.7 kmh 29.73 in1006.8 mb 0.00 in0.0 mm 0.00 in0.0 mm 0.00 in0.0 mm
08:44 AM 59.1°F15.1°C 53.3°F11.8°C 81% 7.7 mph WSW12.4 kmh WSW 9.0 mph14.5 kmh 29.73 in1006.8 mb 0.00 in0.0 mm 0.00 in0.0 mm 0.00 in0.0 mm
08:45 AM 59.1°F15.1°C 53.6°F12.0°C 82% 7.9 mph WSW12.7 kmh WSW 9.0 mph14.5 kmh 29.73 in1006.8 mb 0.00 in0.0 mm 0.00 in0.0 mm 0.00 in0.0 mm
08:46 AM 59.1°F15.1°C 53.3°F11.8°C 81% 5.5 mph WSW8.9 kmh WSW 9.0 mph14.5 kmh 29.73 in1006.8 mb 0.00 in0.0 mm 0.00 in0.0 mm 0.00 in0.0 mm
08:47 AM 59.2°F15.1°C 53.4°F11.9°C 81% 8.4 mph WSW13.5 kmh WSW 10.0 mph16.1 kmh 29.73 in1006.8 mb 0.00 in0.0 mm 0.00 in0.0 mm 0.00 in0.0 mm
08:48 AM 59.2°F15.1°C 53.4°F11.9°C 81% 8.8 mph WSW14.2 kmh WSW 10.0 mph16.1 kmh 29.73 in1006.8 mb 0.00 in0.0 mm 0.00 in0.0 mm 0.00 in0.0 mm
08:49 AM 59.1°F15.1°C 52.9°F11.6°C 80% 7.4 mph WSW11.9 kmh WSW 10.0 mph16.1 kmh 29.73 in1006.8 mb 0.00 in0.0 mm 0.00 in0.0 mm 0.00 in0.0 mm
08:50 AM 59.1°F15.1°C 52.9°F11.6°C 80% 5.3 mph WSW8.5 kmh WSW 10.0 mph16.1 kmh 29.73 in1006.8 mb 0.00 in0.0 mm 0.00 in0.0 mm 0.00 in0.0 mm
08:51 AM 59.1°F15.1°C 52.9°F11.6°C 80% 7.5 mph WSW12.1 kmh WSW 9.0 mph14.5 kmh 29.73 in1006.8 mb 0.00 in0.0 mm 0.00 in0.0 mm 0.00 in0.0 mm
08:52 AM 59.0°F15.0°C 53.2°F11.8°C 81% 7.1 mph WSW11.4 kmh WSW 9.0 mph14.5 kmh 29.73 in1006.8 mb 0.00 in0.0 mm 0.00 in0.0 mm 0.00 in0.0 mm
08:53 AM 59.2°F15.1°C 53.0°F11.7°C 80% 6.8 mph WSW10.9 kmh WSW 9.0 mph14.5 kmh 29.73 in1006.8 mb 0.00 in0.0 mm 0.00 in0.0 mm 0.00 in0.0 mm
08:54 AM 59.2°F15.1°C 53.4°F11.9°C 81% 5.2 mph WSW8.4 kmh WSW 9.0 mph14.5 kmh 29.73 in1006.8 mb 0.00 in0.0 mm 0.00 in0.0 mm 0.00 in0.0 mm
08:55 AM 59.1°F15.1°C 53.3°F11.8°C 81% 6.5 mph WSW10.5 kmh WSW 8.0 mph12.9 kmh 29.73 in1006.8 mb 0.00 in0.0 mm 0.00 in0.0 mm 0.00 in0.0 mm
08:56 AM 59.1°F15.1°C 53.3°F11.8°C 81% 6.0 mph WSW9.7 kmh WSW 8.0 mph12.9 kmh 29.73 in1006.8 mb 0.00 in0.0 mm 0.00 in0.0 mm 0.00 in0.0 mm
08:57 AM 59.3°F15.2°C 53.5°F11.9°C 81% 6.5 mph W10.5 kmh W 8.0 mph12.9 kmh 29.73 in1006.8 mb 0.00 in0.0 mm 0.00 in0.0 mm 0.00 in0.0 mm
08:58 AM 59.3°F15.2°C 53.5°F11.9°C 81% 6.5 mph W10.5 kmh W 8.0 mph12.9 kmh 29.73 in1006.8 mb 0.00 in0.0 mm 0.00 in0.0 mm 0.00 in0.0 mm
08:59 AM 59.3°F15.2°C 53.5°F11.9°C 81% 5.5 mph W8.9 kmh W 7.0 mph11.3 kmh 29.73 in1006.8 mb 0.00 in0.0 mm 0.00 in0.0 mm 0.00 in0.0 mm
09:00 AM 59.4°F15.2°C 53.6°F12.0°C 81% 5.9 mph W9.5 kmh W 8.0 mph12.9 kmh 29.73 in1006.8 mb 0.00 in0.0 mm 0.00 in0.0 mm 0.00 in0.0 mm
09:01 AM 59.3°F15.2°C 53.1°F11.7°C 80% 6.7 mph W10.8 kmh W 8.0 mph12.9 kmh 29.73 in1006.8 mb 0.00 in0.0 mm 0.00 in0.0 mm 0.00 in0.0 mm
09:02 AM 59.3°F15.2°C 53.5°F11.9°C 81% 5.2 mph W8.4 kmh W 7.0 mph11.3 kmh 29.73 in1006.8 mb 0.00 in0.0 mm 0.00 in0.0 mm 0.00 in0.0 mm
09:03 AM 59.4°F15.2°C 53.2°F11.8°C 80% 4.4 mph W7.1 kmh W 7.0 mph11.3 kmh 29.73 in1006.8 mb 0.00 in0.0 mm 0.00 in0.0 mm 0.00 in0.0 mm
09:04 AM 59.4°F15.2°C 53.6°F12.0°C 81% 5.4 mph W8.7 kmh W 7.0 mph11.3 kmh 29.73 in1006.8 mb 0.00 in0.0 mm 0.00 in0.0 mm 0.00 in0.0 mm
09:05 AM 59.4°F15.2°C 53.6°F12.0°C 81% 6.1 mph W9.8 kmh W 9.0 mph14.5 kmh 29.73 in1006.8 mb 0.00 in0.0 mm 0.00 in0.0 mm 0.00 in0.0 mm
09:06 AM 59.5°F15.3°C 53.3°F11.8°C 80% 7.1 mph W11.4 kmh W 9.0 mph14.5 kmh 29.73 in1006.8 mb 0.00 in0.0 mm 0.00 in0.0 mm 0.00 in0.0 mm
09:07 AM 59.5°F15.3°C 53.3°F11.8°C 80% 6.7 mph W10.8 kmh W 9.0 mph14.5 kmh 29.73 in1006.8 mb 0.00 in0.0 mm 0.00 in0.0 mm 0.00 in0.0 mm
09:08 AM 59.6°F15.3°C 53.4°F11.9°C 80% 6.6 mph W10.6 kmh W 9.0 mph14.5 kmh 29.73 in1006.8 mb 0.00 in0.0 mm 0.00 in0.0 mm 0.00 in0.0 mm
09:09 AM 59.7°F15.4°C 53.5°F11.9°C 80% 6.3 mph W10.1 kmh W 8.0 mph12.9 kmh 29.73 in1006.8 mb 0.00 in0.0 mm 0.00 in0.0 mm 0.00 in0.0 mm
09:10 AM 59.8°F15.4°C 53.6°F12.0°C 80% 6.9 mph WSW11.1 kmh WSW 10.0 mph16.1 kmh 29.73 in1006.8 mb 0.00 in0.0 mm 0.00 in0.0 mm 0.00 in0.0 mm
09:11 AM 59.9°F15.5°C 54.1°F12.3°C 81% 8.4 mph WSW13.5 kmh WSW 10.0 mph16.1 kmh 29.73 in1006.8 mb 0.00 in0.0 mm 0.00 in0.0 mm 0.00 in0.0 mm
09:12 AM 60.0°F15.6°C 54.1°F12.3°C 81% 9.2 mph WSW14.8 kmh WSW 11.0 mph17.7 kmh 29.73 in1006.8 mb 0.00 in0.0 mm 0.00 in0.0 mm 0.00 in0.0 mm
09:13 AM 59.9°F15.5°C 53.7°F12.1°C 80% 8.0 mph WSW12.9 kmh WSW 11.0 mph17.7 kmh 29.73 in1006.8 mb 0.00 in0.0 mm 0.00 in0.0 mm 0.00 in0.0 mm
09:14 AM 60.0°F15.6°C 53.8°F12.1°C 80% 8.8 mph WSW14.2 kmh WSW 11.0 mph17.7 kmh 29.73 in1006.8 mb 0.00 in0.0 mm 0.00 in0.0 mm 0.00 in0.0 mm
09:15 AM 60.0°F15.6°C 53.8°F12.1°C 80% 8.8 mph WSW14.2 kmh WSW 11.0 mph17.7 kmh 29.73 in1006.8 mb 0.00 in0.0 mm 0.00 in0.0 mm 0.00 in0.0 mm
09:16 AM 60.1°F15.6°C 53.9°F12.2°C 80% 9.0 mph WSW14.5 kmh WSW 12.0 mph19.3 kmh 29.73 in1006.8 mb 0.00 in0.0 mm 0.00 in0.0 mm 0.00 in0.0 mm
09:17 AM 60.0°F15.6°C 53.8°F12.1°C 80% 9.5 mph WSW15.3 kmh WSW 12.0 mph19.3 kmh 29.73 in1006.8 mb 0.00 in0.0 mm 0.00 in0.0 mm 0.00 in0.0 mm
09:18 AM 60.0°F15.6°C 53.8°F12.1°C 80% 6.5 mph WSW10.5 kmh WSW 12.0 mph19.3 kmh 29.73 in1006.8 mb 0.00 in0.0 mm 0.00 in0.0 mm 0.00 in0.0 mm
09:19 AM 60.0°F15.6°C 53.8°F12.1°C 80% 7.6 mph WSW12.2 kmh WSW 11.0 mph17.7 kmh 29.73 in1006.8 mb 0.00 in0.0 mm 0.00 in0.0 mm 0.00 in0.0 mm
09:20 AM 59.9°F15.5°C 53.4°F11.9°C 79% 7.0 mph WSW11.3 kmh WSW 11.0 mph17.7 kmh 29.73 in1006.8 mb 0.00 in0.0 mm 0.00 in0.0 mm 0.00 in0.0 mm
09:21 AM 60.0°F15.6°C 53.8°F12.1°C 80% 6.8 mph WSW10.9 kmh WSW 9.0 mph14.5 kmh 29.73 in1006.8 mb 0.00 in0.0 mm 0.00 in0.0 mm 0.00 in0.0 mm
09:22 AM 60.0°F15.6°C 53.8°F12.1°C 80% 6.7 mph WSW10.8 kmh WSW 9.0 mph14.5 kmh 29.73 in1006.8 mb 0.00 in0.0 mm 0.00 in0.0 mm 0.00 in0.0 mm
09:23 AM 60.1°F15.6°C 53.9°F12.2°C 80% 8.9 mph WSW14.3 kmh WSW 10.0 mph16.1 kmh 29.73 in1006.8 mb 0.00 in0.0 mm 0.00 in0.0 mm 0.00 in0.0 mm
09:24 AM 60.1°F15.6°C 53.6°F12.0°C 79% 7.9 mph WSW12.7 kmh WSW 10.0 mph16.1 kmh 29.73 in1006.8 mb 0.00 in0.0 mm 0.00 in0.0 mm 0.00 in0.0 mm
09:25 AM 60.1°F15.6°C 53.9°F12.2°C 80% 5.8 mph WSW9.3 kmh WSW 11.0 mph17.7 kmh 29.73 in1006.8 mb 0.00 in0.0 mm 0.00 in0.0 mm 0.00 in0.0 mm
09:26 AM 60.2°F15.7°C 54.0°F12.2°C 80% 6.5 mph W10.5 kmh W 11.0 mph17.7 kmh 29.73 in1006.8 mb 0.00 in0.0 mm 0.00 in0.0 mm 0.00 in0.0 mm
09:27 AM 60.3°F15.7°C 54.1°F12.3°C 80% 7.1 mph W11.4 kmh W 9.0 mph14.5 kmh 29.73 in1006.8 mb 0.00 in0.0 mm 0.00 in0.0 mm 0.00 in0.0 mm
09:28 AM 60.4°F15.8°C 54.2°F12.3°C 80% 4.7 mph W7.6 kmh W 9.0 mph14.5 kmh 29.73 in1006.8 mb 0.00 in0.0 mm 0.00 in0.0 mm 0.00 in0.0 mm
09:29 AM 60.5°F15.8°C 54.3°F12.4°C 80% 7.1 mph W11.4 kmh W 9.0 mph14.5 kmh 29.73 in1006.8 mb 0.00 in0.0 mm 0.00 in0.0 mm 0.00 in0.0 mm
09:30 AM 60.5°F15.8°C 54.0°F12.2°C 79% 6.9 mph W11.1 kmh W 10.0 mph16.1 kmh 29.73 in1006.8 mb 0.00 in0.0 mm 0.00 in0.0 mm 0.00 in0.0 mm
09:31 AM 60.4°F15.8°C 53.9°F12.2°C 79% 8.8 mph WSW14.2 kmh WSW 10.0 mph16.1 kmh 29.73 in1006.8 mb 0.00 in0.0 mm 0.00 in0.0 mm 0.00 in0.0 mm
09:32 AM 60.3°F15.7°C 53.8°F12.1°C 79% 8.2 mph WSW13.2 kmh WSW 10.0 mph16.1 kmh 29.73 in1006.8 mb 0.00 in0.0 mm 0.00 in0.0 mm 0.00 in0.0 mm
09:33 AM 60.4°F15.8°C 53.9°F12.2°C 79% 7.8 mph WSW12.6 kmh WSW 10.0 mph16.1 kmh 29.73 in1006.8 mb 0.00 in0.0 mm 0.00 in0.0 mm 0.00 in0.0 mm
09:34 AM 60.4°F15.8°C 54.2°F12.3°C 80% 7.3 mph WSW11.7 kmh WSW 10.0 mph16.1 kmh 29.73 in1006.8 mb 0.00 in0.0 mm 0.00 in0.0 mm 0.00 in0.0 mm
09:35 AM 60.5°F15.8°C 54.3°F12.4°C 80% 9.0 mph WSW14.5 kmh WSW 11.0 mph17.7 kmh 29.73 in1006.8 mb 0.00 in0.0 mm 0.00 in0.0 mm 0.00 in0.0 mm
09:36 AM 60.6°F15.9°C 54.0°F12.2°C 79% 8.9 mph WSW14.3 kmh WSW 11.0 mph17.7 kmh 29.73 in1006.8 mb 0.00 in0.0 mm 0.00 in0.0 mm 0.00 in0.0 mm
09:37 AM 60.7°F15.9°C 54.5°F12.5°C 80% 8.8 mph WSW14.2 kmh WSW 11.0 mph17.7 kmh 29.73 in1006.8 mb 0.00 in0.0 mm 0.00 in0.0 mm 0.00 in0.0 mm
09:38 AM 60.8°F16.0°C 54.6°F12.6°C 80% 7.9 mph WSW12.7 kmh WSW 10.0 mph16.1 kmh 29.73 in1006.8 mb 0.00 in0.0 mm 0.00 in0.0 mm 0.00 in0.0 mm
09:39 AM 60.8°F16.0°C 54.2°F12.3°C 79% 8.6 mph WSW13.8 kmh WSW 10.0 mph16.1 kmh 29.73 in1006.8 mb 0.00 in0.0 mm 0.00 in0.0 mm 0.00 in0.0 mm
09:40 AM 60.9°F16.1°C 54.3°F12.4°C 79% 9.3 mph WSW15.0 kmh WSW 11.0 mph17.7 kmh 29.73 in1006.8 mb 0.00 in0.0 mm 0.00 in0.0 mm 0.00 in0.0 mm
09:41 AM 61.0°F16.1°C 54.4°F12.4°C 79% 10.2 mph WSW16.4 kmh WSW 11.0 mph17.7 kmh 29.73 in1006.8 mb 0.00 in0.0 mm 0.00 in0.0 mm 0.00 in0.0 mm
09:42 AM 61.1°F16.2°C 54.5°F12.5°C 79% 6.5 mph WSW10.5 kmh WSW 11.0 mph17.7 kmh 29.73 in1006.8 mb 0.00 in0.0 mm 0.00 in0.0 mm 0.00 in0.0 mm
09:43 AM 61.2°F16.2°C 54.6°F12.6°C 79% 7.2 mph WSW11.6 kmh WSW 10.0 mph16.1 kmh 29.73 in1006.8 mb 0.00 in0.0 mm 0.00 in0.0 mm 0.00 in0.0 mm
09:44 AM 61.3°F16.3°C 54.7°F12.6°C 79% 6.8 mph WSW10.9 kmh WSW 10.0 mph16.1 kmh 29.73 in1006.8 mb 0.00 in0.0 mm 0.00 in0.0 mm 0.00 in0.0 mm
09:45 AM 61.4°F16.3°C 54.5°F12.5°C 78% 7.3 mph SW11.7 kmh SW 10.0 mph16.1 kmh 29.73 in1006.8 mb 0.00 in0.0 mm 0.00 in0.0 mm 0.00 in0.0 mm
09:46 AM 61.5°F16.4°C 54.6°F12.6°C 78% 6.8 mph WSW10.9 kmh WSW 10.0 mph16.1 kmh 29.73 in1006.8 mb 0.00 in0.0 mm 0.00 in0.0 mm 0.00 in0.0 mm
09:47 AM 61.7°F16.5°C 55.1°F12.8°C 79% 5.8 mph SW9.3 kmh SW 9.0 mph14.5 kmh 29.73 in1006.8 mb 0.00 in0.0 mm 0.00 in0.0 mm 0.00 in0.0 mm
09:48 AM 61.8°F16.6°C 54.5°F12.5°C 77% 7.2 mph SW11.6 kmh SW 9.0 mph14.5 kmh 29.73 in1006.8 mb 0.00 in0.0 mm 0.00 in0.0 mm 0.00 in0.0 mm
09:49 AM 61.8°F16.6°C 54.5°F12.5°C 77% 6.6 mph SW10.6 kmh SW 9.0 mph14.5 kmh 29.73 in1006.8 mb 0.00 in0.0 mm 0.00 in0.0 mm 0.00 in0.0 mm
09:50 AM 61.8°F16.6°C 54.2°F12.3°C 76% 6.7 mph SW10.8 kmh SW 9.0 mph14.5 kmh 29.73 in1006.8 mb 0.00 in0.0 mm 0.00 in0.0 mm 0.00 in0.0 mm
09:51 AM 61.8°F16.6°C 54.5°F12.5°C 77% 7.1 mph SW11.4 kmh SW 9.0 mph14.5 kmh 29.73 in1006.8 mb 0.00 in0.0 mm 0.00 in0.0 mm 0.00 in0.0 mm
09:52 AM 61.8°F16.6°C 54.5°F12.5°C 77% 8.6 mph WSW13.8 kmh WSW 10.0 mph16.1 kmh 29.73 in1006.8 mb 0.00 in0.0 mm 0.00 in0.0 mm 0.00 in0.0 mm
09:53 AM 61.8°F16.6°C 54.9°F12.7°C 78% 7.3 mph WSW11.7 kmh WSW 10.0 mph16.1 kmh 29.73 in1006.8 mb 0.00 in0.0 mm 0.00 in0.0 mm 0.00 in0.0 mm
09:54 AM 61.8°F16.6°C 54.9°F12.7°C 78% 7.5 mph SW12.1 kmh SW 10.0 mph16.1 kmh 29.73 in1006.8 mb 0.00 in0.0 mm 0.00 in0.0 mm 0.00 in0.0 mm
09:55 AM 61.9°F16.6°C 54.6°F12.6°C 77% 8.4 mph WSW13.5 kmh WSW 10.0 mph16.1 kmh 29.73 in1006.8 mb 0.00 in0.0 mm 0.00 in0.0 mm 0.00 in0.0 mm
09:56 AM 61.9°F16.6°C 54.6°F12.6°C 77% 6.9 mph SW11.1 kmh SW 10.0 mph16.1 kmh 29.73 in1006.8 mb 0.00 in0.0 mm 0.00 in0.0 mm 0.00 in0.0 mm
09:57 AM 62.0°F16.7°C 54.7°F12.6°C 77% 7.5 mph SW12.1 kmh SW 10.0 mph16.1 kmh 29.73 in1006.8 mb 0.00 in0.0 mm 0.00 in0.0 mm 0.00 in0.0 mm
09:58 AM 62.0°F16.7°C 54.3°F12.4°C 76% 8.2 mph SW13.2 kmh SW 10.0 mph16.1 kmh 29.73 in1006.8 mb 0.00 in0.0 mm 0.00 in0.0 mm 0.00 in0.0 mm
09:59 AM 62.0°F16.7°C 54.3°F12.4°C 76% 7.8 mph SW12.6 kmh SW 10.0 mph16.1 kmh 29.73 in1006.8 mb 0.00 in0.0 mm 0.00 in0.0 mm 0.00 in0.0 mm
10:00 AM 62.1°F16.7°C 54.8°F12.7°C 77% 7.9 mph WSW12.7 kmh WSW 10.0 mph16.1 kmh 29.73 in1006.8 mb 0.00 in0.0 mm 0.00 in0.0 mm 0.00 in0.0 mm
10:01 AM 62.0°F16.7°C 54.3°F12.4°C 76% 8.4 mph WSW13.5 kmh WSW 10.0 mph16.1 kmh 29.73 in1006.8 mb 0.00 in0.0 mm 0.00 in0.0 mm 0.00 in0.0 mm
10:02 AM 61.9°F16.6°C 54.2°F12.3°C 76% 6.6 mph WSW10.6 kmh WSW 10.0 mph16.1 kmh 29.73 in1006.8 mb 0.00 in0.0 mm 0.00 in0.0 mm 0.00 in0.0 mm
10:03 AM 61.9°F16.6°C 54.6°F12.6°C 77% 6.3 mph WSW10.1 kmh WSW 8.0 mph12.9 kmh 29.73 in1006.8 mb 0.00 in0.0 mm 0.00 in0.0 mm 0.00 in0.0 mm
10:04 AM 61.9°F16.6°C 54.6°F12.6°C 77% 5.6 mph WSW9.0 kmh WSW 8.0 mph12.9 kmh 29.73 in1006.8 mb 0.00 in0.0 mm 0.00 in0.0 mm 0.00 in0.0 mm
10:05 AM 61.9°F16.6°C 54.2°F12.3°C 76% 4.6 mph WSW7.4 kmh WSW 8.0 mph12.9 kmh 29.73 in1006.8 mb 0.00 in0.0 mm 0.00 in0.0 mm 0.00 in0.0 mm
10:06 AM 61.9°F16.6°C 54.6°F12.6°C 77% 8.2 mph WSW13.2 kmh WSW 11.0 mph17.7 kmh 29.73 in1006.8 mb 0.00 in0.0 mm 0.00 in0.0 mm 0.00 in0.0 mm
10:07 AM 61.9°F16.6°C 54.6°F12.6°C 77% 9.3 mph WSW15.0 kmh WSW 11.0 mph17.7 kmh 29.73 in1006.8 mb 0.00 in0.0 mm 0.00 in0.0 mm 0.00 in0.0 mm
10:08 AM 61.8°F16.6°C 54.2°F12.3°C 76% 7.4 mph WSW11.9 kmh WSW 11.0 mph17.7 kmh 29.73 in1006.8 mb 0.00 in0.0 mm 0.00 in0.0 mm 0.00 in0.0 mm
10:09 AM 61.8°F16.6°C 54.5°F12.5°C 77% 7.8 mph WSW12.6 kmh WSW 9.0 mph14.5 kmh 29.73 in1006.8 mb 0.00 in0.0 mm 0.00 in0.0 mm 0.00 in0.0 mm
10:10 AM 61.9°F16.6°C 55.0°F12.8°C 78% 7.8 mph WSW12.6 kmh WSW 10.0 mph16.1 kmh 29.73 in1006.8 mb 0.00 in0.0 mm 0.00 in0.0 mm 0.00 in0.0 mm
10:11 AM 62.1°F16.7°C 55.2°F12.9°C 78% 7.9 mph WSW12.7 kmh WSW 10.0 mph16.1 kmh 29.73 in1006.8 mb 0.00 in0.0 mm 0.00 in0.0 mm 0.00 in0.0 mm
10:12 AM 62.2°F16.8°C 54.9°F12.7°C 77% 7.6 mph WSW12.2 kmh WSW 10.0 mph16.1 kmh 29.73 in1006.8 mb 0.00 in0.0 mm 0.00 in0.0 mm 0.00 in0.0 mm
10:13 AM 62.3°F16.8°C 55.0°F12.8°C 77% 7.5 mph SW12.1 kmh SW 10.0 mph16.1 kmh 29.73 in1006.8 mb 0.00 in0.0 mm 0.00 in0.0 mm 0.00 in0.0 mm
10:14 AM 62.4°F16.9°C 55.4°F13.0°C 78% 8.1 mph WSW13.0 kmh WSW 10.0 mph16.1 kmh 29.73 in1006.8 mb 0.00 in0.0 mm 0.00 in0.0 mm 0.00 in0.0 mm
10:15 AM 62.5°F16.9°C 55.5°F13.1°C 78% 8.2 mph WSW13.2 kmh WSW 10.0 mph16.1 kmh 29.73 in1006.8 mb 0.00 in0.0 mm 0.00 in0.0 mm 0.00 in0.0 mm
10:16 AM 62.5°F16.9°C 54.8°F12.7°C 76% 8.2 mph WSW13.2 kmh WSW 10.0 mph16.1 kmh 29.73 in1006.8 mb 0.00 in0.0 mm 0.00 in0.0 mm 0.00 in0.0 mm
10:17 AM 62.5°F16.9°C 55.2°F12.9°C 77% 8.6 mph SW13.8 kmh SW 10.0 mph16.1 kmh 29.73 in1006.8 mb 0.00 in0.0 mm 0.00 in0.0 mm 0.00 in0.0 mm
10:18 AM 62.6°F17.0°C 55.3°F12.9°C 77% 7.3 mph WSW11.7 kmh WSW 9.0 mph14.5 kmh 29.73 in1006.8 mb 0.00 in0.0 mm 0.00 in0.0 mm 0.00 in0.0 mm
10:19 AM 62.7°F17.1°C 55.4°F13.0°C 77% 8.3 mph WSW13.4 kmh WSW 10.0 mph16.1 kmh 29.73 in1006.8 mb 0.00 in0.0 mm 0.00 in0.0 mm 0.00 in0.0 mm
10:20 AM 62.8°F17.1°C 55.5°F13.1°C 77% 9.5 mph WSW15.3 kmh WSW 11.0 mph17.7 kmh 29.73 in1006.8 mb 0.00 in0.0 mm 0.00 in0.0 mm 0.00 in0.0 mm
10:21 AM 62.8°F17.1°C 55.1°F12.8°C 76% 9.6 mph SW15.4 kmh SW 11.0 mph17.7 kmh 29.73 in1006.8 mb 0.00 in0.0 mm 0.00 in0.0 mm 0.00 in0.0 mm
10:22 AM 62.9°F17.2°C 55.2°F12.9°C 76% 8.1 mph SW13.0 kmh SW 11.0 mph17.7 kmh 29.73 in1006.8 mb 0.00 in0.0 mm 0.00 in0.0 mm 0.00 in0.0 mm
10:23 AM 63.0°F17.2°C 55.3°F12.9°C 76% 9.0 mph SW14.5 kmh SW 10.0 mph16.1 kmh 29.73 in1006.8 mb 0.00 in0.0 mm 0.00 in0.0 mm 0.00 in0.0 mm
10:24 AM 63.0°F17.2°C 55.3°F12.9°C 76% 7.9 mph WSW12.7 kmh WSW 10.0 mph16.1 kmh 29.73 in1006.8 mb 0.00 in0.0 mm 0.00 in0.0 mm 0.00 in0.0 mm
10:25 AM 63.0°F17.2°C 55.3°F12.9°C 76% 7.5 mph WSW12.1 kmh WSW 10.0 mph16.1 kmh 29.73 in1006.8 mb 0.00 in0.0 mm 0.00 in0.0 mm 0.00 in0.0 mm
10:26 AM 63.1°F17.3°C 55.4°F13.0°C 76% 7.2 mph WSW11.6 kmh WSW 10.0 mph16.1 kmh 29.73 in1006.8 mb 0.00 in0.0 mm 0.00 in0.0 mm 0.00 in0.0 mm
10:27 AM 63.1°F17.3°C 55.4°F13.0°C 76% 6.7 mph WSW10.8 kmh WSW 9.0 mph14.5 kmh 29.73 in1006.8 mb 0.00 in0.0 mm 0.00 in0.0 mm 0.00 in0.0 mm
10:28 AM 63.2°F17.3°C 55.9°F13.3°C 77% 10.0 mph SW16.1 kmh SW 12.0 mph19.3 kmh 29.73 in1006.8 mb 0.00 in0.0 mm 0.00 in0.0 mm 0.00 in0.0 mm
10:29 AM 63.2°F17.3°C 55.1°F12.8°C 75% 10.1 mph SW16.3 kmh SW 12.0 mph19.3 kmh 29.73 in1006.8 mb 0.00 in0.0 mm 0.00 in0.0 mm 0.00 in0.0 mm
10:30 AM 63.2°F17.3°C 55.1°F12.8°C 75% 5.5 mph SW8.9 kmh SW 12.0 mph19.3 kmh 29.73 in1006.8 mb 0.00 in0.0 mm 0.00 in0.0 mm 0.00 in0.0 mm
10:31 AM 63.3°F17.4°C 55.6°F13.1°C 76% 8.3 mph WSW13.4 kmh WSW 11.0 mph17.7 kmh 29.73 in1006.8 mb 0.00 in0.0 mm 0.00 in0.0 mm 0.00 in0.0 mm
10:32 AM 63.2°F17.3°C 55.5°F13.1°C 76% 9.8 mph WSW15.8 kmh WSW 11.0 mph17.7 kmh 29.73 in1006.8 mb 0.00 in0.0 mm 0.00 in0.0 mm 0.00 in0.0 mm
10:33 AM 63.1°F17.3°C 55.4°F13.0°C 76% 8.8 mph WSW14.2 kmh WSW 11.0 mph17.7 kmh 29.73 in1006.8 mb 0.00 in0.0 mm 0.00 in0.0 mm 0.00 in0.0 mm
10:34 AM 63.1°F17.3°C 55.0°F12.8°C 75% 8.6 mph WSW13.8 kmh WSW 11.0 mph17.7 kmh 29.73 in1006.8 mb 0.00 in0.0 mm 0.00 in0.0 mm 0.00 in0.0 mm
10:35 AM 62.9°F17.2°C 55.2°F12.9°C 76% 10.0 mph WSW16.1 kmh WSW 11.0 mph17.7 kmh 29.73 in1006.8 mb 0.00 in0.0 mm 0.00 in0.0 mm 0.00 in0.0 mm
10:36 AM 62.8°F17.1°C 55.1°F12.8°C 76% 10.3 mph WSW16.6 kmh WSW 12.0 mph19.3 kmh 29.73 in1006.8 mb 0.00 in0.0 mm 0.00 in0.0 mm 0.00 in0.0 mm
10:37 AM 62.7°F17.1°C 55.0°F12.8°C 76% 7.8 mph WSW12.6 kmh WSW 12.0 mph19.3 kmh 29.73 in1006.8 mb 0.00 in0.0 mm 0.00 in0.0 mm 0.00 in0.0 mm
10:38 AM 62.7°F17.1°C 55.0°F12.8°C 76% 7.4 mph WSW11.9 kmh WSW 11.0 mph17.7 kmh 29.73 in1006.8 mb 0.00 in0.0 mm 0.00 in0.0 mm 0.00 in0.0 mm
10:39 AM 62.6°F17.0°C 54.9°F12.7°C 76% 8.3 mph WSW13.4 kmh WSW 11.0 mph17.7 kmh 29.73 in1006.8 mb 0.00 in0.0 mm 0.00 in0.0 mm 0.00 in0.0 mm
10:40 AM 62.6°F17.0°C 54.9°F12.7°C 76% 5.6 mph WSW9.0 kmh WSW 9.0 mph14.5 kmh 29.73 in1006.8 mb 0.00 in0.0 mm 0.00 in0.0 mm 0.00 in0.0 mm
10:41 AM 62.7°F17.1°C 55.4°F13.0°C 77% 6.0 mph WSW9.7 kmh WSW 9.0 mph14.5 kmh 29.73 in1006.8 mb 0.00 in0.0 mm 0.00 in0.0 mm 0.00 in0.0 mm
10:42 AM 62.8°F17.1°C 55.1°F12.8°C 76% 7.7 mph WSW12.4 kmh WSW 9.0 mph14.5 kmh 29.73 in1006.8 mb 0.00 in0.0 mm 0.00 in0.0 mm 0.00 in0.0 mm
10:43 AM 62.9°F17.2°C 55.2°F12.9°C 76% 7.0 mph WSW11.3 kmh WSW 10.0 mph16.1 kmh 29.73 in1006.8 mb 0.00 in0.0 mm 0.00 in0.0 mm 0.00 in0.0 mm
10:44 AM 62.9°F17.2°C 55.2°F12.9°C 76% 7.7 mph WSW12.4 kmh WSW 10.0 mph16.1 kmh 29.73 in1006.8 mb 0.00 in0.0 mm 0.00 in0.0 mm 0.00 in0.0 mm
10:45 AM 63.0°F17.2°C 55.3°F12.9°C 76% 7.1 mph SW11.4 kmh SW 9.0 mph14.5 kmh 29.73 in1006.8 mb 0.00 in0.0 mm 0.00 in0.0 mm 0.00 in0.0 mm
10:46 AM 63.0°F17.2°C 54.9°F12.7°C 75% 7.2 mph SW11.6 kmh SW 9.0 mph14.5 kmh 29.73 in1006.8 mb 0.00 in0.0 mm 0.00 in0.0 mm 0.00 in0.0 mm
10:47 AM 63.2°F17.3°C 55.5°F13.1°C 76% 7.2 mph WSW11.6 kmh WSW 9.0 mph14.5 kmh 29.73 in1006.8 mb 0.00 in0.0 mm 0.00 in0.0 mm 0.00 in0.0 mm
10:48 AM 63.3°F17.4°C 55.6°F13.1°C 76% 5.1 mph WSW8.2 kmh WSW 9.0 mph14.5 kmh 29.73 in1006.8 mb 0.00 in0.0 mm 0.00 in0.0 mm 0.00 in0.0 mm
10:49 AM 63.6°F17.6°C 55.9°F13.3°C 76% 7.3 mph WSW11.7 kmh WSW 11.0 mph17.7 kmh 29.73 in1006.8 mb 0.00 in0.0 mm 0.00 in0.0 mm 0.00 in0.0 mm
10:50 AM 63.6°F17.6°C 55.5°F13.1°C 75% 8.2 mph SW13.2 kmh SW 12.0 mph19.3 kmh 29.73 in1006.8 mb 0.00 in0.0 mm 0.00 in0.0 mm 0.00 in0.0 mm
10:51 AM 63.7°F17.6°C 55.6°F13.1°C 75% 8.2 mph SW13.2 kmh SW 12.0 mph19.3 kmh 29.73 in1006.8 mb 0.00 in0.0 mm 0.00 in0.0 mm 0.00 in0.0 mm
10:52 AM 63.7°F17.6°C 55.6°F13.1°C 75% 9.5 mph SW15.3 kmh SW 12.0 mph19.3 kmh 29.73 in1006.8 mb 0.00 in0.0 mm 0.00 in0.0 mm 0.00 in0.0 mm
10:53 AM 63.8°F17.7°C 56.1°F13.4°C 76% 8.6 mph WSW13.8 kmh WSW 12.0 mph19.3 kmh 29.73 in1006.8 mb 0.00 in0.0 mm 0.00 in0.0 mm 0.00 in0.0 mm
10:54 AM 63.9°F17.7°C 56.2°F13.4°C 76% 10.2 mph WSW16.4 kmh WSW 12.0 mph19.3 kmh 29.73 in1006.8 mb 0.00 in0.0 mm 0.00 in0.0 mm 0.00 in0.0 mm
10:55 AM 63.8°F17.7°C 56.1°F13.4°C 76% 10.5 mph WSW16.9 kmh WSW 12.0 mph19.3 kmh 29.73 in1006.8 mb 0.00 in0.0 mm 0.00 in0.0 mm 0.00 in0.0 mm
10:56 AM 63.8°F17.7°C 55.7°F13.2°C 75% 9.7 mph WSW15.6 kmh WSW 12.0 mph19.3 kmh 29.73 in1006.8 mb 0.00 in0.0 mm 0.00 in0.0 mm 0.00 in0.0 mm
10:57 AM 63.8°F17.7°C 56.1°F13.4°C 76% 9.9 mph SW15.9 kmh SW 12.0 mph19.3 kmh 29.74 in1007.1 mb 0.00 in0.0 mm 0.00 in0.0 mm 0.00 in0.0 mm
10:58 AM 63.9°F17.7°C 55.8°F13.2°C 75% 10.8 mph WSW17.4 kmh WSW 12.0 mph19.3 kmh 29.74 in1007.1 mb 0.00 in0.0 mm 0.00 in0.0 mm 0.00 in0.0 mm
10:59 AM 64.0°F17.8°C 55.9°F13.3°C 75% 9.5 mph SW15.3 kmh SW 12.0 mph19.3 kmh 29.74 in1007.1 mb 0.00 in0.0 mm 0.00 in0.0 mm 0.00 in0.0 mm
11:00 AM 64.0°F17.8°C 55.9°F13.3°C 75% 10.0 mph SW16.1 kmh SW 13.0 mph20.9 kmh 29.74 in1007.1 mb 0.00 in0.0 mm 0.00 in0.0 mm 0.00 in0.0 mm
11:01 AM 64.1°F17.8°C 56.4°F13.6°C 76% 9.0 mph WSW14.5 kmh WSW 13.0 mph20.9 kmh 29.73 in1006.8 mb 0.00 in0.0 mm 0.00 in0.0 mm 0.00 in0.0 mm
11:02 AM 64.0°F17.8°C 55.5°F13.1°C 74% 8.3 mph WSW13.4 kmh WSW 12.0 mph19.3 kmh 29.73 in1006.8 mb 0.00 in0.0 mm 0.00 in0.0 mm 0.00 in0.0 mm
11:03 AM 63.8°F17.7°C 55.3°F12.9°C 74% 8.5 mph WSW13.7 kmh WSW 10.0 mph16.1 kmh 29.74 in1007.1 mb 0.00 in0.0 mm 0.00 in0.0 mm 0.00 in0.0 mm
11:04 AM 63.8°F17.7°C 55.7°F13.2°C 75% 8.9 mph WSW14.3 kmh WSW 10.0 mph16.1 kmh 29.74 in1007.1 mb 0.00 in0.0 mm 0.00 in0.0 mm 0.00 in0.0 mm
11:05 AM 63.8°F17.7°C 55.7°F13.2°C 75% 8.8 mph SW14.2 kmh SW 11.0 mph17.7 kmh 29.73 in1006.8 mb 0.00 in0.0 mm 0.00 in0.0 mm 0.00 in0.0 mm
11:06 AM 63.8°F17.7°C 55.7°F13.2°C 75% 9.3 mph WSW15.0 kmh WSW 11.0 mph17.7 kmh 29.74 in1007.1 mb 0.00 in0.0 mm 0.00 in0.0 mm 0.00 in0.0 mm
11:07 AM 64.0°F17.8°C 55.9°F13.3°C 75% 10.4 mph WSW16.7 kmh WSW 12.0 mph19.3 kmh 29.74 in1007.1 mb 0.00 in0.0 mm 0.00 in0.0 mm 0.00 in0.0 mm
11:08 AM 64.1°F17.8°C 56.0°F13.3°C 75% 8.8 mph WSW14.2 kmh WSW 12.0 mph19.3 kmh 29.74 in1007.1 mb 0.00 in0.0 mm 0.00 in0.0 mm 0.00 in0.0 mm
11:09 AM 64.1°F17.8°C 56.0°F13.3°C 75% 9.7 mph WSW15.6 kmh WSW 11.0 mph17.7 kmh 29.74 in1007.1 mb 0.00 in0.0 mm 0.00 in0.0 mm 0.00 in0.0 mm
11:10 AM 64.0°F17.8°C 55.2°F12.9°C 73% 8.0 mph WSW12.9 kmh WSW 11.0 mph17.7 kmh 29.74 in1007.1 mb 0.00 in0.0 mm 0.00 in0.0 mm 0.00 in0.0 mm
11:11 AM 63.9°F17.7°C 55.4°F13.0°C 74% 9.8 mph SW15.8 kmh SW 11.0 mph17.7 kmh 29.74 in1007.1 mb 0.00 in0.0 mm 0.00 in0.0 mm 0.00 in0.0 mm
11:12 AM 63.9°F17.7°C 55.4°F13.0°C 74% 8.9 mph SW14.3 kmh SW 12.0 mph19.3 kmh 29.74 in1007.1 mb 0.00 in0.0 mm 0.00 in0.0 mm 0.00 in0.0 mm
11:13 AM 63.9°F17.7°C 55.4°F13.0°C 74% 7.3 mph SW11.7 kmh SW 12.0 mph19.3 kmh 29.74 in1007.1 mb 0.00 in0.0 mm 0.00 in0.0 mm 0.00 in0.0 mm
11:14 AM 63.9°F17.7°C 55.8°F13.2°C 75% 8.1 mph WSW13.0 kmh WSW 11.0 mph17.7 kmh 29.74 in1007.1 mb 0.00 in0.0 mm 0.00 in0.0 mm 0.00 in0.0 mm
11:15 AM 64.0°F17.8°C 55.9°F13.3°C 75% 8.8 mph SW14.2 kmh SW 10.0 mph16.1 kmh 29.74 in1007.1 mb 0.00 in0.0 mm 0.00 in0.0 mm 0.00 in0.0 mm
11:16 AM 64.0°F17.8°C 55.5°F13.1°C 74% 9.5 mph WSW15.3 kmh WSW 12.0 mph19.3 kmh 29.74 in1007.1 mb 0.00 in0.0 mm 0.00 in0.0 mm 0.00 in0.0 mm
11:17 AM 64.1°F17.8°C 55.6°F13.1°C 74% 10.1 mph WSW16.3 kmh WSW 12.0 mph19.3 kmh 29.74 in1007.1 mb 0.00 in0.0 mm 0.00 in0.0 mm 0.00 in0.0 mm
11:18 AM 64.1°F17.8°C 55.6°F13.1°C 74% 8.4 mph WSW13.5 kmh WSW 11.0 mph17.7 kmh 29.74 in1007.1 mb 0.00 in0.0 mm 0.00 in0.0 mm 0.00 in0.0 mm
11:19 AM 64.1°F17.8°C 55.6°F13.1°C 74% 8.4 mph WSW13.5 kmh WSW 10.0 mph16.1 kmh 29.74 in1007.1 mb 0.00 in0.0 mm 0.00 in0.0 mm 0.00 in0.0 mm
11:20 AM 64.2°F17.9°C 55.7°F13.2°C 74% 9.1 mph WSW14.6 kmh WSW 10.0 mph16.1 kmh 29.74 in1007.1 mb 0.00 in0.0 mm 0.00 in0.0 mm 0.00 in0.0 mm
11:21 AM 64.2°F17.9°C 56.1°F13.4°C 75% 8.0 mph WSW12.9 kmh WSW 11.0 mph17.7 kmh 29.74 in1007.1 mb 0.00 in0.0 mm 0.00 in0.0 mm 0.00 in0.0 mm
11:22 AM 64.3°F17.9°C 56.2°F13.4°C 75% 10.9 mph WSW17.5 kmh WSW 12.0 mph19.3 kmh 29.74 in1007.1 mb 0.00 in0.0 mm 0.00 in0.0 mm 0.00 in0.0 mm
11:23 AM 64.3°F17.9°C 55.8°F13.2°C 74% 8.0 mph WSW12.9 kmh WSW 12.0 mph19.3 kmh 29.74 in1007.1 mb 0.00 in0.0 mm 0.00 in0.0 mm 0.00 in0.0 mm
11:24 AM 64.3°F17.9°C 55.8°F13.2°C 74% 9.9 mph SW15.9 kmh SW 13.0 mph20.9 kmh 29.74 in1007.1 mb 0.00 in0.0 mm 0.00 in0.0 mm 0.00 in0.0 mm
11:25 AM 64.2°F17.9°C 55.7°F13.2°C 74% 9.8 mph WSW15.8 kmh WSW 13.0 mph20.9 kmh 29.74 in1007.1 mb 0.00 in0.0 mm 0.00 in0.0 mm 0.00 in0.0 mm
11:26 AM 64.1°F17.8°C 56.0°F13.3°C 75% 8.8 mph WSW14.2 kmh WSW 11.0 mph17.7 kmh 29.74 in1007.1 mb 0.00 in0.0 mm 0.00 in0.0 mm 0.00 in0.0 mm
11:27 AM 64.1°F17.8°C 56.0°F13.3°C 75% 9.3 mph WSW15.0 kmh WSW 11.0 mph17.7 kmh 29.74 in1007.1 mb 0.00 in0.0 mm 0.00 in0.0 mm 0.00 in0.0 mm
11:28 AM 64.2°F17.9°C 56.1°F13.4°C 75% 9.3 mph WSW15.0 kmh WSW 13.0 mph20.9 kmh 29.74 in1007.1 mb 0.00 in0.0 mm 0.00 in0.0 mm 0.00 in0.0 mm
11:29 AM 64.3°F17.9°C 56.2°F13.4°C 75% 10.5 mph SW16.9 kmh SW 13.0 mph20.9 kmh 29.73 in1006.8 mb 0.00 in0.0 mm 0.00 in0.0 mm 0.00 in0.0 mm
11:30 AM 64.2°F17.9°C 55.7°F13.2°C 74% 11.5 mph SW18.5 kmh SW 13.0 mph20.9 kmh 29.73 in1006.8 mb 0.00 in0.0 mm 0.00 in0.0 mm 0.00 in0.0 mm
11:31 AM 64.2°F17.9°C 55.7°F13.2°C 74% 10.0 mph SW16.1 kmh SW 12.0 mph19.3 kmh 29.74 in1007.1 mb 0.00 in0.0 mm 0.00 in0.0 mm 0.00 in0.0 mm
11:32 AM 64.2°F17.9°C 55.7°F13.2°C 74% 10.0 mph SW16.1 kmh SW 12.0 mph19.3 kmh 29.73 in1006.8 mb 0.00 in0.0 mm 0.00 in0.0 mm 0.00 in0.0 mm
11:33 AM 64.3°F17.9°C 55.8°F13.2°C 74% 10.1 mph SW16.3 kmh SW 12.0 mph19.3 kmh 29.73 in1006.8 mb 0.00 in0.0 mm 0.00 in0.0 mm 0.00 in0.0 mm
11:34 AM 64.3°F17.9°C 55.8°F13.2°C 74% 9.3 mph WSW15.0 kmh WSW 12.0 mph19.3 kmh 29.74 in1007.1 mb 0.00 in0.0 mm 0.00 in0.0 mm 0.00 in0.0 mm
11:35 AM 64.2°F17.9°C 55.7°F13.2°C 74% 7.6 mph SW12.2 kmh SW 11.0 mph17.7 kmh 29.74 in1007.1 mb 0.00 in0.0 mm 0.00 in0.0 mm 0.00 in0.0 mm
11:36 AM 64.2°F17.9°C 55.7°F13.2°C 74% 9.2 mph SW14.8 kmh SW 11.0 mph17.7 kmh 29.74 in1007.1 mb 0.00 in0.0 mm 0.00 in0.0 mm 0.00 in0.0 mm
11:37 AM 64.2°F17.9°C 55.7°F13.2°C 74% 10.2 mph SW16.4 kmh SW 12.0 mph19.3 kmh 29.74 in1007.1 mb 0.00 in0.0 mm 0.00 in0.0 mm 0.00 in0.0 mm
11:38 AM 64.2°F17.9°C 55.7°F13.2°C 74% 9.1 mph WSW14.6 kmh WSW 12.0 mph19.3 kmh 29.74 in1007.1 mb 0.00 in0.0 mm 0.00 in0.0 mm 0.00 in0.0 mm
11:39 AM 64.3°F17.9°C 55.8°F13.2°C 74% 10.2 mph SW16.4 kmh SW 12.0 mph19.3 kmh 29.74 in1007.1 mb 0.00 in0.0 mm 0.00 in0.0 mm 0.00 in0.0 mm
11:40 AM 64.3°F17.9°C 55.8°F13.2°C 74% 11.4 mph WSW18.3 kmh WSW 13.0 mph20.9 kmh 29.74 in1007.1 mb 0.00 in0.0 mm 0.00 in0.0 mm 0.00 in0.0 mm
11:41 AM 64.3°F17.9°C 55.8°F13.2°C 74% 10.2 mph WSW16.4 kmh WSW 13.0 mph20.9 kmh 29.74 in1007.1 mb 0.00 in0.0 mm 0.00 in0.0 mm 0.00 in0.0 mm
11:42 AM 64.3°F17.9°C 55.8°F13.2°C 74% 10.7 mph WSW17.2 kmh WSW 12.0 mph19.3 kmh 29.74 in1007.1 mb 0.00 in0.0 mm 0.00 in0.0 mm 0.00 in0.0 mm
11:43 AM 64.4°F18.0°C 55.9°F13.3°C 74% 10.5 mph WSW16.9 kmh WSW 12.0 mph19.3 kmh 29.73 in1006.8 mb 0.00 in0.0 mm 0.00 in0.0 mm 0.00 in0.0 mm
11:44 AM 64.4°F18.0°C 55.9°F13.3°C 74% 9.2 mph SW14.8 kmh SW 12.0 mph19.3 kmh 29.73 in1006.8 mb 0.00 in0.0 mm 0.00 in0.0 mm 0.00 in0.0 mm
11:45 AM 64.5°F18.1°C 55.6°F13.1°C 73% 9.6 mph SW15.4 kmh SW 12.0 mph19.3 kmh 29.73 in1006.8 mb 0.00 in0.0 mm 0.00 in0.0 mm 0.00 in0.0 mm
11:46 AM 64.4°F18.0°C 55.9°F13.3°C 74% 10.5 mph WSW16.9 kmh WSW 12.0 mph19.3 kmh 29.73 in1006.8 mb 0.00 in0.0 mm 0.00 in0.0 mm 0.00 in0.0 mm
11:47 AM 64.4°F18.0°C 55.6°F13.1°C 73% 10.7 mph WSW17.2 kmh WSW 12.0 mph19.3 kmh 29.73 in1006.8 mb 0.00 in0.0 mm 0.00 in0.0 mm 0.00 in0.0 mm
11:48 AM 64.5°F18.1°C 55.6°F13.1°C 73% 10.0 mph WSW16.1 kmh WSW 12.0 mph19.3 kmh 29.73 in1006.8 mb 0.00 in0.0 mm 0.00 in0.0 mm 0.00 in0.0 mm
11:49 AM 64.5°F18.1°C 56.0°F13.3°C 74% 9.4 mph WSW15.1 kmh WSW 13.0 mph20.9 kmh 29.73 in1006.8 mb 0.00 in0.0 mm 0.00 in0.0 mm 0.00 in0.0 mm
11:50 AM 64.6°F18.1°C 56.1°F13.4°C 74% 10.4 mph WSW16.7 kmh WSW 13.0 mph20.9 kmh 29.73 in1006.8 mb 0.00 in0.0 mm 0.00 in0.0 mm 0.00 in0.0 mm
11:51 AM 64.7°F18.2°C 56.2°F13.4°C 74% 10.0 mph WSW16.1 kmh WSW 12.0 mph19.3 kmh 29.74 in1007.1 mb 0.00 in0.0 mm 0.00 in0.0 mm 0.00 in0.0 mm
11:52 AM 64.6°F18.1°C 55.7°F13.2°C 73% 10.6 mph WSW17.1 kmh WSW 13.0 mph20.9 kmh 29.73 in1006.8 mb 0.00 in0.0 mm 0.00 in0.0 mm 0.00 in0.0 mm
11:53 AM 64.6°F18.1°C 55.7°F13.2°C 73% 10.6 mph WSW17.1 kmh WSW 13.0 mph20.9 kmh 29.73 in1006.8 mb 0.00 in0.0 mm 0.00 in0.0 mm 0.00 in0.0 mm
11:54 AM 64.6°F18.1°C 55.7°F13.2°C 73% 11.1 mph SW17.9 kmh SW 13.0 mph20.9 kmh 29.73 in1006.8 mb 0.00 in0.0 mm 0.00 in0.0 mm 0.00 in0.0 mm
11:55 AM 64.5°F18.1°C 55.6°F13.1°C 73% 10.0 mph SW16.1 kmh SW 12.0 mph19.3 kmh 29.74 in1007.1 mb 0.00 in0.0 mm 0.00 in0.0 mm 0.00 in0.0 mm
11:56 AM 64.5°F18.1°C 56.0°F13.3°C 74% 8.6 mph SW13.8 kmh SW 12.0 mph19.3 kmh 29.74 in1007.1 mb 0.00 in0.0 mm 0.00 in0.0 mm 0.00 in0.0 mm
11:57 AM 64.5°F18.1°C 55.6°F13.1°C 73% 8.8 mph SW14.2 kmh SW 11.0 mph17.7 kmh 29.73 in1006.8 mb 0.00 in0.0 mm 0.00 in0.0 mm 0.00 in0.0 mm
11:58 AM 64.6°F18.1°C 56.1°F13.4°C 74% 9.5 mph SW15.3 kmh SW 12.0 mph19.3 kmh 29.74 in1007.1 mb 0.00 in0.0 mm 0.00 in0.0 mm 0.00 in0.0 mm
11:59 AM 64.7°F18.2°C 56.2°F13.4°C 74% 8.4 mph WSW13.5 kmh WSW 12.0 mph19.3 kmh 29.74 in1007.1 mb 0.00 in0.0 mm 0.00 in0.0 mm 0.00 in0.0 mm
12:00 PM 64.8°F18.2°C 55.9°F13.3°C 73% 8.3 mph SW13.4 kmh SW 11.0 mph17.7 kmh 29.74 in1007.1 mb 0.00 in0.0 mm 0.00 in0.0 mm 0.00 in0.0 mm
12:01 PM 64.8°F18.2°C 56.3°F13.5°C 74% 9.3 mph WSW15.0 kmh WSW 12.0 mph19.3 kmh 29.74 in1007.1 mb 0.00 in0.0 mm 0.00 in0.0 mm 0.00 in0.0 mm
12:02 PM 64.9°F18.3°C 56.4°F13.6°C 74% 8.3 mph WSW13.4 kmh WSW 12.0 mph19.3 kmh 29.74 in1007.1 mb 0.00 in0.0 mm 0.00 in0.0 mm 0.00 in0.0 mm
12:03 PM 64.9°F18.3°C 56.4°F13.6°C 74% 7.5 mph WSW12.1 kmh WSW 10.0 mph16.1 kmh 29.74 in1007.1 mb 0.00 in0.0 mm 0.00 in0.0 mm 0.00 in0.0 mm
12:04 PM 64.7°F18.2°C 55.8°F13.2°C 73% 8.7 mph WSW14.0 kmh WSW 10.0 mph16.1 kmh 29.74 in1007.1 mb 0.00 in0.0 mm 0.00 in0.0 mm 0.00 in0.0 mm
12:05 PM 64.6°F18.1°C 55.7°F13.2°C 73% 8.7 mph WSW14.0 kmh WSW 10.0 mph16.1 kmh 29.74 in1007.1 mb 0.00 in0.0 mm 0.00 in0.0 mm 0.00 in0.0 mm
12:06 PM 64.6°F18.1°C 55.7°F13.2°C 73% 8.5 mph WSW13.7 kmh WSW 12.0 mph19.3 kmh 29.74 in1007.1 mb 0.00 in0.0 mm 0.00 in0.0 mm 0.00 in0.0 mm
12:07 PM 64.7°F18.2°C 55.8°F13.2°C 73% 9.3 mph WSW15.0 kmh WSW 12.0 mph19.3 kmh 29.74 in1007.1 mb 0.00 in0.0 mm 0.00 in0.0 mm 0.00 in0.0 mm
12:08 PM 64.8°F18.2°C 55.9°F13.3°C 73% 10.6 mph WSW17.1 kmh WSW 12.0 mph19.3 kmh 29.74 in1007.1 mb 0.00 in0.0 mm 0.00 in0.0 mm 0.00 in0.0 mm
12:09 PM 64.8°F18.2°C 55.9°F13.3°C 73% 11.3 mph WSW18.2 kmh WSW 13.0 mph20.9 kmh 29.74 in1007.1 mb 0.00 in0.0 mm 0.00 in0.0 mm 0.00 in0.0 mm
12:10 PM 64.8°F18.2°C 55.9°F13.3°C 73% 10.6 mph WSW17.1 kmh WSW 13.0 mph20.9 kmh 29.74 in1007.1 mb 0.00 in0.0 mm 0.00 in0.0 mm 0.00 in0.0 mm
12:11 PM 64.7°F18.2°C 55.5°F13.1°C 72% 10.7 mph WSW17.2 kmh WSW 13.0 mph20.9 kmh 29.74 in1007.1 mb 0.00 in0.0 mm 0.00 in0.0 mm 0.00 in0.0 mm
12:12 PM 64.7°F18.2°C 55.8°F13.2°C 73% 9.8 mph WSW15.8 kmh WSW 12.0 mph19.3 kmh 29.74 in1007.1 mb 0.00 in0.0 mm 0.00 in0.0 mm 0.00 in0.0 mm
12:13 PM 64.8°F18.2°C 55.9°F13.3°C 73% 10.0 mph WSW16.1 kmh WSW 11.0 mph17.7 kmh 29.74 in1007.1 mb 0.00 in0.0 mm 0.00 in0.0 mm 0.00 in0.0 mm
12:14 PM 64.9°F18.3°C 56.0°F13.3°C 73% 10.4 mph SW16.7 kmh SW 11.0 mph17.7 kmh 29.74 in1007.1 mb 0.00 in0.0 mm 0.00 in0.0 mm 0.00 in0.0 mm
12:15 PM 64.9°F18.3°C 56.0°F13.3°C 73% 9.0 mph SW14.5 kmh SW 11.0 mph17.7 kmh 29.74 in1007.1 mb 0.00 in0.0 mm 0.00 in0.0 mm 0.00 in0.0 mm
12:16 PM 64.9°F18.3°C 56.0°F13.3°C 73% 8.1 mph SW13.0 kmh SW 11.0 mph17.7 kmh 29.74 in1007.1 mb 0.00 in0.0 mm 0.00 in0.0 mm 0.00 in0.0 mm
12:17 PM 65.1°F18.4°C 56.2°F13.4°C 73% 7.4 mph WSW11.9 kmh WSW 10.0 mph16.1 kmh 29.74 in1007.1 mb 0.00 in0.0 mm 0.00 in0.0 mm 0.00 in0.0 mm
12:18 PM 65.2°F18.4°C 56.3°F13.5°C 73% 9.5 mph WSW15.3 kmh WSW 11.0 mph17.7 kmh 29.74 in1007.1 mb 0.00 in0.0 mm 0.00 in0.0 mm 0.00 in0.0 mm
12:19 PM 65.2°F18.4°C 55.6°F13.1°C 71% 8.4 mph SW13.5 kmh SW 11.0 mph17.7 kmh 29.74 in1007.1 mb 0.00 in0.0 mm 0.00 in0.0 mm 0.00 in0.0 mm
12:20 PM 65.2°F18.4°C 55.6°F13.1°C 71% 9.2 mph SW14.8 kmh SW 11.0 mph17.7 kmh 29.74 in1007.1 mb 0.00 in0.0 mm 0.00 in0.0 mm 0.00 in0.0 mm
12:21 PM 65.2°F18.4°C 55.6°F13.1°C 71% 7.4 mph SW11.9 kmh SW 11.0 mph17.7 kmh 29.74 in1007.1 mb 0.00 in0.0 mm 0.00 in0.0 mm 0.00 in0.0 mm
12:22 PM 65.1°F18.4°C 55.8°F13.2°C 72% 8.1 mph SW13.0 kmh SW 11.0 mph17.7 kmh 29.74 in1007.1 mb 0.00 in0.0 mm 0.00 in0.0 mm 0.00 in0.0 mm
12:23 PM 65.0°F18.3°C 55.7°F13.2°C 72% 9.7 mph SW15.6 kmh SW 11.0 mph17.7 kmh 29.74 in1007.1 mb 0.00 in0.0 mm 0.00 in0.0 mm 0.00 in0.0 mm
12:24 PM 65.1°F18.4°C 56.2°F13.4°C 73% 8.4 mph SW13.5 kmh SW 11.0 mph17.7 kmh 29.74 in1007.1 mb 0.00 in0.0 mm 0.00 in0.0 mm 0.00 in0.0 mm
12:25 PM 65.2°F18.4°C 55.9°F13.3°C 72% 10.2 mph SW16.4 kmh SW 12.0 mph19.3 kmh 29.74 in1007.1 mb 0.00 in0.0 mm 0.00 in0.0 mm 0.00 in0.0 mm
12:26 PM 65.2°F18.4°C 55.6°F13.1°C 71% 8.1 mph SW13.0 kmh SW 12.0 mph19.3 kmh 29.74 in1007.1 mb 0.00 in0.0 mm 0.00 in0.0 mm 0.00 in0.0 mm
12:27 PM 65.2°F18.4°C 55.9°F13.3°C 72% 9.0 mph WSW14.5 kmh WSW 11.0 mph17.7 kmh 29.74 in1007.1 mb 0.00 in0.0 mm 0.00 in0.0 mm 0.00 in0.0 mm
12:28 PM 65.1°F18.4°C 56.2°F13.4°C 73% 7.1 mph WSW11.4 kmh WSW 11.0 mph17.7 kmh 29.74 in1007.1 mb 0.00 in0.0 mm 0.00 in0.0 mm 0.00 in0.0 mm
12:29 PM 65.1°F18.4°C 55.8°F13.2°C 72% 5.2 mph WSW8.4 kmh WSW 9.0 mph14.5 kmh 29.74 in1007.1 mb 0.00 in0.0 mm 0.00 in0.0 mm 0.00 in0.0 mm
12:30 PM 65.0°F18.3°C 55.4°F13.0°C 71% 6.1 mph WSW9.8 kmh WSW 8.0 mph12.9 kmh 29.74 in1007.1 mb 0.00 in0.0 mm 0.00 in0.0 mm 0.00 in0.0 mm
12:31 PM 64.9°F18.3°C 55.7°F13.2°C 72% 6.3 mph WSW10.1 kmh WSW 9.0 mph14.5 kmh 29.74 in1007.1 mb 0.00 in0.0 mm 0.00 in0.0 mm 0.00 in0.0 mm
12:32 PM 64.9°F18.3°C 55.7°F13.2°C 72% 9.8 mph SW15.8 kmh SW 11.0 mph17.7 kmh 29.74 in1007.1 mb 0.00 in0.0 mm 0.00 in0.0 mm 0.00 in0.0 mm
12:33 PM 64.9°F18.3°C 55.7°F13.2°C 72% 9.1 mph SW14.6 kmh SW 11.0 mph17.7 kmh 29.74 in1007.1 mb 0.00 in0.0 mm 0.00 in0.0 mm 0.00 in0.0 mm
12:34 PM 64.9°F18.3°C 55.3°F12.9°C 71% 7.5 mph SW12.1 kmh SW 11.0 mph17.7 kmh 29.74 in1007.1 mb 0.00 in0.0 mm 0.00 in0.0 mm 0.00 in0.0 mm
12:35 PM 65.0°F18.3°C 55.7°F13.2°C 72% 7.2 mph WSW11.6 kmh WSW 11.0 mph17.7 kmh 29.74 in1007.1 mb 0.00 in0.0 mm 0.00 in0.0 mm 0.00 in0.0 mm
12:36 PM 65.1°F18.4°C 55.5°F13.1°C 71% 8.4 mph WSW13.5 kmh WSW 10.0 mph16.1 kmh 29.74 in1007.1 mb 0.00 in0.0 mm 0.00 in0.0 mm 0.00 in0.0 mm
12:37 PM 65.1°F18.4°C 55.5°F13.1°C 71% 8.1 mph WSW13.0 kmh WSW 10.0 mph16.1 kmh 29.74 in1007.1 mb 0.00 in0.0 mm 0.00 in0.0 mm 0.00 in0.0 mm
12:38 PM 65.1°F18.4°C 55.8°F13.2°C 72% 8.6 mph SW13.8 kmh SW 11.0 mph17.7 kmh 29.74 in1007.1 mb 0.00 in0.0 mm 0.00 in0.0 mm 0.00 in0.0 mm
12:39 PM 65.2°F18.4°C 55.6°F13.1°C 71% 9.3 mph SW15.0 kmh SW 11.0 mph17.7 kmh 29.74 in1007.1 mb 0.00 in0.0 mm 0.00 in0.0 mm 0.00 in0.0 mm
12:40 PM 65.2°F18.4°C 55.6°F13.1°C 71% 7.4 mph SW11.9 kmh SW 11.0 mph17.7 kmh 29.74 in1007.1 mb 0.00 in0.0 mm 0.00 in0.0 mm 0.00 in0.0 mm
12:41 PM 65.2°F18.4°C 55.9°F13.3°C 72% 10.3 mph WSW16.6 kmh WSW 12.0 mph19.3 kmh 29.73 in1006.8 mb 0.00 in0.0 mm 0.00 in0.0 mm 0.00 in0.0 mm
12:42 PM 65.2°F18.4°C 55.6°F13.1°C 71% 10.5 mph SW16.9 kmh SW 12.0 mph19.3 kmh 29.74 in1007.1 mb 0.00 in0.0 mm 0.00 in0.0 mm 0.00 in0.0 mm
12:43 PM 65.2°F18.4°C 55.6°F13.1°C 71% 9.1 mph WSW14.6 kmh WSW 11.0 mph17.7 kmh 29.73 in1006.8 mb 0.00 in0.0 mm 0.00 in0.0 mm 0.00 in0.0 mm
12:44 PM 65.3°F18.5°C 55.6°F13.1°C 71% 8.4 mph SW13.5 kmh SW 10.0 mph16.1 kmh 29.73 in1006.8 mb 0.00 in0.0 mm 0.00 in0.0 mm 0.00 in0.0 mm
12:45 PM 65.3°F18.5°C 55.6°F13.1°C 71% 8.5 mph SW13.7 kmh SW 10.0 mph16.1 kmh 29.73 in1006.8 mb 0.00 in0.0 mm 0.00 in0.0 mm 0.00 in0.0 mm
12:46 PM 65.3°F18.5°C 55.6°F13.1°C 71% 9.1 mph SW14.6 kmh SW 10.0 mph16.1 kmh 29.73 in1006.8 mb 0.00 in0.0 mm 0.00 in0.0 mm 0.00 in0.0 mm
12:47 PM 65.3°F18.5°C 55.6°F13.1°C 71% 7.7 mph SW12.4 kmh SW 10.0 mph16.1 kmh 29.73 in1006.8 mb 0.00 in0.0 mm 0.00 in0.0 mm 0.00 in0.0 mm
12:48 PM 65.3°F18.5°C 55.3°F12.9°C 70% 7.2 mph SW11.6 kmh SW 10.0 mph16.1 kmh 29.73 in1006.8 mb 0.00 in0.0 mm 0.00 in0.0 mm 0.00 in0.0 mm
12:49 PM 65.3°F18.5°C 55.6°F13.1°C 71% 9.0 mph SW14.5 kmh SW 12.0 mph19.3 kmh 29.74 in1007.1 mb 0.00 in0.0 mm 0.00 in0.0 mm 0.00 in0.0 mm
12:50 PM 65.4°F18.6°C 55.7°F13.2°C 71% 10.2 mph SW16.4 kmh SW 12.0 mph19.3 kmh 29.74 in1007.1 mb 0.00 in0.0 mm 0.00 in0.0 mm 0.00 in0.0 mm
12:51 PM 65.4°F18.6°C 55.7°F13.2°C 71% 8.0 mph WSW12.9 kmh WSW 12.0 mph19.3 kmh 29.74 in1007.1 mb 0.00 in0.0 mm 0.00 in0.0 mm 0.00 in0.0 mm
12:52 PM 65.5°F18.6°C 55.8°F13.2°C 71% 8.4 mph SW13.5 kmh SW 10.0 mph16.1 kmh 29.74 in1007.1 mb 0.00 in0.0 mm 0.00 in0.0 mm 0.00 in0.0 mm
12:53 PM 65.5°F18.6°C 55.8°F13.2°C 71% 7.3 mph WSW11.7 kmh WSW 10.0 mph16.1 kmh 29.74 in1007.1 mb 0.00 in0.0 mm 0.00 in0.0 mm 0.00 in0.0 mm
12:54 PM 65.6°F18.7°C 55.9°F13.3°C 71% 5.3 mph WSW8.5 kmh WSW 10.0 mph16.1 kmh 29.74 in1007.1 mb 0.00 in0.0 mm 0.00 in0.0 mm 0.00 in0.0 mm
12:55 PM 65.6°F18.7°C 55.9°F13.3°C 71% 9.2 mph SW14.8 kmh SW 10.0 mph16.1 kmh 29.74 in1007.1 mb 0.00 in0.0 mm 0.00 in0.0 mm 0.00 in0.0 mm
12:56 PM 65.6°F18.7°C 55.5°F13.1°C 70% 8.7 mph SW14.0 kmh SW 10.0 mph16.1 kmh 29.74 in1007.1 mb 0.00 in0.0 mm 0.00 in0.0 mm 0.00 in0.0 mm
12:57 PM 65.6°F18.7°C 55.5°F13.1°C 70% 8.3 mph SW13.4 kmh SW 10.0 mph16.1 kmh 29.74 in1007.1 mb 0.00 in0.0 mm 0.00 in0.0 mm 0.00 in0.0 mm
12:58 PM 65.6°F18.7°C 55.5°F13.1°C 70% 8.6 mph SW13.8 kmh SW 10.0 mph16.1 kmh 29.74 in1007.1 mb 0.00 in0.0 mm 0.00 in0.0 mm 0.00 in0.0 mm
12:59 PM 65.6°F18.7°C 55.5°F13.1°C 70% 7.4 mph SW11.9 kmh SW 10.0 mph16.1 kmh 29.74 in1007.1 mb 0.00 in0.0 mm 0.00 in0.0 mm 0.00 in0.0 mm
01:00 PM 65.6°F18.7°C 55.9°F13.3°C 71% 7.2 mph SW11.6 kmh SW 10.0 mph16.1 kmh 29.74 in1007.1 mb 0.00 in0.0 mm 0.00 in0.0 mm 0.00 in0.0 mm
01:01 PM 65.7°F18.7°C 56.0°F13.3°C 71% 9.7 mph SW15.6 kmh SW 11.0 mph17.7 kmh 29.74 in1007.1 mb 0.00 in0.0 mm 0.00 in0.0 mm 0.00 in0.0 mm
01:02 PM 65.7°F18.7°C 56.0°F13.3°C 71% 9.0 mph SW14.5 kmh SW 11.0 mph17.7 kmh 29.74 in1007.1 mb 0.00 in0.0 mm 0.00 in0.0 mm 0.00 in0.0 mm
01:03 PM 65.7°F18.7°C 55.6°F13.1°C 70% 8.2 mph SW13.2 kmh SW 11.0 mph17.7 kmh 29.74 in1007.1 mb 0.00 in0.0 mm 0.00 in0.0 mm 0.00 in0.0 mm
01:04 PM 65.7°F18.7°C 56.0°F13.3°C 71% 8.4 mph SW13.5 kmh SW 10.0 mph16.1 kmh 29.74 in1007.1 mb 0.00 in0.0 mm 0.00 in0.0 mm 0.00 in0.0 mm
01:05 PM 65.7°F18.7°C 55.6°F13.1°C 70% 8.3 mph SW13.4 kmh SW 10.0 mph16.1 kmh 29.74 in1007.1 mb 0.00 in0.0 mm 0.00 in0.0 mm 0.00 in0.0 mm
01:06 PM 65.8°F18.8°C 56.1°F13.4°C 71% 7.7 mph SW12.4 kmh SW 10.0 mph16.1 kmh 29.74 in1007.1 mb 0.00 in0.0 mm 0.00 in0.0 mm 0.00 in0.0 mm
01:07 PM 65.9°F18.8°C 55.8°F13.2°C 70% 6.9 mph SW11.1 kmh SW 9.0 mph14.5 kmh 29.74 in1007.1 mb 0.00 in0.0 mm 0.00 in0.0 mm 0.00 in0.0 mm
01:08 PM 66.0°F18.9°C 55.9°F13.3°C 70% 6.3 mph SW10.1 kmh SW 9.0 mph14.5 kmh 29.74 in1007.1 mb 0.00 in0.0 mm 0.00 in0.0 mm 0.00 in0.0 mm
01:09 PM 66.0°F18.9°C 55.9°F13.3°C 70% 7.8 mph SW12.6 kmh SW 10.0 mph16.1 kmh 29.74 in1007.1 mb 0.00 in0.0 mm 0.00 in0.0 mm 0.00 in0.0 mm
01:10 PM 66.0°F18.9°C 55.5°F13.1°C 69% 7.7 mph SW12.4 kmh SW 10.0 mph16.1 kmh 29.74 in1007.1 mb 0.00 in0.0 mm 0.00 in0.0 mm 0.00 in0.0 mm
01:11 PM 66.1°F18.9°C 56.0°F13.3°C 70% 7.8 mph SW12.6 kmh SW 11.0 mph17.7 kmh 29.74 in1007.1 mb 0.00 in0.0 mm 0.00 in0.0 mm 0.00 in0.0 mm
01:12 PM 66.0°F18.9°C 55.5°F13.1°C 69% 7.9 mph WSW12.7 kmh WSW 11.0 mph17.7 kmh 29.74 in1007.1 mb 0.00 in0.0 mm 0.00 in0.0 mm 0.00 in0.0 mm
01:13 PM 66.0°F18.9°C 56.3°F13.5°C 71% 7.9 mph SW12.7 kmh SW 10.0 mph16.1 kmh 29.74 in1007.1 mb 0.00 in0.0 mm 0.00 in0.0 mm 0.00 in0.0 mm
01:14 PM 66.0°F18.9°C 56.3°F13.5°C 71% 9.4 mph SW15.1 kmh SW 11.0 mph17.7 kmh 29.74 in1007.1 mb 0.00 in0.0 mm 0.00 in0.0 mm 0.00 in0.0 mm
01:15 PM 66.2°F19.0°C 56.1°F13.4°C 70% 8.9 mph SW14.3 kmh SW 11.0 mph17.7 kmh 29.74 in1007.1 mb 0.00 in0.0 mm 0.00 in0.0 mm 0.00 in0.0 mm
01:16 PM 66.2°F19.0°C 56.1°F13.4°C 70% 8.7 mph WSW14.0 kmh WSW 10.0 mph16.1 kmh 29.74 in1007.1 mb 0.00 in0.0 mm 0.00 in0.0 mm 0.00 in0.0 mm
01:17 PM 66.2°F19.0°C 56.1°F13.4°C 70% 10.3 mph SW16.6 kmh SW 12.0 mph19.3 kmh 29.74 in1007.1 mb 0.00 in0.0 mm 0.00 in0.0 mm 0.00 in0.0 mm
01:18 PM 66.1°F18.9°C 55.6°F13.1°C 69% 8.9 mph SW14.3 kmh SW 12.0 mph19.3 kmh 29.74 in1007.1 mb 0.00 in0.0 mm 0.00 in0.0 mm 0.00 in0.0 mm
01:19 PM 66.1°F18.9°C 56.0°F13.3°C 70% 8.1 mph SW13.0 kmh SW 11.0 mph17.7 kmh 29.74 in1007.1 mb 0.00 in0.0 mm 0.00 in0.0 mm 0.00 in0.0 mm
01:20 PM 66.2°F19.0°C 56.1°F13.4°C 70% 10.9 mph SW17.5 kmh SW 12.0 mph19.3 kmh 29.74 in1007.1 mb 0.00 in0.0 mm 0.00 in0.0 mm 0.00 in0.0 mm
01:21 PM 66.3°F19.1°C 56.6°F13.7°C 71% 11.8 mph SW19.0 kmh SW 14.0 mph22.5 kmh 29.74 in1007.1 mb 0.00 in0.0 mm 0.00 in0.0 mm 0.00 in0.0 mm
01:22 PM 66.3°F19.1°C 56.2°F13.4°C 70% 10.4 mph SW16.7 kmh SW 14.0 mph22.5 kmh 29.74 in1007.1 mb 0.00 in0.0 mm 0.00 in0.0 mm 0.00 in0.0 mm
01:23 PM 66.2°F19.0°C 56.1°F13.4°C 70% 9.9 mph WSW15.9 kmh WSW 13.0 mph20.9 kmh 29.74 in1007.1 mb 0.00 in0.0 mm 0.00 in0.0 mm 0.00 in0.0 mm
01:24 PM 66.1°F18.9°C 56.0°F13.3°C 70% 11.3 mph SW18.2 kmh SW 14.0 mph22.5 kmh 29.74 in1007.1 mb 0.00 in0.0 mm 0.00 in0.0 mm 0.00 in0.0 mm
01:25 PM 66.0°F18.9°C 55.9°F13.3°C 70% 10.8 mph SW17.4 kmh SW 14.0 mph22.5 kmh 29.74 in1007.1 mb 0.00 in0.0 mm 0.00 in0.0 mm 0.00 in0.0 mm
01:26 PM 65.9°F18.8°C 56.2°F13.4°C 71% 11.2 mph WSW18.0 kmh WSW 13.0 mph20.9 kmh 29.74 in1007.1 mb 0.00 in0.0 mm 0.00 in0.0 mm 0.00 in0.0 mm
01:27 PM 65.9°F18.8°C 55.8°F13.2°C 70% 11.2 mph SW18.0 kmh SW 13.0 mph20.9 kmh 29.74 in1007.1 mb 0.00 in0.0 mm 0.00 in0.0 mm 0.00 in0.0 mm
01:28 PM 65.8°F18.8°C 55.7°F13.2°C 70% 11.4 mph SW18.3 kmh SW 13.0 mph20.9 kmh 29.74 in1007.1 mb 0.00 in0.0 mm 0.00 in0.0 mm 0.00 in0.0 mm
01:29 PM 65.9°F18.8°C 56.2°F13.4°C 71% 11.0 mph SW17.7 kmh SW 13.0 mph20.9 kmh 29.74 in1007.1 mb 0.00 in0.0 mm 0.00 in0.0 mm 0.00 in0.0 mm
01:30 PM 66.0°F18.9°C 56.3°F13.5°C 71% 12.1 mph SW19.5 kmh SW 14.0 mph22.5 kmh 29.74 in1007.1 mb 0.00 in0.0 mm 0.00 in0.0 mm 0.00 in0.0 mm
01:31 PM 66.0°F18.9°C 56.3°F13.5°C 71% 11.3 mph SW18.2 kmh SW 14.0 mph22.5 kmh 29.74 in1007.1 mb 0.00 in0.0 mm 0.00 in0.0 mm 0.00 in0.0 mm
01:32 PM 66.1°F18.9°C 56.4°F13.6°C 71% 11.3 mph WSW18.2 kmh WSW 13.0 mph20.9 kmh 29.74 in1007.1 mb 0.00 in0.0 mm 0.00 in0.0 mm 0.00 in0.0 mm
01:33 PM 66.1°F18.9°C 56.4°F13.6°C 71% 12.5 mph SW20.1 kmh SW 15.0 mph24.1 kmh 29.74 in1007.1 mb 0.00 in0.0 mm 0.00 in0.0 mm 0.00 in0.0 mm
01:34 PM 66.3°F19.1°C 56.6°F13.7°C 71% 12.0 mph SW19.3 kmh SW 15.0 mph24.1 kmh 29.74 in1007.1 mb 0.00 in0.0 mm 0.00 in0.0 mm 0.00 in0.0 mm
01:35 PM 66.3°F19.1°C 56.6°F13.7°C 71% 12.2 mph WSW19.6 kmh WSW 14.0 mph22.5 kmh 29.74 in1007.1 mb 0.00 in0.0 mm 0.00 in0.0 mm 0.00 in0.0 mm
01:36 PM 66.3°F19.1°C 56.2°F13.4°C 70% 11.9 mph WSW19.2 kmh WSW 14.0 mph22.5 kmh 29.74 in1007.1 mb 0.00 in0.0 mm 0.00 in0.0 mm 0.00 in0.0 mm
01:37 PM 66.3°F19.1°C 56.6°F13.7°C 71% 11.7 mph SW18.8 kmh SW 15.0 mph24.1 kmh 29.74 in1007.1 mb 0.00 in0.0 mm 0.00 in0.0 mm 0.00 in0.0 mm
01:38 PM 66.3°F19.1°C 56.2°F13.4°C 70% 11.6 mph SW18.7 kmh SW 15.0 mph24.1 kmh 29.74 in1007.1 mb 0.00 in0.0 mm 0.00 in0.0 mm 0.00 in0.0 mm
01:39 PM 66.3°F19.1°C 56.2°F13.4°C 70% 10.3 mph WSW16.6 kmh WSW 14.0 mph22.5 kmh 29.74 in1007.1 mb 0.00 in0.0 mm 0.00 in0.0 mm 0.00 in0.0 mm
01:40 PM 66.3°F19.1°C 56.2°F13.4°C 70% 10.5 mph SW16.9 kmh SW 12.0 mph19.3 kmh 29.74 in1007.1 mb 0.00 in0.0 mm 0.00 in0.0 mm 0.00 in0.0 mm
01:41 PM 66.2°F19.0°C 56.1°F13.4°C 70% 9.7 mph SW15.6 kmh SW 12.0 mph19.3 kmh 29.74 in1007.1 mb 0.00 in0.0 mm 0.00 in0.0 mm 0.00 in0.0 mm
01:42 PM 66.3°F19.1°C 56.2°F13.4°C 70% 10.0 mph SW16.1 kmh SW 13.0 mph20.9 kmh 29.74 in1007.1 mb 0.00 in0.0 mm 0.00 in0.0 mm 0.00 in0.0 mm
01:43 PM 66.3°F19.1°C 56.2°F13.4°C 70% 12.0 mph SW19.3 kmh SW 13.0 mph20.9 kmh 29.74 in1007.1 mb 0.00 in0.0 mm 0.00 in0.0 mm 0.00 in0.0 mm
01:44 PM 66.3°F19.1°C 56.2°F13.4°C 70% 10.8 mph SW17.4 kmh SW 13.0 mph20.9 kmh 29.74 in1007.1 mb 0.00 in0.0 mm 0.00 in0.0 mm 0.00 in0.0 mm
01:45 PM 66.3°F19.1°C 56.2°F13.4°C 70% 11.0 mph SW17.7 kmh SW 12.0 mph19.3 kmh 29.74 in1007.1 mb 0.00 in0.0 mm 0.00 in0.0 mm 0.00 in0.0 mm
01:46 PM 66.3°F19.1°C 56.2°F13.4°C 70% 10.2 mph WSW16.4 kmh WSW 12.0 mph19.3 kmh 29.75 in1007.5 mb 0.00 in0.0 mm 0.00 in0.0 mm 0.00 in0.0 mm
01:47 PM 66.3°F19.1°C 56.2°F13.4°C 70% 11.8 mph SW19.0 kmh SW 13.0 mph20.9 kmh 29.74 in1007.1 mb 0.00 in0.0 mm 0.00 in0.0 mm 0.00 in0.0 mm
01:48 PM 66.3°F19.1°C 56.2°F13.4°C 70% 10.9 mph SW17.5 kmh SW 13.0 mph20.9 kmh 29.74 in1007.1 mb 0.00 in0.0 mm 0.00 in0.0 mm 0.00 in0.0 mm
01:49 PM 66.3°F19.1°C 55.8°F13.2°C 69% 10.6 mph SW17.1 kmh SW 12.0 mph19.3 kmh 29.74 in1007.1 mb 0.00 in0.0 mm 0.00 in0.0 mm 0.00 in0.0 mm
01:50 PM 66.2°F19.0°C 55.3°F12.9°C 68% 10.8 mph SW17.4 kmh SW 12.0 mph19.3 kmh 29.74 in1007.1 mb 0.00 in0.0 mm 0.00 in0.0 mm 0.00 in0.0 mm
01:51 PM 66.1°F18.9°C 55.6°F13.1°C 69% 9.9 mph SW15.9 kmh SW 12.0 mph19.3 kmh 29.74 in1007.1 mb 0.00 in0.0 mm 0.00 in0.0 mm 0.00 in0.0 mm
01:52 PM 66.1°F18.9°C 56.0°F13.3°C 70% 10.4 mph SW16.7 kmh SW 11.0 mph17.7 kmh 29.74 in1007.1 mb 0.00 in0.0 mm 0.00 in0.0 mm 0.00 in0.0 mm
01:53 PM 66.1°F18.9°C 56.0°F13.3°C 70% 8.9 mph SW14.3 kmh SW 11.0 mph17.7 kmh 29.74 in1007.1 mb 0.00 in0.0 mm 0.00 in0.0 mm 0.00 in0.0 mm
01:54 PM 66.3°F19.1°C 56.2°F13.4°C 70% 10.3 mph WSW16.6 kmh WSW 12.0 mph19.3 kmh 29.74 in1007.1 mb 0.00 in0.0 mm 0.00 in0.0 mm 0.00 in0.0 mm
01:55 PM 66.3°F19.1°C 56.6°F13.7°C 71% 10.7 mph SW17.2 kmh SW 12.0 mph19.3 kmh 29.74 in1007.1 mb 0.00 in0.0 mm 0.00 in0.0 mm 0.00 in0.0 mm
01:56 PM 66.3°F19.1°C 56.2°F13.4°C 70% 11.7 mph WSW18.8 kmh WSW 14.0 mph22.5 kmh 29.74 in1007.1 mb 0.00 in0.0 mm 0.00 in0.0 mm 0.00 in0.0 mm
01:57 PM 66.3°F19.1°C 56.2°F13.4°C 70% 10.5 mph WSW16.9 kmh WSW 14.0 mph22.5 kmh 29.74 in1007.1 mb 0.00 in0.0 mm 0.00 in0.0 mm 0.00 in0.0 mm
01:58 PM 66.3°F19.1°C 56.2°F13.4°C 70% 10.4 mph SW16.7 kmh SW 12.0 mph19.3 kmh 29.74 in1007.1 mb 0.00 in0.0 mm 0.00 in0.0 mm 0.00 in0.0 mm
01:59 PM 66.4°F19.1°C 56.3°F13.5°C 70% 10.2 mph WSW16.4 kmh WSW 13.0 mph20.9 kmh 29.74 in1007.1 mb 0.00 in0.0 mm 0.00 in0.0 mm 0.00 in0.0 mm
02:00 PM 66.5°F19.2°C 56.4°F13.6°C 70% 9.6 mph WSW15.4 kmh WSW 13.0 mph20.9 kmh 29.74 in1007.1 mb 0.00 in0.0 mm 0.00 in0.0 mm 0.00 in0.0 mm
02:01 PM 66.5°F19.2°C 56.0°F13.3°C 69% 10.6 mph SW17.1 kmh SW 13.0 mph20.9 kmh 29.74 in1007.1 mb 0.00 in0.0 mm 0.00 in0.0 mm 0.00 in0.0 mm
02:02 PM 66.5°F19.2°C 56.0°F13.3°C 69% 10.4 mph WSW16.7 kmh WSW 12.0 mph19.3 kmh 29.74 in1007.1 mb 0.00 in0.0 mm 0.00 in0.0 mm 0.00 in0.0 mm
02:03 PM 66.5°F19.2°C 56.4°F13.6°C 70% 10.6 mph SW17.1 kmh SW 12.0 mph19.3 kmh 29.74 in1007.1 mb 0.00 in0.0 mm 0.00 in0.0 mm 0.00 in0.0 mm
02:04 PM 66.4°F19.1°C 55.9°F13.3°C 69% 8.5 mph SW13.7 kmh SW 12.0 mph19.3 kmh 29.74 in1007.1 mb 0.00 in0.0 mm 0.00 in0.0 mm 0.00 in0.0 mm
02:05 PM 66.5°F19.2°C 56.4°F13.6°C 70% 10.3 mph SW16.6 kmh SW 12.0 mph19.3 kmh 29.74 in1007.1 mb 0.00 in0.0 mm 0.00 in0.0 mm 0.00 in0.0 mm
02:06 PM 66.4°F19.1°C 55.9°F13.3°C 69% 10.3 mph SW16.6 kmh SW 12.0 mph19.3 kmh 29.74 in1007.1 mb 0.00 in0.0 mm 0.00 in0.0 mm 0.00 in0.0 mm
02:07 PM 66.4°F19.1°C 56.3°F13.5°C 70% 10.6 mph SW17.1 kmh SW 12.0 mph19.3 kmh 29.74 in1007.1 mb 0.00 in0.0 mm 0.00 in0.0 mm 0.00 in0.0 mm
02:08 PM 66.5°F19.2°C 56.4°F13.6°C 70% 10.3 mph SW16.6 kmh SW 13.0 mph20.9 kmh 29.74 in1007.1 mb 0.00 in0.0 mm 0.00 in0.0 mm 0.00 in0.0 mm
02:09 PM 66.5°F19.2°C 56.4°F13.6°C 70% 9.8 mph SW15.8 kmh SW 13.0 mph20.9 kmh 29.74 in1007.1 mb 0.00 in0.0 mm 0.00 in0.0 mm 0.00 in0.0 mm
02:10 PM 66.5°F19.2°C 56.4°F13.6°C 70% 10.6 mph WSW17.1 kmh WSW 13.0 mph20.9 kmh 29.74 in1007.1 mb 0.00 in0.0 mm 0.00 in0.0 mm 0.00 in0.0 mm
02:11 PM 66.5°F19.2°C 56.4°F13.6°C 70% 10.7 mph WSW17.2 kmh WSW 13.0 mph20.9 kmh 29.74 in1007.1 mb 0.00 in0.0 mm 0.00 in0.0 mm 0.00 in0.0 mm
02:12 PM 66.5°F19.2°C 56.4°F13.6°C 70% 9.9 mph WSW15.9 kmh WSW 12.0 mph19.3 kmh 29.74 in1007.1 mb 0.00 in0.0 mm 0.00 in0.0 mm 0.00 in0.0 mm
02:13 PM 66.7°F19.3°C 57.0°F13.9°C 71% 11.0 mph SW17.7 kmh SW 12.0 mph19.3 kmh 29.74 in1007.1 mb 0.00 in0.0 mm 0.00 in0.0 mm 0.00 in0.0 mm
02:14 PM 66.7°F19.3°C 56.2°F13.4°C 69% 10.4 mph SW16.7 kmh SW 12.0 mph19.3 kmh 29.74 in1007.1 mb 0.00 in0.0 mm 0.00 in0.0 mm 0.00 in0.0 mm
02:15 PM 66.7°F19.3°C 56.2°F13.4°C 69% 10.0 mph SW16.1 kmh SW 12.0 mph19.3 kmh 29.74 in1007.1 mb 0.00 in0.0 mm 0.00 in0.0 mm 0.00 in0.0 mm
02:16 PM 66.7°F19.3°C 56.6°F13.7°C 70% 9.8 mph SW15.8 kmh SW 13.0 mph20.9 kmh 29.74 in1007.1 mb 0.00 in0.0 mm 0.00 in0.0 mm 0.00 in0.0 mm
02:17 PM 66.7°F19.3°C 56.2°F13.4°C 69% 10.2 mph SW16.4 kmh SW 13.0 mph20.9 kmh 29.74 in1007.1 mb 0.00 in0.0 mm 0.00 in0.0 mm 0.00 in0.0 mm
02:18 PM 66.8°F19.3°C 56.3°F13.5°C 69% 9.6 mph SW15.4 kmh SW 13.0 mph20.9 kmh 29.74 in1007.1 mb 0.00 in0.0 mm 0.00 in0.0 mm 0.00 in0.0 mm
02:19 PM 67.0°F19.4°C 56.9°F13.8°C 70% 9.1 mph SW14.6 kmh SW 13.0 mph20.9 kmh 29.74 in1007.1 mb 0.00 in0.0 mm 0.00 in0.0 mm 0.00 in0.0 mm
02:20 PM 67.1°F19.5°C 56.6°F13.7°C 69% 10.8 mph SW17.4 kmh SW 12.0 mph19.3 kmh 29.74 in1007.1 mb 0.00 in0.0 mm 0.00 in0.0 mm 0.00 in0.0 mm
02:21 PM 67.2°F19.6°C 56.7°F13.7°C 69% 9.9 mph SW15.9 kmh SW 12.0 mph19.3 kmh 29.74 in1007.1 mb 0.00 in0.0 mm 0.00 in0.0 mm 0.00 in0.0 mm
02:22 PM 67.4°F19.7°C 56.9°F13.8°C 69% 10.4 mph SW16.7 kmh SW 12.0 mph19.3 kmh 29.74 in1007.1 mb 0.00 in0.0 mm 0.00 in0.0 mm 0.00 in0.0 mm
02:23 PM 67.5°F19.7°C 56.6°F13.7°C 68% 11.5 mph SW18.5 kmh SW 14.0 mph22.5 kmh 29.74 in1007.1 mb 0.00 in0.0 mm 0.00 in0.0 mm 0.00 in0.0 mm
02:24 PM 67.5°F19.7°C 56.6°F13.7°C 68% 11.2 mph SW18.0 kmh SW 14.0 mph22.5 kmh 29.74 in1007.1 mb 0.00 in0.0 mm 0.00 in0.0 mm 0.00 in0.0 mm
02:25 PM 67.4°F19.7°C 56.5°F13.6°C 68% 12.1 mph SW19.5 kmh SW 14.0 mph22.5 kmh 29.74 in1007.1 mb 0.00 in0.0 mm 0.00 in0.0 mm 0.00 in0.0 mm
02:26 PM 67.4°F19.7°C 56.9°F13.8°C 69% 11.3 mph SW18.2 kmh SW 14.0 mph22.5 kmh 29.74 in1007.1 mb 0.00 in0.0 mm 0.00 in0.0 mm 0.00 in0.0 mm
02:27 PM 67.4°F19.7°C 56.9°F13.8°C 69% 11.5 mph SW18.5 kmh SW 13.0 mph20.9 kmh 29.74 in1007.1 mb 0.00 in0.0 mm 0.00 in0.0 mm 0.00 in0.0 mm
02:28 PM 67.3°F19.6°C 56.8°F13.8°C 69% 11.9 mph SW19.2 kmh SW 14.0 mph22.5 kmh 29.74 in1007.1 mb 0.00 in0.0 mm 0.00 in0.0 mm 0.00 in0.0 mm
02:29 PM 67.4°F19.7°C 57.3°F14.1°C 70% 12.8 mph SW20.6 kmh SW 15.0 mph24.1 kmh 29.74 in1007.1 mb 0.00 in0.0 mm 0.00 in0.0 mm 0.00 in0.0 mm
02:30 PM 67.3°F19.6°C 56.8°F13.8°C 69% 12.1 mph SW19.5 kmh SW 15.0 mph24.1 kmh 29.74 in1007.1 mb 0.00 in0.0 mm 0.00 in0.0 mm 0.00 in0.0 mm
02:31 PM 67.2°F19.6°C 56.7°F13.7°C 69% 12.2 mph SW19.6 kmh SW 15.0 mph24.1 kmh 29.74 in1007.1 mb 0.00 in0.0 mm 0.00 in0.0 mm 0.00 in0.0 mm
02:32 PM 67.1°F19.5°C 56.2°F13.4°C 68% 13.1 mph SW21.1 kmh SW 17.0 mph27.4 kmh 29.74 in1007.1 mb 0.00 in0.0 mm 0.00 in0.0 mm 0.00 in0.0 mm
02:33 PM 66.9°F19.4°C 56.8°F13.8°C 70% 14.8 mph SW23.8 kmh SW 17.0 mph27.4 kmh 29.74 in1007.1 mb 0.00 in0.0 mm 0.00 in0.0 mm 0.00 in0.0 mm
02:34 PM 66.8°F19.3°C 56.3°F13.5°C 69% 14.9 mph SW24.0 kmh SW 17.0 mph27.4 kmh 29.74 in1007.1 mb 0.00 in0.0 mm 0.00 in0.0 mm 0.00 in0.0 mm
02:35 PM 66.7°F19.3°C 56.6°F13.7°C 70% 13.2 mph SW21.2 kmh SW 16.0 mph25.7 kmh 29.74 in1007.1 mb 0.00 in0.0 mm 0.00 in0.0 mm 0.00 in0.0 mm
02:36 PM 66.6°F19.2°C 56.1°F13.4°C 69% 12.8 mph SW20.6 kmh SW 15.0 mph24.1 kmh 29.74 in1007.1 mb 0.00 in0.0 mm 0.00 in0.0 mm 0.00 in0.0 mm
02:37 PM 66.6°F19.2°C 56.5°F13.6°C 70% 13.3 mph SW21.4 kmh SW 16.0 mph25.7 kmh 29.74 in1007.1 mb 0.00 in0.0 mm 0.00 in0.0 mm 0.00 in0.0 mm
02:38 PM 66.6°F19.2°C 56.5°F13.6°C 70% 12.8 mph SW20.6 kmh SW 16.0 mph25.7 kmh 29.74 in1007.1 mb 0.00 in0.0 mm 0.00 in0.0 mm 0.00 in0.0 mm
02:39 PM 66.6°F19.2°C 56.1°F13.4°C 69% 12.1 mph SW19.5 kmh SW 16.0 mph25.7 kmh 29.74 in1007.1 mb 0.00 in0.0 mm 0.00 in0.0 mm 0.00 in0.0 mm
02:40 PM 66.5°F19.2°C 56.0°F13.3°C 69% 13.7 mph SW22.0 kmh SW 17.0 mph27.4 kmh 29.74 in1007.1 mb 0.00 in0.0 mm 0.00 in0.0 mm 0.00 in0.0 mm
02:41 PM 66.4°F19.1°C 55.9°F13.3°C 69% 13.2 mph SW21.2 kmh SW 17.0 mph27.4 kmh 29.74 in1007.1 mb 0.00 in0.0 mm 0.00 in0.0 mm 0.00 in0.0 mm
02:42 PM 66.3°F19.1°C 55.8°F13.2°C 69% 13.6 mph SW21.9 kmh SW 15.0 mph24.1 kmh 29.74 in1007.1 mb 0.00 in0.0 mm 0.00 in0.0 mm 0.00 in0.0 mm
02:43 PM 66.2°F19.0°C 56.1°F13.4°C 70% 11.2 mph SW18.0 kmh SW 15.0 mph24.1 kmh 29.74 in1007.1 mb 0.00 in0.0 mm 0.00 in0.0 mm 0.00 in0.0 mm
02:44 PM 66.3°F19.1°C 56.2°F13.4°C 70% 11.1 mph WSW17.9 kmh WSW 14.0 mph22.5 kmh 29.74 in1007.1 mb 0.00 in0.0 mm 0.00 in0.0 mm 0.00 in0.0 mm
02:45 PM 66.4°F19.1°C 56.3°F13.5°C 70% 13.2 mph SW21.2 kmh SW 15.0 mph24.1 kmh 29.74 in1007.1 mb 0.00 in0.0 mm 0.00 in0.0 mm 0.00 in0.0 mm
02:46 PM 66.5°F19.2°C 56.4°F13.6°C 70% 11.6 mph SW18.7 kmh SW 15.0 mph24.1 kmh 29.74 in1007.1 mb 0.00 in0.0 mm 0.00 in0.0 mm 0.00 in0.0 mm
02:47 PM 66.4°F19.1°C 55.9°F13.3°C 69% 10.8 mph SW17.4 kmh SW 15.0 mph24.1 kmh 29.74 in1007.1 mb 0.00 in0.0 mm 0.00 in0.0 mm 0.00 in0.0 mm
02:48 PM 66.5°F19.2°C 56.4°F13.6°C 70% 10.4 mph SW16.7 kmh SW 14.0 mph22.5 kmh 29.74 in1007.1 mb 0.00 in0.0 mm 0.00 in0.0 mm 0.00 in0.0 mm
02:49 PM 66.5°F19.2°C 56.4°F13.6°C 70% 11.0 mph SW17.7 kmh SW 13.0 mph20.9 kmh 29.74 in1007.1 mb 0.00 in0.0 mm 0.00 in0.0 mm 0.00 in0.0 mm
02:50 PM 66.5°F19.2°C 56.4°F13.6°C 70% 11.6 mph SW18.7 kmh SW 13.0 mph20.9 kmh 29.74 in1007.1 mb 0.00 in0.0 mm 0.00 in0.0 mm 0.00 in0.0 mm
02:51 PM 66.5°F19.2°C 56.4°F13.6°C 70% 10.2 mph SW16.4 kmh SW 13.0 mph20.9 kmh 29.74 in1007.1 mb 0.00 in0.0 mm 0.00 in0.0 mm 0.00 in0.0 mm
02:52 PM 66.5°F19.2°C 56.8°F13.8°C 71% 9.7 mph SW15.6 kmh SW 12.0 mph19.3 kmh 29.74 in1007.1 mb 0.00 in0.0 mm 0.00 in0.0 mm 0.00 in0.0 mm
02:53 PM 66.5°F19.2°C 56.8°F13.8°C 71% 10.1 mph SW16.3 kmh SW 12.0 mph19.3 kmh 29.74 in1007.1 mb 0.00 in0.0 mm 0.00 in0.0 mm 0.00 in0.0 mm
02:54 PM 66.6°F19.2°C 56.9°F13.8°C 71% 9.2 mph SW14.8 kmh SW 12.0 mph19.3 kmh 29.74 in1007.1 mb 0.00 in0.0 mm 0.00 in0.0 mm 0.00 in0.0 mm
02:55 PM 66.7°F19.3°C 56.6°F13.7°C 70% 9.8 mph SW15.8 kmh SW 12.0 mph19.3 kmh 29.74 in1007.1 mb 0.00 in0.0 mm 0.00 in0.0 mm 0.00 in0.0 mm
02:56 PM 66.7°F19.3°C 56.6°F13.7°C 70% 10.6 mph SW17.1 kmh SW 12.0 mph19.3 kmh 29.74 in1007.1 mb 0.00 in0.0 mm 0.00 in0.0 mm 0.00 in0.0 mm
02:57 PM 66.7°F19.3°C 56.6°F13.7°C 70% 9.2 mph WSW14.8 kmh WSW 12.0 mph19.3 kmh 29.74 in1007.1 mb 0.00 in0.0 mm 0.00 in0.0 mm 0.00 in0.0 mm
02:58 PM 66.6°F19.2°C 56.5°F13.6°C 70% 8.7 mph WSW14.0 kmh WSW 12.0 mph19.3 kmh 29.74 in1007.1 mb 0.00 in0.0 mm 0.00 in0.0 mm 0.00 in0.0 mm
02:59 PM 66.6°F19.2°C 56.9°F13.8°C 71% 11.2 mph SW18.0 kmh SW 13.0 mph20.9 kmh 29.74 in1007.1 mb 0.00 in0.0 mm 0.00 in0.0 mm 0.00 in0.0 mm
03:00 PM 66.7°F19.3°C 56.6°F13.7°C 70% 11.5 mph SW18.5 kmh SW 15.0 mph24.1 kmh 29.74 in1007.1 mb 0.00 in0.0 mm 0.00 in0.0 mm 0.00 in0.0 mm
03:01 PM 66.7°F19.3°C 56.2°F13.4°C 69% 10.6 mph SW17.1 kmh SW 15.0 mph24.1 kmh 29.74 in1007.1 mb 0.00 in0.0 mm 0.00 in0.0 mm 0.00 in0.0 mm
03:02 PM 66.8°F19.3°C 56.7°F13.7°C 70% 10.1 mph SW16.3 kmh SW 12.0 mph19.3 kmh 29.74 in1007.1 mb 0.00 in0.0 mm 0.00 in0.0 mm 0.00 in0.0 mm
03:03 PM 66.8°F19.3°C 56.7°F13.7°C 70% 9.5 mph SW15.3 kmh SW 12.0 mph19.3 kmh 29.74 in1007.1 mb 0.00 in0.0 mm 0.00 in0.0 mm 0.00 in0.0 mm
03:04 PM 66.9°F19.4°C 56.8°F13.8°C 70% 10.8 mph SW17.4 kmh SW 13.0 mph20.9 kmh 29.74 in1007.1 mb 0.00 in0.0 mm 0.00 in0.0 mm 0.00 in0.0 mm
03:05 PM 67.0°F19.4°C 56.9°F13.8°C 70% 9.8 mph SW15.8 kmh SW 13.0 mph20.9 kmh 29.74 in1007.1 mb 0.00 in0.0 mm 0.00 in0.0 mm 0.00 in0.0 mm
03:06 PM 67.1°F19.5°C 56.6°F13.7°C 69% 11.4 mph SW18.3 kmh SW 13.0 mph20.9 kmh 29.74 in1007.1 mb 0.00 in0.0 mm 0.00 in0.0 mm 0.00 in0.0 mm
03:07 PM 67.2°F19.6°C 57.1°F13.9°C 70% 10.7 mph WSW17.2 kmh WSW 13.0 mph20.9 kmh 29.74 in1007.1 mb 0.00 in0.0 mm 0.00 in0.0 mm 0.00 in0.0 mm
03:08 PM 67.3°F19.6°C 57.2°F14.0°C 70% 9.7 mph WSW15.6 kmh WSW 13.0 mph20.9 kmh 29.74 in1007.1 mb 0.00 in0.0 mm 0.00 in0.0 mm 0.00 in0.0 mm
03:09 PM 67.3°F19.6°C 57.2°F14.0°C 70% 11.8 mph SW19.0 kmh SW 15.0 mph24.1 kmh 29.74 in1007.1 mb 0.00 in0.0 mm 0.00 in0.0 mm 0.00 in0.0 mm
03:10 PM 67.3°F19.6°C 57.2°F14.0°C 70% 12.5 mph SW20.1 kmh SW 15.0 mph24.1 kmh 29.74 in1007.1 mb 0.00 in0.0 mm 0.00 in0.0 mm 0.00 in0.0 mm
03:11 PM 67.1°F19.5°C 56.2°F13.4°C 68% 12.0 mph SW19.3 kmh SW 15.0 mph24.1 kmh 29.74 in1007.1 mb 0.00 in0.0 mm 0.00 in0.0 mm 0.00 in0.0 mm
03:12 PM 67.1°F19.5°C 56.6°F13.7°C 69% 12.6 mph SW20.3 kmh SW 14.0 mph22.5 kmh 29.74 in1007.1 mb 0.00 in0.0 mm 0.00 in0.0 mm 0.00 in0.0 mm
03:13 PM 67.2°F19.6°C 56.7°F13.7°C 69% 11.1 mph WSW17.9 kmh WSW 14.0 mph22.5 kmh 29.74 in1007.1 mb 0.00 in0.0 mm 0.00 in0.0 mm 0.00 in0.0 mm
03:14 PM 67.2°F19.6°C 57.1°F13.9°C 70% 10.9 mph SW17.5 kmh SW 13.0 mph20.9 kmh 29.73 in1006.8 mb 0.00 in0.0 mm 0.00 in0.0 mm 0.00 in0.0 mm
03:15 PM 67.3°F19.6°C 57.2°F14.0°C 70% 11.5 mph SW18.5 kmh SW 13.0 mph20.9 kmh 29.73 in1006.8 mb 0.00 in0.0 mm 0.00 in0.0 mm 0.00 in0.0 mm
03:16 PM 67.4°F19.7°C 57.3°F14.1°C 70% 12.1 mph WSW19.5 kmh WSW 13.0 mph20.9 kmh 29.73 in1006.8 mb 0.00 in0.0 mm 0.00 in0.0 mm 0.00 in0.0 mm
03:17 PM 67.5°F19.7°C 57.4°F14.1°C 70% 11.6 mph WSW18.7 kmh WSW 15.0 mph24.1 kmh 29.73 in1006.8 mb 0.00 in0.0 mm 0.00 in0.0 mm 0.00 in0.0 mm
03:18 PM 67.3°F19.6°C 57.2°F14.0°C 70% 12.9 mph WSW20.8 kmh WSW 15.0 mph24.1 kmh 29.73 in1006.8 mb 0.00 in0.0 mm 0.00 in0.0 mm 0.00 in0.0 mm
03:19 PM 67.0°F19.4°C 56.5°F13.6°C 69% 12.9 mph WSW20.8 kmh WSW 15.0 mph24.1 kmh 29.73 in1006.8 mb 0.00 in0.0 mm 0.00 in0.0 mm 0.00 in0.0 mm
03:20 PM 66.8°F19.3°C 57.1°F13.9°C 71% 11.2 mph WSW18.0 kmh WSW 15.0 mph24.1 kmh 29.73 in1006.8 mb 0.00 in0.0 mm 0.00 in0.0 mm 0.00 in0.0 mm
03:21 PM 66.8°F19.3°C 56.7°F13.7°C 70% 12.5 mph WSW20.1 kmh WSW 14.0 mph22.5 kmh 29.73 in1006.8 mb 0.00 in0.0 mm 0.00 in0.0 mm 0.00 in0.0 mm
03:22 PM 66.5°F19.2°C 56.8°F13.8°C 71% 11.4 mph SW18.3 kmh SW 14.0 mph22.5 kmh 29.73 in1006.8 mb 0.00 in0.0 mm 0.00 in0.0 mm 0.00 in0.0 mm
03:23 PM 66.5°F19.2°C 56.8°F13.8°C 71% 11.1 mph WSW17.9 kmh WSW 14.0 mph22.5 kmh 29.73 in1006.8 mb 0.00 in0.0 mm 0.00 in0.0 mm 0.00 in0.0 mm
03:24 PM 66.5°F19.2°C 56.8°F13.8°C 71% 11.0 mph WSW17.7 kmh WSW 13.0 mph20.9 kmh 29.73 in1006.8 mb 0.00 in0.0 mm 0.00 in0.0 mm 0.00 in0.0 mm
03:25 PM 66.3°F19.1°C 56.2°F13.4°C 70% 10.5 mph WSW16.9 kmh WSW 13.0 mph20.9 kmh 29.73 in1006.8 mb 0.00 in0.0 mm 0.00 in0.0 mm 0.00 in0.0 mm
03:26 PM 66.3°F19.1°C 56.6°F13.7°C 71% 11.9 mph SW19.2 kmh SW 14.0 mph22.5 kmh 29.73 in1006.8 mb 0.00 in0.0 mm 0.00 in0.0 mm 0.00 in0.0 mm
03:27 PM 66.4°F19.1°C 56.7°F13.7°C 71% 10.2 mph WSW16.4 kmh WSW 14.0 mph22.5 kmh 29.73 in1006.8 mb 0.00 in0.0 mm 0.00 in0.0 mm 0.00 in0.0 mm
03:28 PM 66.6°F19.2°C 57.3°F14.1°C 72% 10.4 mph WSW16.7 kmh WSW 13.0 mph20.9 kmh 29.73 in1006.8 mb 0.00 in0.0 mm 0.00 in0.0 mm 0.00 in0.0 mm
03:29 PM 66.7°F19.3°C 57.0°F13.9°C 71% 10.3 mph SW16.6 kmh SW 13.0 mph20.9 kmh 29.73 in1006.8 mb 0.00 in0.0 mm 0.00 in0.0 mm 0.00 in0.0 mm
03:30 PM 66.8°F19.3°C 57.1°F13.9°C 71% 10.8 mph WSW17.4 kmh WSW 13.0 mph20.9 kmh 29.73 in1006.8 mb 0.00 in0.0 mm 0.00 in0.0 mm 0.00 in0.0 mm
03:31 PM 66.9°F19.4°C 57.2°F14.0°C 71% 9.2 mph WSW14.8 kmh WSW 13.0 mph20.9 kmh 29.73 in1006.8 mb 0.00 in0.0 mm 0.00 in0.0 mm 0.00 in0.0 mm
03:32 PM 66.8°F19.3°C 56.7°F13.7°C 70% 11.3 mph WSW18.2 kmh WSW 12.0 mph19.3 kmh 29.73 in1006.8 mb 0.00 in0.0 mm 0.00 in0.0 mm 0.00 in0.0 mm
03:33 PM 66.9°F19.4°C 56.8°F13.8°C 70% 10.4 mph WSW16.7 kmh WSW 13.0 mph20.9 kmh 29.73 in1006.8 mb 0.00 in0.0 mm 0.00 in0.0 mm 0.00 in0.0 mm
03:34 PM 66.8°F19.3°C 56.3°F13.5°C 69% 11.0 mph WSW17.7 kmh WSW 13.0 mph20.9 kmh 29.73 in1006.8 mb 0.00 in0.0 mm 0.00 in0.0 mm 0.00 in0.0 mm
03:35 PM 66.7°F19.3°C 56.2°F13.4°C 69% 9.2 mph SW14.8 kmh SW 12.0 mph19.3 kmh 29.73 in1006.8 mb 0.00 in0.0 mm 0.00 in0.0 mm 0.00 in0.0 mm
03:36 PM 66.7°F19.3°C 57.0°F13.9°C 71% 9.1 mph SW14.6 kmh SW 12.0 mph19.3 kmh 29.73 in1006.8 mb 0.00 in0.0 mm 0.00 in0.0 mm 0.00 in0.0 mm
03:37 PM 66.8°F19.3°C 57.1°F13.9°C 71% 9.6 mph SW15.4 kmh SW 12.0 mph19.3 kmh 29.73 in1006.8 mb 0.00 in0.0 mm 0.00 in0.0 mm 0.00 in0.0 mm
03:38 PM 66.9°F19.4°C 56.8°F13.8°C 70% 10.8 mph SW17.4 kmh SW 12.0 mph19.3 kmh 29.73 in1006.8 mb 0.00 in0.0 mm 0.00 in0.0 mm 0.00 in0.0 mm
03:39 PM 67.1°F19.5°C 57.0°F13.9°C 70% 10.1 mph SW16.3 kmh SW 12.0 mph19.3 kmh 29.73 in1006.8 mb 0.00 in0.0 mm 0.00 in0.0 mm 0.00 in0.0 mm
03:40 PM 67.2°F19.6°C 57.1°F13.9°C 70% 9.4 mph SW15.1 kmh SW 12.0 mph19.3 kmh 29.73 in1006.8 mb 0.00 in0.0 mm 0.00 in0.0 mm 0.00 in0.0 mm
03:41 PM 67.3°F19.6°C 56.8°F13.8°C 69% 10.8 mph WSW17.4 kmh WSW 12.0 mph19.3 kmh 29.73 in1006.8 mb 0.00 in0.0 mm 0.00 in0.0 mm 0.00 in0.0 mm
03:42 PM 67.2°F19.6°C 56.7°F13.7°C 69% 10.2 mph WSW16.4 kmh WSW 12.0 mph19.3 kmh 29.73 in1006.8 mb 0.00 in0.0 mm 0.00 in0.0 mm 0.00 in0.0 mm
03:43 PM 67.2°F19.6°C 56.7°F13.7°C 69% 11.2 mph WSW18.0 kmh WSW 12.0 mph19.3 kmh 29.73 in1006.8 mb 0.00 in0.0 mm 0.00 in0.0 mm 0.00 in0.0 mm
03:44 PM 67.2°F19.6°C 56.7°F13.7°C 69% 9.3 mph WSW15.0 kmh WSW 12.0 mph19.3 kmh 29.73 in1006.8 mb 0.00 in0.0 mm 0.00 in0.0 mm 0.00 in0.0 mm
03:45 PM 67.1°F19.5°C 56.6°F13.7°C 69% 9.5 mph WSW15.3 kmh WSW 11.0 mph17.7 kmh 29.73 in1006.8 mb 0.00 in0.0 mm 0.00 in0.0 mm 0.00 in0.0 mm
03:46 PM 67.1°F19.5°C 56.6°F13.7°C 69% 8.3 mph WSW13.4 kmh WSW 10.0 mph16.1 kmh 29.73 in1006.8 mb 0.00 in0.0 mm 0.00 in0.0 mm 0.00 in0.0 mm
03:47 PM 67.1°F19.5°C 57.0°F13.9°C 70% 8.8 mph WSW14.2 kmh WSW 11.0 mph17.7 kmh 29.73 in1006.8 mb 0.00 in0.0 mm 0.00 in0.0 mm 0.00 in0.0 mm
03:48 PM 67.2°F19.6°C 57.5°F14.2°C 71% 9.4 mph WSW15.1 kmh WSW 11.0 mph17.7 kmh 29.73 in1006.8 mb 0.00 in0.0 mm 0.00 in0.0 mm 0.00 in0.0 mm
03:49 PM 67.2°F19.6°C 57.1°F13.9°C 70% 10.8 mph WSW17.4 kmh WSW 12.0 mph19.3 kmh 29.73 in1006.8 mb 0.00 in0.0 mm 0.00 in0.0 mm 0.00 in0.0 mm
03:50 PM 67.2°F19.6°C 57.1°F13.9°C 70% 11.5 mph WSW18.5 kmh WSW 14.0 mph22.5 kmh 29.73 in1006.8 mb 0.00 in0.0 mm 0.00 in0.0 mm 0.00 in0.0 mm
03:51 PM 67.2°F19.6°C 57.1°F13.9°C 70% 10.7 mph WSW17.2 kmh WSW 14.0 mph22.5 kmh 29.73 in1006.8 mb 0.00 in0.0 mm 0.00 in0.0 mm 0.00 in0.0 mm
03:52 PM 67.4°F19.7°C 57.3°F14.1°C 70% 11.0 mph SW17.7 kmh SW 13.0 mph20.9 kmh 29.73 in1006.8 mb 0.00 in0.0 mm 0.00 in0.0 mm 0.00 in0.0 mm
03:53 PM 67.4°F19.7°C 56.9°F13.8°C 69% 9.8 mph WSW15.8 kmh WSW 13.0 mph20.9 kmh 29.73 in1006.8 mb 0.00 in0.0 mm 0.00 in0.0 mm 0.00 in0.0 mm
03:54 PM 67.5°F19.7°C 57.4°F14.1°C 70% 11.4 mph SW18.3 kmh SW 13.0 mph20.9 kmh 29.73 in1006.8 mb 0.00 in0.0 mm 0.00 in0.0 mm 0.00 in0.0 mm
03:55 PM 67.5°F19.7°C 57.0°F13.9°C 69% 10.1 mph WSW16.3 kmh WSW 13.0 mph20.9 kmh 29.73 in1006.8 mb 0.00 in0.0 mm 0.00 in0.0 mm 0.00 in0.0 mm
03:56 PM 67.5°F19.7°C 57.4°F14.1°C 70% 10.7 mph SW17.2 kmh SW 12.0 mph19.3 kmh 29.73 in1006.8 mb 0.00 in0.0 mm 0.00 in0.0 mm 0.00 in0.0 mm
03:57 PM 67.6°F19.8°C 57.1°F13.9°C 69% 10.6 mph WSW17.1 kmh WSW 13.0 mph20.9 kmh 29.73 in1006.8 mb 0.00 in0.0 mm 0.00 in0.0 mm 0.00 in0.0 mm
03:58 PM 67.6°F19.8°C 57.1°F13.9°C 69% 11.6 mph WSW18.7 kmh WSW 13.0 mph20.9 kmh 29.73 in1006.8 mb 0.00 in0.0 mm 0.00 in0.0 mm 0.00 in0.0 mm
03:59 PM 67.6°F19.8°C 57.1°F13.9°C 69% 11.3 mph WSW18.2 kmh WSW 13.0 mph20.9 kmh 29.73 in1006.8 mb 0.00 in0.0 mm 0.00 in0.0 mm 0.00 in0.0 mm
04:00 PM 67.6°F19.8°C 57.1°F13.9°C 69% 10.4 mph WSW16.7 kmh WSW 13.0 mph20.9 kmh 29.73 in1006.8 mb 0.00 in0.0 mm 0.00 in0.0 mm 0.00 in0.0 mm
04:01 PM 67.4°F19.7°C 56.9°F13.8°C 69% 11.7 mph WSW18.8 kmh WSW 14.0 mph22.5 kmh 29.73 in1006.8 mb 0.00 in0.0 mm 0.00 in0.0 mm 0.00 in0.0 mm
04:02 PM 67.2°F19.6°C 57.1°F13.9°C 70% 10.0 mph WSW16.1 kmh WSW 14.0 mph22.5 kmh 29.73 in1006.8 mb 0.00 in0.0 mm 0.00 in0.0 mm 0.00 in0.0 mm
04:03 PM 67.1°F19.5°C 56.6°F13.7°C 69% 10.0 mph WSW16.1 kmh WSW 13.0 mph20.9 kmh 29.73 in1006.8 mb 0.00 in0.0 mm 0.00 in0.0 mm 0.00 in0.0 mm
04:04 PM 66.9°F19.4°C 56.8°F13.8°C 70% 8.8 mph WSW14.2 kmh WSW 12.0 mph19.3 kmh 29.73 in1006.8 mb 0.00 in0.0 mm 0.00 in0.0 mm 0.00 in0.0 mm
04:05 PM 66.9°F19.4°C 57.2°F14.0°C 71% 9.8 mph WSW15.8 kmh WSW 12.0 mph19.3 kmh 29.73 in1006.8 mb 0.00 in0.0 mm 0.00 in0.0 mm 0.00 in0.0 mm
04:06 PM 66.8°F19.3°C 56.7°F13.7°C 70% 10.3 mph WSW16.6 kmh WSW 12.0 mph19.3 kmh 29.73 in1006.8 mb 0.00 in0.0 mm 0.00 in0.0 mm 0.00 in0.0 mm
04:07 PM 66.8°F19.3°C 56.7°F13.7°C 70% 8.4 mph WSW13.5 kmh WSW 12.0 mph19.3 kmh 29.73 in1006.8 mb 0.00 in0.0 mm 0.00 in0.0 mm 0.00 in0.0 mm
04:08 PM 66.8°F19.3°C 56.7°F13.7°C 70% 9.1 mph WSW14.6 kmh WSW 11.0 mph17.7 kmh 29.73 in1006.8 mb 0.00 in0.0 mm 0.00 in0.0 mm 0.00 in0.0 mm
04:09 PM 66.7°F19.3°C 56.6°F13.7°C 70% 10.5 mph WSW16.9 kmh WSW 12.0 mph19.3 kmh 29.73 in1006.8 mb 0.00 in0.0 mm 0.00 in0.0 mm 0.00 in0.0 mm
04:10 PM 66.7°F19.3°C 56.6°F13.7°C 70% 8.7 mph WSW14.0 kmh WSW 12.0 mph19.3 kmh 29.73 in1006.8 mb 0.00 in0.0 mm 0.00 in0.0 mm 0.00 in0.0 mm
04:11 PM 66.6°F19.2°C 56.1°F13.4°C 69% 7.2 mph WSW11.6 kmh WSW 11.0 mph17.7 kmh 29.73 in1006.8 mb 0.00 in0.0 mm 0.00 in0.0 mm 0.00 in0.0 mm
04:12 PM 66.7°F19.3°C 56.6°F13.7°C 70% 9.3 mph WSW15.0 kmh WSW 11.0 mph17.7 kmh 29.73 in1006.8 mb 0.00 in0.0 mm 0.00 in0.0 mm 0.00 in0.0 mm
04:13 PM 66.7°F19.3°C 57.0°F13.9°C 71% 10.5 mph WSW16.9 kmh WSW 13.0 mph20.9 kmh 29.73 in1006.8 mb 0.00 in0.0 mm 0.00 in0.0 mm 0.00 in0.0 mm
04:14 PM 66.6°F19.2°C 56.1°F13.4°C 69% 11.4 mph WSW18.3 kmh WSW 13.0 mph20.9 kmh 29.73 in1006.8 mb 0.00 in0.0 mm 0.00 in0.0 mm 0.00 in0.0 mm
04:15 PM 66.7°F19.3°C 56.2°F13.4°C 69% 10.7 mph WSW17.2 kmh WSW 13.0 mph20.9 kmh 29.73 in1006.8 mb 0.00 in0.0 mm 0.00 in0.0 mm 0.00 in0.0 mm
04:16 PM 66.7°F19.3°C 56.6°F13.7°C 70% 10.4 mph WSW16.7 kmh WSW 12.0 mph19.3 kmh 29.73 in1006.8 mb 0.00 in0.0 mm 0.00 in0.0 mm 0.00 in0.0 mm
04:17 PM 66.7°F19.3°C 57.0°F13.9°C 71% 10.8 mph WSW17.4 kmh WSW 13.0 mph20.9 kmh 29.73 in1006.8 mb 0.00 in0.0 mm 0.00 in0.0 mm 0.00 in0.0 mm
04:18 PM 66.8°F19.3°C 57.1°F13.9°C 71% 10.1 mph WSW16.3 kmh WSW 13.0 mph20.9 kmh 29.73 in1006.8 mb 0.00 in0.0 mm 0.00 in0.0 mm 0.00 in0.0 mm
04:19 PM 67.0°F19.4°C 57.3°F14.1°C 71% 10.3 mph WSW16.6 kmh WSW 13.0 mph20.9 kmh 29.73 in1006.8 mb 0.00 in0.0 mm 0.00 in0.0 mm 0.00 in0.0 mm
04:20 PM 67.1°F19.5°C 57.4°F14.1°C 71% 10.5 mph WSW16.9 kmh WSW 13.0 mph20.9 kmh 29.73 in1006.8 mb 0.00 in0.0 mm 0.00 in0.0 mm 0.00 in0.0 mm
04:21 PM 67.3°F19.6°C 58.0°F14.4°C 72% 12.4 mph SW20.0 kmh SW 15.0 mph24.1 kmh 29.73 in1006.8 mb 0.00 in0.0 mm 0.00 in0.0 mm 0.00 in0.0 mm
04:22 PM 67.4°F19.7°C 57.3°F14.1°C 70% 11.1 mph WSW17.9 kmh WSW 15.0 mph24.1 kmh 29.73 in1006.8 mb 0.00 in0.0 mm 0.00 in0.0 mm 0.00 in0.0 mm
04:23 PM 67.4°F19.7°C 56.9°F13.8°C 69% 10.6 mph WSW17.1 kmh WSW 13.0 mph20.9 kmh 29.73 in1006.8 mb 0.00 in0.0 mm 0.00 in0.0 mm 0.00 in0.0 mm
04:24 PM 67.4°F19.7°C 57.3°F14.1°C 70% 11.7 mph WSW18.8 kmh WSW 13.0 mph20.9 kmh 29.73 in1006.8 mb 0.00 in0.0 mm 0.00 in0.0 mm 0.00 in0.0 mm
04:25 PM 67.4°F19.7°C 57.3°F14.1°C 70% 11.9 mph WSW19.2 kmh WSW 15.0 mph24.1 kmh 29.73 in1006.8 mb 0.00 in0.0 mm 0.00 in0.0 mm 0.00 in0.0 mm
04:26 PM 67.4°F19.7°C 57.7°F14.3°C 71% 10.2 mph WSW16.4 kmh WSW 15.0 mph24.1 kmh 29.73 in1006.8 mb 0.00 in0.0 mm 0.00 in0.0 mm 0.00 in0.0 mm
04:27 PM 67.4°F19.7°C 57.7°F14.3°C 71% 8.8 mph WSW14.2 kmh WSW 14.0 mph22.5 kmh 29.73 in1006.8 mb 0.00 in0.0 mm 0.00 in0.0 mm 0.00 in0.0 mm
04:28 PM 67.3°F19.6°C 57.2°F14.0°C 70% 10.4 mph WSW16.7 kmh WSW 12.0 mph19.3 kmh 29.73 in1006.8 mb 0.00 in0.0 mm 0.00 in0.0 mm 0.00 in0.0 mm
04:29 PM 67.1°F19.5°C 57.0°F13.9°C 70% 10.0 mph WSW16.1 kmh WSW 14.0 mph22.5 kmh 29.73 in1006.8 mb 0.00 in0.0 mm 0.00 in0.0 mm 0.00 in0.0 mm
04:30 PM 67.0°F19.4°C 56.9°F13.8°C 70% 11.0 mph WSW17.7 kmh WSW 13.0 mph20.9 kmh 29.73 in1006.8 mb 0.00 in0.0 mm 0.00 in0.0 mm 0.00 in0.0 mm
04:31 PM 66.7°F19.3°C 56.6°F13.7°C 70% 11.7 mph SW18.8 kmh SW 13.0 mph20.9 kmh 29.73 in1006.8 mb 0.00 in0.0 mm 0.00 in0.0 mm 0.00 in0.0 mm
04:32 PM 66.5°F19.2°C 56.8°F13.8°C 71% 11.3 mph WSW18.2 kmh WSW 14.0 mph22.5 kmh 29.73 in1006.8 mb 0.00 in0.0 mm 0.00 in0.0 mm 0.00 in0.0 mm
04:33 PM 66.3°F19.1°C 57.0°F13.9°C 72% 9.7 mph WSW15.6 kmh WSW 14.0 mph22.5 kmh 29.73 in1006.8 mb 0.00 in0.0 mm 0.00 in0.0 mm 0.00 in0.0 mm
04:34 PM 66.2°F19.0°C 56.5°F13.6°C 71% 12.3 mph SW19.8 kmh SW 16.0 mph25.7 kmh 29.73 in1006.8 mb 0.00 in0.0 mm 0.00 in0.0 mm 0.00 in0.0 mm
04:35 PM 66.3°F19.1°C 56.6°F13.7°C 71% 11.7 mph WSW18.8 kmh WSW 16.0 mph25.7 kmh 29.73 in1006.8 mb 0.00 in0.0 mm 0.00 in0.0 mm 0.00 in0.0 mm
04:36 PM 66.3°F19.1°C 56.6°F13.7°C 71% 13.7 mph WSW22.0 kmh WSW 16.0 mph25.7 kmh 29.74 in1007.1 mb 0.00 in0.0 mm 0.00 in0.0 mm 0.00 in0.0 mm
04:37 PM 66.2°F19.0°C 56.9°F13.8°C 72% 9.5 mph WSW15.3 kmh WSW 16.0 mph25.7 kmh 29.74 in1007.1 mb 0.00 in0.0 mm 0.00 in0.0 mm 0.00 in0.0 mm
04:38 PM 66.2°F19.0°C 56.5°F13.6°C 71% 12.1 mph WSW19.5 kmh WSW 15.0 mph24.1 kmh 29.74 in1007.1 mb 0.00 in0.0 mm 0.00 in0.0 mm 0.00 in0.0 mm
04:39 PM 66.1°F18.9°C 56.4°F13.6°C 71% 13.0 mph WSW20.9 kmh WSW 15.0 mph24.1 kmh 29.74 in1007.1 mb 0.00 in0.0 mm 0.00 in0.0 mm 0.00 in0.0 mm
04:40 PM 66.0°F18.9°C 55.9°F13.3°C 70% 10.8 mph WSW17.4 kmh WSW 15.0 mph24.1 kmh 29.74 in1007.1 mb 0.00 in0.0 mm 0.00 in0.0 mm 0.00 in0.0 mm
04:41 PM 66.0°F18.9°C 56.3°F13.5°C 71% 9.8 mph WSW15.8 kmh WSW 15.0 mph24.1 kmh 29.73 in1006.8 mb 0.00 in0.0 mm 0.00 in0.0 mm 0.00 in0.0 mm
04:42 PM 65.9°F18.8°C 55.8°F13.2°C 70% 10.1 mph WSW16.3 kmh WSW 12.0 mph19.3 kmh 29.74 in1007.1 mb 0.00 in0.0 mm 0.00 in0.0 mm 0.00 in0.0 mm
04:43 PM 65.8°F18.8°C 56.1°F13.4°C 71% 9.8 mph WSW15.8 kmh WSW 12.0 mph19.3 kmh 29.74 in1007.1 mb 0.00 in0.0 mm 0.00 in0.0 mm 0.00 in0.0 mm
04:44 PM 65.6°F18.7°C 55.9°F13.3°C 71% 9.7 mph WSW15.6 kmh WSW 12.0 mph19.3 kmh 29.73 in1006.8 mb 0.00 in0.0 mm 0.00 in0.0 mm 0.00 in0.0 mm
04:45 PM 65.6°F18.7°C 56.3°F13.5°C 72% 10.9 mph WSW17.5 kmh WSW 13.0 mph20.9 kmh 29.73 in1006.8 mb 0.00 in0.0 mm 0.00 in0.0 mm 0.00 in0.0 mm
04:46 PM 65.5°F18.6°C 56.2°F13.4°C 72% 9.8 mph WSW15.8 kmh WSW 13.0 mph20.9 kmh 29.73 in1006.8 mb 0.00 in0.0 mm 0.00 in0.0 mm 0.00 in0.0 mm
04:47 PM 65.4°F18.6°C 55.7°F13.2°C 71% 9.8 mph W15.8 kmh W 11.0 mph17.7 kmh 29.73 in1006.8 mb 0.00 in0.0 mm 0.00 in0.0 mm 0.00 in0.0 mm
04:48 PM 65.3°F18.5°C 56.0°F13.3°C 72% 8.3 mph W13.4 kmh W 11.0 mph17.7 kmh 29.73 in1006.8 mb 0.00 in0.0 mm 0.00 in0.0 mm 0.00 in0.0 mm
04:49 PM 65.3°F18.5°C 56.4°F13.6°C 73% 8.0 mph W12.9 kmh W 11.0 mph17.7 kmh 29.73 in1006.8 mb 0.00 in0.0 mm 0.00 in0.0 mm 0.00 in0.0 mm
04:50 PM 65.4°F18.6°C 56.5°F13.6°C 73% 9.0 mph W14.5 kmh W 11.0 mph17.7 kmh 29.73 in1006.8 mb 0.00 in0.0 mm 0.00 in0.0 mm 0.00 in0.0 mm
04:51 PM 65.3°F18.5°C 55.6°F13.1°C 71% 10.2 mph WSW16.4 kmh WSW 11.0 mph17.7 kmh 29.73 in1006.8 mb 0.00 in0.0 mm 0.00 in0.0 mm 0.00 in0.0 mm
04:52 PM 65.3°F18.5°C 56.0°F13.3°C 72% 9.0 mph W14.5 kmh W 10.0 mph16.1 kmh 29.73 in1006.8 mb 0.00 in0.0 mm 0.00 in0.0 mm 0.00 in0.0 mm
04:53 PM 65.2°F18.4°C 55.9°F13.3°C 72% 9.0 mph W14.5 kmh W 11.0 mph17.7 kmh 29.73 in1006.8 mb 0.00 in0.0 mm 0.00 in0.0 mm 0.00 in0.0 mm
04:54 PM 65.1°F18.4°C 55.8°F13.2°C 72% 8.8 mph W14.2 kmh W 10.0 mph16.1 kmh 29.73 in1006.8 mb 0.00 in0.0 mm 0.00 in0.0 mm 0.00 in0.0 mm
04:55 PM 65.2°F18.4°C 55.9°F13.3°C 72% 8.4 mph W13.5 kmh W 10.0 mph16.1 kmh 29.74 in1007.1 mb 0.00 in0.0 mm 0.00 in0.0 mm 0.00 in0.0 mm
04:56 PM 65.2°F18.4°C 55.6°F13.1°C 71% 7.5 mph W12.1 kmh W 10.0 mph16.1 kmh 29.74 in1007.1 mb 0.00 in0.0 mm 0.00 in0.0 mm 0.00 in0.0 mm
04:57 PM 65.2°F18.4°C 56.3°F13.5°C 73% 10.1 mph WSW16.3 kmh WSW 13.0 mph20.9 kmh 29.74 in1007.1 mb 0.00 in0.0 mm 0.00 in0.0 mm 0.00 in0.0 mm
04:58 PM 65.3°F18.5°C 56.0°F13.3°C 72% 9.3 mph WSW15.0 kmh WSW 13.0 mph20.9 kmh 29.73 in1006.8 mb 0.00 in0.0 mm 0.00 in0.0 mm 0.00 in0.0 mm
04:59 PM 65.2°F18.4°C 55.9°F13.3°C 72% 9.5 mph WSW15.3 kmh WSW 12.0 mph19.3 kmh 29.74 in1007.1 mb 0.00 in0.0 mm 0.00 in0.0 mm 0.00 in0.0 mm
05:00 PM 65.2°F18.4°C 55.9°F13.3°C 72% 9.2 mph WSW14.8 kmh WSW 12.0 mph19.3 kmh 29.73 in1006.8 mb 0.00 in0.0 mm 0.00 in0.0 mm 0.00 in0.0 mm
05:01 PM 65.1°F18.4°C 55.8°F13.2°C 72% 9.8 mph WSW15.8 kmh WSW 11.0 mph17.7 kmh 29.73 in1006.8 mb 0.00 in0.0 mm 0.00 in0.0 mm 0.00 in0.0 mm
05:02 PM 65.1°F18.4°C 56.2°F13.4°C 73% 10.0 mph WSW16.1 kmh WSW 11.0 mph17.7 kmh 29.73 in1006.8 mb 0.00 in0.0 mm 0.00 in0.0 mm 0.00 in0.0 mm
05:03 PM 65.2°F18.4°C 56.3°F13.5°C 73% 9.0 mph WSW14.5 kmh WSW 12.0 mph19.3 kmh 29.73 in1006.8 mb 0.00 in0.0 mm 0.00 in0.0 mm 0.00 in0.0 mm
05:04 PM 65.2°F18.4°C 56.3°F13.5°C 73% 11.2 mph WSW18.0 kmh WSW 12.0 mph19.3 kmh 29.73 in1006.8 mb 0.00 in0.0 mm 0.00 in0.0 mm 0.00 in0.0 mm
05:05 PM 65.2°F18.4°C 56.7°F13.7°C 74% 9.3 mph WSW15.0 kmh WSW 12.0 mph19.3 kmh 29.73 in1006.8 mb 0.00 in0.0 mm 0.00 in0.0 mm 0.00 in0.0 mm
05:06 PM 65.4°F18.6°C 56.5°F13.6°C 73% 11.0 mph SW17.7 kmh SW 12.0 mph19.3 kmh 29.73 in1006.8 mb 0.00 in0.0 mm 0.00 in0.0 mm 0.00 in0.0 mm
05:07 PM 65.5°F18.6°C 56.6°F13.7°C 73% 11.7 mph WSW18.8 kmh WSW 14.0 mph22.5 kmh 29.73 in1006.8 mb 0.00 in0.0 mm 0.00 in0.0 mm 0.00 in0.0 mm
05:08 PM 65.6°F18.7°C 56.3°F13.5°C 72% 9.5 mph WSW15.3 kmh WSW 14.0 mph22.5 kmh 29.73 in1006.8 mb 0.00 in0.0 mm 0.00 in0.0 mm 0.00 in0.0 mm
05:09 PM 65.6°F18.7°C 56.7°F13.7°C 73% 9.5 mph WSW15.3 kmh WSW 12.0 mph19.3 kmh 29.73 in1006.8 mb 0.00 in0.0 mm 0.00 in0.0 mm 0.00 in0.0 mm
05:10 PM 65.7°F18.7°C 56.8°F13.8°C 73% 10.2 mph WSW16.4 kmh WSW 12.0 mph19.3 kmh 29.73 in1006.8 mb 0.00 in0.0 mm 0.00 in0.0 mm 0.00 in0.0 mm
05:11 PM 65.7°F18.7°C 56.4°F13.6°C 72% 10.5 mph WSW16.9 kmh WSW 12.0 mph19.3 kmh 29.73 in1006.8 mb 0.00 in0.0 mm 0.00 in0.0 mm 0.00 in0.0 mm
05:12 PM 65.8°F18.8°C 56.5°F13.6°C 72% 10.5 mph WSW16.9 kmh WSW 12.0 mph19.3 kmh 29.73 in1006.8 mb 0.00 in0.0 mm 0.00 in0.0 mm 0.00 in0.0 mm
05:13 PM 65.7°F18.7°C 56.4°F13.6°C 72% 11.2 mph WSW18.0 kmh WSW 12.0 mph19.3 kmh 29.73 in1006.8 mb 0.00 in0.0 mm 0.00 in0.0 mm 0.00 in0.0 mm
05:14 PM 65.8°F18.8°C 56.5°F13.6°C 72% 11.0 mph WSW17.7 kmh WSW 13.0 mph20.9 kmh 29.73 in1006.8 mb 0.00 in0.0 mm 0.00 in0.0 mm 0.00 in0.0 mm
05:15 PM 65.9°F18.8°C 57.0°F13.9°C 73% 9.0 mph WSW14.5 kmh WSW 12.0 mph19.3 kmh 29.73 in1006.8 mb 0.00 in0.0 mm 0.00 in0.0 mm 0.00 in0.0 mm
05:16 PM 65.9°F18.8°C 56.6°F13.7°C 72% 12.2 mph SW19.6 kmh SW 15.0 mph24.1 kmh 29.73 in1006.8 mb 0.00 in0.0 mm 0.00 in0.0 mm 0.00 in0.0 mm
05:17 PM 65.9°F18.8°C 56.6°F13.7°C 72% 11.4 mph WSW18.3 kmh WSW 15.0 mph24.1 kmh 29.73 in1006.8 mb 0.00 in0.0 mm 0.00 in0.0 mm 0.00 in0.0 mm
05:18 PM 66.0°F18.9°C 56.7°F13.7°C 72% 12.2 mph WSW19.6 kmh WSW 15.0 mph24.1 kmh 29.73 in1006.8 mb 0.00 in0.0 mm 0.00 in0.0 mm 0.00 in0.0 mm
05:19 PM 65.9°F18.8°C 57.0°F13.9°C 73% 12.6 mph WSW20.3 kmh WSW 15.0 mph24.1 kmh 29.73 in1006.8 mb 0.00 in0.0 mm 0.00 in0.0 mm 0.00 in0.0 mm
05:20 PM 65.7°F18.7°C 56.0°F13.3°C 71% 11.8 mph WSW19.0 kmh WSW 15.0 mph24.1 kmh 29.73 in1006.8 mb 0.00 in0.0 mm 0.00 in0.0 mm 0.00 in0.0 mm
05:21 PM 65.6°F18.7°C 56.3°F13.5°C 72% 11.5 mph SW18.5 kmh SW 14.0 mph22.5 kmh 29.73 in1006.8 mb 0.00 in0.0 mm 0.00 in0.0 mm 0.00 in0.0 mm
05:22 PM 65.7°F18.7°C 56.4°F13.6°C 72% 12.2 mph SW19.6 kmh SW 14.0 mph22.5 kmh 29.73 in1006.8 mb 0.00 in0.0 mm 0.00 in0.0 mm 0.00 in0.0 mm
05:23 PM 65.7°F18.7°C 56.4°F13.6°C 72% 11.8 mph SW19.0 kmh SW 13.0 mph20.9 kmh 29.73 in1006.8 mb 0.00 in0.0 mm 0.00 in0.0 mm 0.00 in0.0 mm
05:24 PM 65.8°F18.8°C 56.5°F13.6°C 72% 10.4 mph WSW16.7 kmh WSW 13.0 mph20.9 kmh 29.73 in1006.8 mb 0.00 in0.0 mm 0.00 in0.0 mm 0.00 in0.0 mm
05:25 PM 65.9°F18.8°C 56.6°F13.7°C 72% 10.9 mph SW17.5 kmh SW 13.0 mph20.9 kmh 29.73 in1006.8 mb 0.00 in0.0 mm 0.00 in0.0 mm 0.00 in0.0 mm
05:26 PM 65.9°F18.8°C 56.6°F13.7°C 72% 11.3 mph SW18.2 kmh SW 14.0 mph22.5 kmh 29.73 in1006.8 mb 0.00 in0.0 mm 0.00 in0.0 mm 0.00 in0.0 mm
05:27 PM 66.0°F18.9°C 56.7°F13.7°C 72% 12.0 mph WSW19.3 kmh WSW 14.0 mph22.5 kmh 29.73 in1006.8 mb 0.00 in0.0 mm 0.00 in0.0 mm 0.00 in0.0 mm
05:28 PM 66.0°F18.9°C 56.7°F13.7°C 72% 11.0 mph WSW17.7 kmh WSW 13.0 mph20.9 kmh 29.73 in1006.8 mb 0.00 in0.0 mm 0.00 in0.0 mm 0.00 in0.0 mm
05:29 PM 66.0°F18.9°C 56.7°F13.7°C 72% 12.0 mph WSW19.3 kmh WSW 14.0 mph22.5 kmh 29.73 in1006.8 mb 0.00 in0.0 mm 0.00 in0.0 mm 0.00 in0.0 mm
05:30 PM 65.9°F18.8°C 56.6°F13.7°C 72% 10.0 mph WSW16.1 kmh WSW 12.0 mph19.3 kmh 29.73 in1006.8 mb 0.00 in0.0 mm 0.00 in0.0 mm 0.00 in0.0 mm
05:31 PM 65.9°F18.8°C 56.6°F13.7°C 72% 10.0 mph WSW16.1 kmh WSW 12.0 mph19.3 kmh 29.73 in1006.8 mb 0.00 in0.0 mm 0.00 in0.0 mm 0.00 in0.0 mm
05:32 PM 65.9°F18.8°C 57.0°F13.9°C 73% 10.1 mph WSW16.3 kmh WSW 12.0 mph19.3 kmh 29.73 in1006.8 mb 0.00 in0.0 mm 0.00 in0.0 mm 0.00 in0.0 mm
05:33 PM 65.9°F18.8°C 57.0°F13.9°C 73% 11.8 mph WSW19.0 kmh WSW 14.0 mph22.5 kmh 29.73 in1006.8 mb 0.00 in0.0 mm 0.00 in0.0 mm 0.00 in0.0 mm
05:34 PM 65.8°F18.8°C 56.5°F13.6°C 72% 10.6 mph WSW17.1 kmh WSW 14.0 mph22.5 kmh 29.73 in1006.8 mb 0.00 in0.0 mm 0.00 in0.0 mm 0.00 in0.0 mm
05:35 PM 65.6°F18.7°C 56.3°F13.5°C 72% 9.4 mph WSW15.1 kmh WSW 12.0 mph19.3 kmh 29.73 in1006.8 mb 0.00 in0.0 mm 0.00 in0.0 mm 0.00 in0.0 mm
05:36 PM 65.5°F18.6°C 56.2°F13.4°C 72% 11.0 mph WSW17.7 kmh WSW 12.0 mph19.3 kmh 29.73 in1006.8 mb 0.00 in0.0 mm 0.00 in0.0 mm 0.00 in0.0 mm
05:37 PM 65.4°F18.6°C 56.9°F13.8°C 74% 12.0 mph WSW19.3 kmh WSW 13.0 mph20.9 kmh 29.73 in1006.8 mb 0.00 in0.0 mm 0.00 in0.0 mm 0.00 in0.0 mm
05:38 PM 65.4°F18.6°C 56.9°F13.8°C 74% 12.3 mph SW19.8 kmh SW 13.0 mph20.9 kmh 29.73 in1006.8 mb 0.00 in0.0 mm 0.00 in0.0 mm 0.00 in0.0 mm
05:39 PM 65.4°F18.6°C 56.5°F13.6°C 73% 12.4 mph SW20.0 kmh SW 14.0 mph22.5 kmh 29.73 in1006.8 mb 0.00 in0.0 mm 0.00 in0.0 mm 0.00 in0.0 mm
05:40 PM 65.4°F18.6°C 56.9°F13.8°C 74% 10.8 mph WSW17.4 kmh WSW 14.0 mph22.5 kmh 29.73 in1006.8 mb 0.00 in0.0 mm 0.00 in0.0 mm 0.00 in0.0 mm
05:41 PM 65.4°F18.6°C 56.9°F13.8°C 74% 11.3 mph WSW18.2 kmh WSW 13.0 mph20.9 kmh 29.73 in1006.8 mb 0.00 in0.0 mm 0.00 in0.0 mm 0.00 in0.0 mm
05:42 PM 65.5°F18.6°C 57.0°F13.9°C 74% 11.0 mph SW17.7 kmh SW 14.0 mph22.5 kmh 29.73 in1006.8 mb 0.00 in0.0 mm 0.00 in0.0 mm 0.00 in0.0 mm
05:43 PM 65.5°F18.6°C 56.6°F13.7°C 73% 13.0 mph SW20.9 kmh SW 14.0 mph22.5 kmh 29.73 in1006.8 mb 0.00 in0.0 mm 0.00 in0.0 mm 0.00 in0.0 mm
05:44 PM 65.4°F18.6°C 56.1°F13.4°C 72% 13.1 mph SW21.1 kmh SW 14.0 mph22.5 kmh 29.73 in1006.8 mb 0.00 in0.0 mm 0.00 in0.0 mm 0.00 in0.0 mm
05:45 PM 65.3°F18.5°C 56.0°F13.3°C 72% 13.3 mph SW21.4 kmh SW 15.0 mph24.1 kmh 29.73 in1006.8 mb 0.00 in0.0 mm 0.00 in0.0 mm 0.00 in0.0 mm
05:46 PM 65.2°F18.4°C 56.3°F13.5°C 73% 13.5 mph SW21.7 kmh SW 15.0 mph24.1 kmh 29.73 in1006.8 mb 0.00 in0.0 mm 0.00 in0.0 mm 0.00 in0.0 mm
05:47 PM 65.1°F18.4°C 56.2°F13.4°C 73% 12.8 mph SW20.6 kmh SW 15.0 mph24.1 kmh 29.73 in1006.8 mb 0.00 in0.0 mm 0.00 in0.0 mm 0.00 in0.0 mm
05:48 PM 65.1°F18.4°C 56.2°F13.4°C 73% 14.3 mph SW23.0 kmh SW 17.0 mph27.4 kmh 29.73 in1006.8 mb 0.00 in0.0 mm 0.00 in0.0 mm 0.00 in0.0 mm
05:49 PM 65.2°F18.4°C 56.3°F13.5°C 73% 11.8 mph SW19.0 kmh SW 17.0 mph27.4 kmh 29.73 in1006.8 mb 0.00 in0.0 mm 0.00 in0.0 mm 0.00 in0.0 mm
05:50 PM 65.2°F18.4°C 56.3°F13.5°C 73% 12.7 mph WSW20.4 kmh WSW 14.0 mph22.5 kmh 29.73 in1006.8 mb 0.00 in0.0 mm 0.00 in0.0 mm 0.00 in0.0 mm
05:51 PM 65.1°F18.4°C 56.2°F13.4°C 73% 12.5 mph WSW20.1 kmh WSW 15.0 mph24.1 kmh 29.74 in1007.1 mb 0.00 in0.0 mm 0.00 in0.0 mm 0.00 in0.0 mm
05:52 PM 65.0°F18.3°C 56.1°F13.4°C 73% 13.7 mph WSW22.0 kmh WSW 16.0 mph25.7 kmh 29.74 in1007.1 mb 0.00 in0.0 mm 0.00 in0.0 mm 0.00 in0.0 mm
05:53 PM 64.9°F18.3°C 56.0°F13.3°C 73% 13.7 mph SW22.0 kmh SW 16.0 mph25.7 kmh 29.74 in1007.1 mb 0.00 in0.0 mm 0.00 in0.0 mm 0.00 in0.0 mm
05:54 PM 64.7°F18.2°C 55.8°F13.2°C 73% 12.6 mph WSW20.3 kmh WSW 15.0 mph24.1 kmh 29.74 in1007.1 mb 0.00 in0.0 mm 0.00 in0.0 mm 0.00 in0.0 mm
05:55 PM 64.6°F18.1°C 55.7°F13.2°C 73% 12.0 mph WSW19.3 kmh WSW 14.0 mph22.5 kmh 29.74 in1007.1 mb 0.00 in0.0 mm 0.00 in0.0 mm 0.00 in0.0 mm
05:56 PM 64.5°F18.1°C 56.0°F13.3°C 74% 11.0 mph WSW17.7 kmh WSW 14.0 mph22.5 kmh 29.74 in1007.1 mb 0.00 in0.0 mm 0.00 in0.0 mm 0.00 in0.0 mm
05:57 PM 64.3°F17.9°C 55.8°F13.2°C 74% 12.9 mph WSW20.8 kmh WSW 13.0 mph20.9 kmh 29.74 in1007.1 mb 0.00 in0.0 mm 0.00 in0.0 mm 0.00 in0.0 mm
05:58 PM 64.3°F17.9°C 55.8°F13.2°C 74% 13.3 mph WSW21.4 kmh WSW 15.0 mph24.1 kmh 29.74 in1007.1 mb 0.00 in0.0 mm 0.00 in0.0 mm 0.00 in0.0 mm
05:59 PM 64.2°F17.9°C 55.7°F13.2°C 74% 12.4 mph WSW20.0 kmh WSW 15.0 mph24.1 kmh 29.74 in1007.1 mb 0.00 in0.0 mm 0.00 in0.0 mm 0.00 in0.0 mm
06:00 PM 64.3°F17.9°C 55.8°F13.2°C 74% 11.9 mph WSW19.2 kmh WSW 14.0 mph22.5 kmh 29.74 in1007.1 mb 0.00 in0.0 mm 0.00 in0.0 mm 0.00 in0.0 mm
06:01 PM 64.2°F17.9°C 55.7°F13.2°C 74% 13.2 mph WSW21.2 kmh WSW 14.0 mph22.5 kmh 29.74 in1007.1 mb 0.00 in0.0 mm 0.00 in0.0 mm 0.00 in0.0 mm
06:02 PM 64.0°F17.8°C 55.2°F12.9°C 73% 10.9 mph WSW17.5 kmh WSW 14.0 mph22.5 kmh 29.74 in1007.1 mb 0.00 in0.0 mm 0.00 in0.0 mm 0.00 in0.0 mm
06:03 PM 64.0°F17.8°C 55.5°F13.1°C 74% 10.8 mph WSW17.4 kmh WSW 14.0 mph22.5 kmh 29.74 in1007.1 mb 0.00 in0.0 mm 0.00 in0.0 mm 0.00 in0.0 mm
06:04 PM 63.9°F17.7°C 55.8°F13.2°C 75% 12.7 mph WSW20.4 kmh WSW 15.0 mph24.1 kmh 29.74 in1007.1 mb 0.00 in0.0 mm 0.00 in0.0 mm 0.00 in0.0 mm
06:05 PM 63.8°F17.7°C 55.7°F13.2°C 75% 10.3 mph WSW16.6 kmh WSW 15.0 mph24.1 kmh 29.74 in1007.1 mb 0.00 in0.0 mm 0.00 in0.0 mm 0.00 in0.0 mm
06:06 PM 63.9°F17.7°C 55.8°F13.2°C 75% 10.0 mph SW16.1 kmh SW 12.0 mph19.3 kmh 29.74 in1007.1 mb 0.00 in0.0 mm 0.00 in0.0 mm 0.00 in0.0 mm
06:07 PM 63.9°F17.7°C 55.8°F13.2°C 75% 12.0 mph SW19.3 kmh SW 14.0 mph22.5 kmh 29.74 in1007.1 mb 0.00 in0.0 mm 0.00 in0.0 mm 0.00 in0.0 mm
06:08 PM 63.9°F17.7°C 55.8°F13.2°C 75% 10.4 mph WSW16.7 kmh WSW 11.0 mph17.7 kmh 29.74 in1007.1 mb 0.00 in0.0 mm 0.00 in0.0 mm 0.00 in0.0 mm
06:09 PM 64.0°F17.8°C 55.9°F13.3°C 75% 9.4 mph SW15.1 kmh SW 11.0 mph17.7 kmh 29.74 in1007.1 mb 0.00 in0.0 mm 0.00 in0.0 mm 0.00 in0.0 mm
06:10 PM 64.1°F17.8°C 55.6°F13.1°C 74% 11.0 mph WSW17.7 kmh WSW 13.0 mph20.9 kmh 29.74 in1007.1 mb 0.00 in0.0 mm 0.00 in0.0 mm 0.00 in0.0 mm
06:11 PM 63.9°F17.7°C 55.1°F12.8°C 73% 10.9 mph WSW17.5 kmh WSW 13.0 mph20.9 kmh 29.74 in1007.1 mb 0.00 in0.0 mm 0.00 in0.0 mm 0.00 in0.0 mm
06:12 PM 63.8°F17.7°C 55.3°F12.9°C 74% 8.4 mph WSW13.5 kmh WSW 13.0 mph20.9 kmh 29.74 in1007.1 mb 0.00 in0.0 mm 0.00 in0.0 mm 0.00 in0.0 mm
06:13 PM 63.7°F17.6°C 55.6°F13.1°C 75% 11.0 mph WSW17.7 kmh WSW 13.0 mph20.9 kmh 29.74 in1007.1 mb 0.00 in0.0 mm 0.00 in0.0 mm 0.00 in0.0 mm
06:14 PM 63.6°F17.6°C 55.5°F13.1°C 75% 10.7 mph WSW17.2 kmh WSW 13.0 mph20.9 kmh 29.74 in1007.1 mb 0.00 in0.0 mm 0.00 in0.0 mm 0.00 in0.0 mm
06:15 PM 63.6°F17.6°C 55.5°F13.1°C 75% 11.5 mph SW18.5 kmh SW 14.0 mph22.5 kmh 29.74 in1007.1 mb 0.00 in0.0 mm 0.00 in0.0 mm 0.00 in0.0 mm
06:16 PM 63.6°F17.6°C 55.9°F13.3°C 76% 13.0 mph WSW20.9 kmh WSW 16.0 mph25.7 kmh 29.74 in1007.1 mb 0.00 in0.0 mm 0.00 in0.0 mm 0.00 in0.0 mm
06:17 PM 63.7°F17.6°C 56.0°F13.3°C 76% 11.0 mph WSW17.7 kmh WSW 15.0 mph24.1 kmh 29.74 in1007.1 mb 0.00 in0.0 mm 0.00 in0.0 mm 0.00 in0.0 mm
06:18 PM 63.6°F17.6°C 55.9°F13.3°C 76% 14.0 mph WSW22.5 kmh WSW 16.0 mph25.7 kmh 29.74 in1007.1 mb 0.00 in0.0 mm 0.00 in0.0 mm 0.00 in0.0 mm
06:19 PM 63.6°F17.6°C 55.9°F13.3°C 76% 14.0 mph WSW22.5 kmh WSW 16.0 mph25.7 kmh 29.74 in1007.1 mb 0.00 in0.0 mm 0.00 in0.0 mm 0.00 in0.0 mm
06:20 PM 63.6°F17.6°C 55.9°F13.3°C 76% 13.9 mph SW22.4 kmh SW 15.0 mph24.1 kmh 29.74 in1007.1 mb 0.00 in0.0 mm 0.00 in0.0 mm 0.00 in0.0 mm
06:21 PM 63.7°F17.6°C 56.0°F13.3°C 76% 12.0 mph WSW19.3 kmh WSW 15.0 mph24.1 kmh 29.74 in1007.1 mb 0.00 in0.0 mm 0.00 in0.0 mm 0.00 in0.0 mm
06:22 PM 63.7°F17.6°C 56.0°F13.3°C 76% 14.5 mph WSW23.3 kmh WSW 17.0 mph27.4 kmh 29.74 in1007.1 mb 0.00 in0.0 mm 0.00 in0.0 mm 0.00 in0.0 mm
06:23 PM 63.7°F17.6°C 55.6°F13.1°C 75% 14.8 mph WSW23.8 kmh WSW 18.0 mph29.0 kmh 29.74 in1007.1 mb 0.00 in0.0 mm 0.00 in0.0 mm 0.00 in0.0 mm
06:24 PM 63.7°F17.6°C 56.0°F13.3°C 76% 13.0 mph WSW20.9 kmh WSW 15.0 mph24.1 kmh 29.73 in1006.8 mb 0.00 in0.0 mm 0.00 in0.0 mm 0.00 in0.0 mm
06:25 PM 63.6°F17.6°C 55.5°F13.1°C 75% 13.0 mph WSW20.9 kmh WSW 16.0 mph25.7 kmh 29.73 in1006.8 mb 0.00 in0.0 mm 0.00 in0.0 mm 0.00 in0.0 mm
06:26 PM 63.6°F17.6°C 55.9°F13.3°C 76% 14.7 mph WSW23.7 kmh WSW 16.0 mph25.7 kmh 29.73 in1006.8 mb 0.00 in0.0 mm 0.00 in0.0 mm 0.00 in0.0 mm
06:27 PM 63.4°F17.4°C 55.3°F12.9°C 75% 13.6 mph WSW21.9 kmh WSW 16.0 mph25.7 kmh 29.73 in1006.8 mb 0.00 in0.0 mm 0.00 in0.0 mm 0.00 in0.0 mm
06:28 PM 63.1°F17.3°C 55.4°F13.0°C 76% 14.0 mph WSW22.5 kmh WSW 17.0 mph27.4 kmh 29.73 in1006.8 mb 0.00 in0.0 mm 0.00 in0.0 mm 0.00 in0.0 mm
06:29 PM 62.8°F17.1°C 55.1°F12.8°C 76% 13.0 mph WSW20.9 kmh WSW 15.0 mph24.1 kmh 29.74 in1007.1 mb 0.00 in0.0 mm 0.00 in0.0 mm 0.00 in0.0 mm
06:30 PM 62.7°F17.1°C 55.4°F13.0°C 77% 13.4 mph WSW21.6 kmh WSW 14.0 mph22.5 kmh 29.74 in1007.1 mb 0.00 in0.0 mm 0.00 in0.0 mm 0.00 in0.0 mm
06:31 PM 62.6°F17.0°C 55.3°F12.9°C 77% 11.2 mph WSW18.0 kmh WSW 14.0 mph22.5 kmh 29.74 in1007.1 mb 0.00 in0.0 mm 0.00 in0.0 mm 0.00 in0.0 mm
06:32 PM 62.4°F16.9°C 55.1°F12.8°C 77% 11.7 mph WSW18.8 kmh WSW 14.0 mph22.5 kmh 29.74 in1007.1 mb 0.00 in0.0 mm 0.00 in0.0 mm 0.00 in0.0 mm
06:33 PM 62.4°F16.9°C 55.4°F13.0°C 78% 12.9 mph W20.8 kmh W 16.0 mph25.7 kmh 29.74 in1007.1 mb 0.00 in0.0 mm 0.00 in0.0 mm 0.00 in0.0 mm
06:34 PM 62.2°F16.8°C 54.9°F12.7°C 77% 13.4 mph W21.6 kmh W 16.0 mph25.7 kmh 29.74 in1007.1 mb 0.00 in0.0 mm 0.00 in0.0 mm 0.00 in0.0 mm
06:35 PM 62.2°F16.8°C 54.9°F12.7°C 77% 11.9 mph WSW19.2 kmh WSW 15.0 mph24.1 kmh 29.74 in1007.1 mb 0.00 in0.0 mm 0.00 in0.0 mm 0.00 in0.0 mm
06:36 PM 62.1°F16.7°C 54.8°F12.7°C 77% 13.0 mph WSW20.9 kmh WSW 14.0 mph22.5 kmh 29.74 in1007.1 mb 0.00 in0.0 mm 0.00 in0.0 mm 0.00 in0.0 mm
06:37 PM 62.0°F16.7°C 55.1°F12.8°C 78% 12.0 mph WSW19.3 kmh WSW 13.0 mph20.9 kmh 29.74 in1007.1 mb 0.00 in0.0 mm 0.00 in0.0 mm 0.00 in0.0 mm
06:38 PM 61.9°F16.6°C 55.0°F12.8°C 78% 14.0 mph WSW22.5 kmh WSW 14.0 mph22.5 kmh 29.73 in1006.8 mb 0.00 in0.0 mm 0.00 in0.0 mm 0.00 in0.0 mm
06:39 PM 62.0°F16.7°C 55.1°F12.8°C 78% 13.1 mph WSW21.1 kmh WSW 15.0 mph24.1 kmh 29.74 in1007.1 mb 0.00 in0.0 mm 0.00 in0.0 mm 0.00 in0.0 mm
06:40 PM 61.9°F16.6°C 54.6°F12.6°C 77% 13.3 mph WSW21.4 kmh WSW 16.0 mph25.7 kmh 29.74 in1007.1 mb 0.00 in0.0 mm 0.00 in0.0 mm 0.00 in0.0 mm
06:41 PM 61.8°F16.6°C 54.9°F12.7°C 78% 12.7 mph WSW20.4 kmh WSW 16.0 mph25.7 kmh 29.74 in1007.1 mb 0.00 in0.0 mm 0.00 in0.0 mm 0.00 in0.0 mm
06:42 PM 61.8°F16.6°C 54.5°F12.5°C 77% 14.0 mph WSW22.5 kmh WSW 16.0 mph25.7 kmh 29.74 in1007.1 mb 0.00 in0.0 mm 0.00 in0.0 mm 0.00 in0.0 mm
06:43 PM 61.7°F16.5°C 54.8°F12.7°C 78% 11.0 mph WSW17.7 kmh WSW 15.0 mph24.1 kmh 29.73 in1006.8 mb 0.00 in0.0 mm 0.00 in0.0 mm 0.00 in0.0 mm
06:44 PM 61.8°F16.6°C 55.2°F12.9°C 79% 10.8 mph WSW17.4 kmh WSW 12.0 mph19.3 kmh 29.74 in1007.1 mb 0.00 in0.0 mm 0.00 in0.0 mm 0.00 in0.0 mm
06:45 PM 62.0°F16.7°C 55.8°F13.2°C 80% 12.0 mph WSW19.3 kmh WSW 15.0 mph24.1 kmh 29.74 in1007.1 mb 0.00 in0.0 mm 0.00 in0.0 mm 0.00 in0.0 mm
06:46 PM 61.8°F16.6°C 54.9°F12.7°C 78% 12.0 mph W19.3 kmh W 14.0 mph22.5 kmh 29.74 in1007.1 mb 0.00 in0.0 mm 0.00 in0.0 mm 0.00 in0.0 mm
06:47 PM 61.8°F16.6°C 54.9°F12.7°C 78% 12.0 mph W19.3 kmh W 13.0 mph20.9 kmh 29.74 in1007.1 mb 0.00 in0.0 mm 0.00 in0.0 mm 0.00 in0.0 mm
06:48 PM 61.7°F16.5°C 55.1°F12.8°C 79% 12.6 mph W20.3 kmh W 15.0 mph24.1 kmh 29.74 in1007.1 mb 0.00 in0.0 mm 0.00 in0.0 mm 0.00 in0.0 mm
06:49 PM 61.6°F16.4°C 54.7°F12.6°C 78% 12.0 mph WSW19.3 kmh WSW 14.0 mph22.5 kmh 29.74 in1007.1 mb 0.00 in0.0 mm 0.00 in0.0 mm 0.00 in0.0 mm
06:50 PM 61.6°F16.4°C 54.7°F12.6°C 78% 11.0 mph W17.7 kmh W 16.0 mph25.7 kmh 29.74 in1007.1 mb 0.00 in0.0 mm 0.00 in0.0 mm 0.00 in0.0 mm
06:51 PM 61.7°F16.5°C 55.5°F13.1°C 80% 15.0 mph WSW24.1 kmh WSW 16.0 mph25.7 kmh 29.73 in1006.8 mb 0.00 in0.0 mm 0.00 in0.0 mm 0.00 in0.0 mm
06:52 PM 61.5°F16.4°C 54.6°F12.6°C 78% 13.0 mph W20.9 kmh W 15.0 mph24.1 kmh 29.73 in1006.8 mb 0.00 in0.0 mm 0.00 in0.0 mm 0.00 in0.0 mm
06:53 PM 61.4°F16.3°C 54.5°F12.5°C 78% 12.0 mph W19.3 kmh W 14.0 mph22.5 kmh 29.73 in1006.8 mb 0.00 in0.0 mm 0.00 in0.0 mm 0.00 in0.0 mm
06:54 PM 61.5°F16.4°C 55.3°F12.9°C 80% 12.8 mph WSW20.6 kmh WSW 15.0 mph24.1 kmh 29.73 in1006.8 mb 0.00 in0.0 mm 0.00 in0.0 mm 0.00 in0.0 mm
06:55 PM 61.5°F16.4°C 54.9°F12.7°C 79% 13.1 mph WSW21.1 kmh WSW 16.0 mph25.7 kmh 29.73 in1006.8 mb 0.00 in0.0 mm 0.00 in0.0 mm 0.00 in0.0 mm
06:56 PM 61.5°F16.4°C 54.6°F12.6°C 78% 14.4 mph WSW23.2 kmh WSW 17.0 mph27.4 kmh 29.73 in1006.8 mb 0.00 in0.0 mm 0.00 in0.0 mm 0.00 in0.0 mm
06:57 PM 61.5°F16.4°C 54.9°F12.7°C 79% 14.1 mph WSW22.7 kmh WSW 18.0 mph29.0 kmh 29.73 in1006.8 mb 0.00 in0.0 mm 0.00 in0.0 mm 0.00 in0.0 mm
06:58 PM 61.5°F16.4°C 54.6°F12.6°C 78% 12.6 mph WSW20.3 kmh WSW 18.0 mph29.0 kmh 29.73 in1006.8 mb 0.00 in0.0 mm 0.00 in0.0 mm 0.00 in0.0 mm
06:59 PM 61.4°F16.3°C 54.5°F12.5°C 78% 12.3 mph WSW19.8 kmh WSW 15.0 mph24.1 kmh 29.73 in1006.8 mb 0.00 in0.0 mm 0.00 in0.0 mm 0.00 in0.0 mm
07:00 PM 61.4°F16.3°C 54.5°F12.5°C 78% 13.0 mph WSW20.9 kmh WSW 15.0 mph24.1 kmh 29.73 in1006.8 mb 0.00 in0.0 mm 0.00 in0.0 mm 0.00 in0.0 mm
07:01 PM 61.4°F16.3°C 54.5°F12.5°C 78% 13.0 mph WSW20.9 kmh WSW 15.0 mph24.1 kmh 29.73 in1006.8 mb 0.00 in0.0 mm 0.00 in0.0 mm 0.00 in0.0 mm
07:02 PM 61.3°F16.3°C 54.4°F12.4°C 78% 12.0 mph WSW19.3 kmh WSW 14.0 mph22.5 kmh 29.73 in1006.8 mb 0.00 in0.0 mm 0.00 in0.0 mm 0.00 in0.0 mm
07:03 PM 61.3°F16.3°C 54.4°F12.4°C 78% 12.4 mph WSW20.0 kmh WSW 15.0 mph24.1 kmh 29.73 in1006.8 mb 0.00 in0.0 mm 0.00 in0.0 mm 0.00 in0.0 mm
07:04 PM 61.2°F16.2°C 54.3°F12.4°C 78% 13.7 mph WSW22.0 kmh WSW 17.0 mph27.4 kmh 29.73 in1006.8 mb 0.00 in0.0 mm 0.00 in0.0 mm 0.00 in0.0 mm
07:05 PM 61.1°F16.2°C 54.5°F12.5°C 79% 13.3 mph WSW21.4 kmh WSW 17.0 mph27.4 kmh 29.73 in1006.8 mb 0.00 in0.0 mm 0.00 in0.0 mm 0.00 in0.0 mm
07:06 PM 61.1°F16.2°C 54.2°F12.3°C 78% 13.2 mph WSW21.2 kmh WSW 16.0 mph25.7 kmh 29.73 in1006.8 mb 0.00 in0.0 mm 0.00 in0.0 mm 0.00 in0.0 mm
07:07 PM 61.1°F16.2°C 54.5°F12.5°C 79% 10.4 mph WSW16.7 kmh WSW 16.0 mph25.7 kmh 29.73 in1006.8 mb 0.00 in0.0 mm 0.00 in0.0 mm 0.00 in0.0 mm
07:08 PM 61.2°F16.2°C 54.6°F12.6°C 79% 9.6 mph W15.4 kmh W 13.0 mph20.9 kmh 29.73 in1006.8 mb 0.00 in0.0 mm 0.00 in0.0 mm 0.00 in0.0 mm
07:09 PM 61.2°F16.2°C 54.6°F12.6°C 79% 10.6 mph WSW17.1 kmh WSW 14.0 mph22.5 kmh 29.73 in1006.8 mb 0.00 in0.0 mm 0.00 in0.0 mm 0.00 in0.0 mm
07:10 PM 61.3°F16.3°C 54.7°F12.6°C 79% 12.9 mph WSW20.8 kmh WSW 15.0 mph24.1 kmh 29.73 in1006.8 mb 0.00 in0.0 mm 0.00 in0.0 mm 0.00 in0.0 mm
07:11 PM 61.3°F16.3°C 54.7°F12.6°C 79% 12.4 mph W20.0 kmh W 15.0 mph24.1 kmh 29.73 in1006.8 mb 0.00 in0.0 mm 0.00 in0.0 mm 0.00 in0.0 mm
07:12 PM 61.2°F16.2°C 54.3°F12.4°C 78% 12.3 mph W19.8 kmh W 15.0 mph24.1 kmh 29.73 in1006.8 mb 0.00 in0.0 mm 0.00 in0.0 mm 0.00 in0.0 mm
07:13 PM 61.2°F16.2°C 54.3°F12.4°C 78% 10.9 mph WSW17.5 kmh WSW 14.0 mph22.5 kmh 29.73 in1006.8 mb 0.00 in0.0 mm 0.00 in0.0 mm 0.00 in0.0 mm
07:14 PM 61.2°F16.2°C 54.6°F12.6°C 79% 10.9 mph WSW17.5 kmh WSW 16.0 mph25.7 kmh 29.73 in1006.8 mb 0.00 in0.0 mm 0.00 in0.0 mm 0.00 in0.0 mm
07:15 PM 61.1°F16.2°C 54.2°F12.3°C 78% 14.2 mph WSW22.9 kmh WSW 16.0 mph25.7 kmh 29.73 in1006.8 mb 0.00 in0.0 mm 0.00 in0.0 mm 0.00 in0.0 mm
07:16 PM 60.9°F16.1°C 54.0°F12.2°C 78% 14.4 mph WSW23.2 kmh WSW 16.0 mph25.7 kmh 29.73 in1006.8 mb 0.00 in0.0 mm 0.00 in0.0 mm 0.00 in0.0 mm
07:17 PM 60.8°F16.0°C 53.9°F12.2°C 78% 14.4 mph WSW23.2 kmh WSW 17.0 mph27.4 kmh 29.73 in1006.8 mb 0.00 in0.0 mm 0.00 in0.0 mm 0.00 in0.0 mm
07:18 PM 60.8°F16.0°C 53.9°F12.2°C 78% 13.3 mph WSW21.4 kmh WSW 17.0 mph27.4 kmh 29.73 in1006.8 mb 0.00 in0.0 mm 0.00 in0.0 mm 0.00 in0.0 mm
07:19 PM 60.8°F16.0°C 53.9°F12.2°C 78% 12.2 mph WSW19.6 kmh WSW 16.0 mph25.7 kmh 29.73 in1006.8 mb 0.00 in0.0 mm 0.00 in0.0 mm 0.00 in0.0 mm
07:20 PM 60.8°F16.0°C 53.9°F12.2°C 78% 12.2 mph WSW19.6 kmh WSW 16.0 mph25.7 kmh 29.73 in1006.8 mb 0.00 in0.0 mm 0.00 in0.0 mm 0.00 in0.0 mm
07:21 PM 60.7°F15.9°C 53.8°F12.1°C 78% 13.7 mph WSW22.0 kmh WSW 16.0 mph25.7 kmh 29.73 in1006.8 mb 0.00 in0.0 mm 0.00 in0.0 mm 0.00 in0.0 mm
07:22 PM 60.6°F15.9°C 53.7°F12.1°C 78% 12.2 mph W19.6 kmh W 15.0 mph24.1 kmh 29.73 in1006.8 mb 0.00 in0.0 mm 0.00 in0.0 mm 0.00 in0.0 mm
07:23 PM 60.7°F15.9°C 54.5°F12.5°C 80% 11.9 mph W19.2 kmh W 15.0 mph24.1 kmh 29.73 in1006.8 mb 0.00 in0.0 mm 0.00 in0.0 mm 0.00 in0.0 mm
07:24 PM 60.6°F15.9°C 53.7°F12.1°C 78% 11.5 mph W18.5 kmh W 15.0 mph24.1 kmh 29.73 in1006.8 mb 0.00 in0.0 mm 0.00 in0.0 mm 0.00 in0.0 mm
07:25 PM 60.6°F15.9°C 54.0°F12.2°C 79% 14.1 mph W22.7 kmh W 16.0 mph25.7 kmh 29.73 in1006.8 mb 0.00 in0.0 mm 0.00 in0.0 mm 0.00 in0.0 mm
07:26 PM 60.5°F15.8°C 54.0°F12.2°C 79% 12.4 mph WSW20.0 kmh WSW 16.0 mph25.7 kmh 29.73 in1006.8 mb 0.00 in0.0 mm 0.00 in0.0 mm 0.00 in0.0 mm
07:27 PM 60.5°F15.8°C 54.0°F12.2°C 79% 12.9 mph WSW20.8 kmh WSW 16.0 mph25.7 kmh 29.73 in1006.8 mb 0.00 in0.0 mm 0.00 in0.0 mm 0.00 in0.0 mm
07:28 PM 60.5°F15.8°C 54.0°F12.2°C 79% 11.6 mph WSW18.7 kmh WSW 16.0 mph25.7 kmh 29.73 in1006.8 mb 0.00 in0.0 mm 0.00 in0.0 mm 0.00 in0.0 mm
07:29 PM 60.5°F15.8°C 54.0°F12.2°C 79% 9.8 mph W15.8 kmh W 14.0 mph22.5 kmh 29.73 in1006.8 mb 0.00 in0.0 mm 0.00 in0.0 mm 0.00 in0.0 mm
07:30 PM 60.5°F15.8°C 54.0°F12.2°C 79% 14.1 mph W22.7 kmh W 15.0 mph24.1 kmh 29.74 in1007.1 mb 0.00 in0.0 mm 0.00 in0.0 mm 0.00 in0.0 mm